Provisional Data: South Branch Codorus Creek near Leader Heights, PA


Please select a monitoring station.
Please select start date.
Please select start date.

Toggle Unit: C/F Toggle Unit: C/F
Sample Time Temperature (C) Temperature (F) Specific Conductivity (mS/cm) pH   Turbidity (NTU+) DO (mg/L)
5/17/2022 12:00:00 AM 15.96 60.728 0.223 7.38 88.34 9.16
5/17/2022 12:15:00 AM 15.94 60.692 0.225 7.39 90.53 9.16
5/17/2022 12:30:00 AM 15.86 60.548 0.224 7.39 90.58 9.13
5/17/2022 12:45:00 AM 15.91 60.638 0.219 7.38 89.54 9.2
5/17/2022 1:00:00 AM 15.99 60.782 0.223 7.37 87.02 9.11
5/17/2022 1:15:00 AM 16.13 61.034 0.22 7.36 98.52 9.08
5/17/2022 1:30:00 AM 16.12 61.016 0.221 7.37 90.75 9.08
5/17/2022 1:45:00 AM 16.15 61.07 0.221 7.38 101.2 9.08
5/17/2022 2:00:00 AM 16.16 61.088 0.226 7.37 91.94 9.04
5/17/2022 2:15:00 AM 16.11 60.998 0.224 7.38 98.63 9.05
5/17/2022 2:30:00 AM 16.05 60.89 0.222 7.38 88.42 9.07
5/17/2022 2:45:00 AM 16.07 60.926 0.226 7.38 98.72 9.04
5/17/2022 3:00:00 AM 16.02 60.836 0.225 7.39 88.5 9.05
5/17/2022 3:15:00 AM 16.03 60.854 0.22 7.38 92.67 9.06
5/17/2022 3:30:00 AM 16.07 60.926 0.218 7.38 97.3 9.04
5/17/2022 3:45:00 AM 16.06 60.908 0.22 7.37 90.59 9.05
5/17/2022 4:00:00 AM 16 60.8 0.225 7.4 75.19 9.05
5/17/2022 4:15:00 AM 16.02 60.836 0.22 7.39 86.64 9.05
5/17/2022 4:30:00 AM 15.98 60.764 0.225 7.4 93.71 9.07
5/17/2022 4:45:00 AM 15.96 60.728 0.227 7.41 86.04 9.08
5/17/2022 5:00:00 AM 15.93 60.674 0.226 7.4 89.34 9.07
5/17/2022 5:15:00 AM 15.86 60.548 0.223 7.41 91.57 9.1
5/17/2022 5:30:00 AM 15.75 60.35 0.227 7.4 92.69 9.11
5/17/2022 5:45:00 AM 15.64 60.152 0.222 7.4 91.99 9.15
5/17/2022 6:00:00 AM 15.54 59.972 0.221 7.4 86.76 9.18
5/17/2022 6:15:00 AM 15.47 59.846 0.221 7.39 91.45 9.19
5/17/2022 6:30:00 AM 15.36 59.648 0.227 7.4 94.1 9.21
5/17/2022 6:45:00 AM 15.32 59.576 0.224 7.4 88.92 9.25
5/17/2022 7:00:00 AM 15.28 59.504 0.226 7.4 96.22 9.25
5/17/2022 7:15:00 AM 15.26 59.468 0.224 7.41 91.67 9.28
5/17/2022 7:30:00 AM 15.29 59.522 0.22 7.4 90.95 9.32
5/17/2022 7:45:00 AM 15.32 59.576 0.221 7.55 103.8 9.31
5/17/2022 8:00:00 AM 15.38 59.684 0.222 7.56 139.1 9.31
5/17/2022 8:15:00 AM 15.43 59.774 0.222 7.55 123.3 9.35
5/17/2022 8:30:00 AM 15.5 59.9 0.221 7.55 90.16 9.39
5/17/2022 8:45:00 AM 15.56 60.008 0.221 7.54 94.01 9.43
5/17/2022 9:00:00 AM 15.65 60.17 0.221 7.54 107.5 9.46
5/17/2022 9:15:00 AM 15.78 60.404 0.221 7.54 97.3 9.49
5/17/2022 9:30:00 AM 15.9 60.62 0.221 7.54 92.65 9.53
5/17/2022 9:45:00 AM 16.04 60.872 0.22 7.54 87.33 9.57
5/17/2022 10:00:00 AM 16.18 61.124 0.22 7.55 102.8 9.59
5/17/2022 10:15:00 AM 16.31 61.358 0.22 7.55 96.58 9.62
5/17/2022 10:30:00 AM 16.42 61.556 0.221 7.56 88.92 9.66
5/17/2022 10:45:00 AM 16.54 61.772 0.221 7.57 91.76 9.69
5/17/2022 11:00:00 AM 16.67 62.006 0.221 7.57 94.58 9.73
5/17/2022 11:15:00 AM 16.81 62.258 0.221 7.58 90.82 9.76
5/17/2022 11:30:00 AM 16.97 62.546 0.221 7.59 91.19 9.79
5/17/2022 11:45:00 AM 17.11 62.798 0.221 7.6 86.29 9.8
5/17/2022 12:00:00 PM 17.24 63.032 0.221 7.61 93.27 9.81
5/17/2022 12:15:00 PM 17.39 63.302 0.221 7.61 97.21 9.82
5/17/2022 12:30:00 PM 17.45 63.41 0.221 7.63 93.94 9.81
5/17/2022 12:45:00 PM 17.48 63.464 0.221 7.63 92.86 9.8
5/17/2022 1:00:00 PM 17.54 63.572 0.221 7.64 87.22 9.8
5/17/2022 1:15:00 PM 17.62 63.716 0.221 7.63 90.24 9.82
5/17/2022 1:30:00 PM 17.6 63.68 0.221 7.65 92.05 9.85
5/17/2022 1:45:00 PM 17.62 63.716 0.221 7.66 88.3 9.84
5/17/2022 2:00:00 PM 17.69 63.842 0.222 7.66 92.66 9.84
5/17/2022 2:15:00 PM 17.74 63.932 0.222 7.66 97.03 9.88
5/17/2022 2:30:00 PM 17.82 64.076 0.222 7.67 82.09 9.88
5/17/2022 2:45:00 PM 17.9 64.22 0.222 7.67 97.91 9.88
5/17/2022 3:00:00 PM 17.82 64.076 0.221 7.69 81.87 9.86
5/17/2022 3:15:00 PM 17.76 63.968 0.221 7.67 90.93 9.85
5/17/2022 3:30:00 PM 17.73 63.914 0.221 7.67 100.3 9.85
5/17/2022 3:45:00 PM 17.58 63.644 0.222 7.67 87.68 9.86
5/17/2022 4:00:00 PM 17.51 63.518 0.222 7.69 96.57 9.86
5/17/2022 4:15:00 PM 17.53 63.554 0.222 7.68 95.79 9.84
5/17/2022 4:30:00 PM 17.53 63.554 0.222 7.68 98.2 9.81
5/17/2022 4:45:00 PM 17.44 63.392 0.222 7.69 77.69 9.81
5/17/2022 5:00:00 PM 17.53 63.554 0.221 7.68 81.71 9.75
5/17/2022 5:15:00 PM 17.44 63.392 0.222 7.68 95.31 9.72
5/17/2022 5:30:00 PM 17.34 63.212 0.221 7.68 93.48 9.72
5/17/2022 5:45:00 PM 17.22 62.996 0.221 7.67 87.62 9.7
5/17/2022 6:00:00 PM 17.16 62.888 0.222 7.66 97.96 9.67
5/17/2022 6:15:00 PM 17.1 62.78 0.222 7.66 89.25 9.63
5/17/2022 6:30:00 PM 16.98 62.564 0.222 7.65 94.71 9.6
5/17/2022 6:45:00 PM 16.82 62.276 0.223 7.65 94.32 9.57
5/17/2022 7:00:00 PM 16.82 62.276 0.222 7.65 83.7 9.53
5/17/2022 7:15:00 PM 16.76 62.168 0.223 7.64 90.63 9.5
5/17/2022 7:30:00 PM 16.63 61.934 0.222 7.64 81.16 9.49
5/17/2022 7:45:00 PM 16.49 61.682 0.222 7.62 90.03 9.47
5/17/2022 8:00:00 PM 16.46 61.628 0.222 7.61 82.41 9.41
5/17/2022 8:15:00 PM 16.36 61.448 0.222 7.61 88.8 9.4
5/17/2022 8:30:00 PM 16.3 61.34 0.222 7.6 86.01 9.37
5/17/2022 8:45:00 PM 16.05 60.89 0.222 7.59 81.49 9.38
5/17/2022 9:00:00 PM 16.06 60.908 0.223 7.58 89.56 9.34
5/17/2022 9:15:00 PM 16.03 60.854 0.223 7.57 90.3 9.32
5/17/2022 9:30:00 PM 16.01 60.818 0.223 7.56 94.64 9.27
5/17/2022 9:45:00 PM 16.08 60.944 0.223 7.55 93.75 9.24
5/17/2022 10:00:00 PM 16.09 60.962 0.222 7.54 86.8 9.21
5/17/2022 10:15:00 PM 16.02 60.836 0.222 7.55 96.45 9.22
5/17/2022 10:30:00 PM 15.97 60.746 0.222 7.53 93.92 9.22
5/17/2022 10:45:00 PM 16.06 60.908 0.223 7.52 100 9.17
5/17/2022 11:00:00 PM 16.18 61.124 0.223 7.52 104 9.14
5/17/2022 11:15:00 PM 16.22 61.196 0.223 7.52 97.91 9.11
5/17/2022 11:30:00 PM 16.27 61.286 0.224 7.51 104.8 9.08
5/17/2022 11:45:00 PM 16.33 61.394 0.224 7.51 103.1 9.07
5/18/2022 12:00:00 AM 16.41 61.538 0.224 7.52 94.15 9.07
5/18/2022 12:15:00 AM 16.31 61.358 0.224 7.52 102.7 9.06
5/18/2022 12:30:00 AM 16.33 61.394 0.224 7.51 91.72 9.06
5/18/2022 12:45:00 AM 16.26 61.268 0.224 7.5 89.96 9.07
5/18/2022 1:00:00 AM 16.25 61.25 0.225 7.51 86.41 9.07
5/18/2022 1:15:00 AM 16.27 61.286 0.225 7.51 93.56 9.04
5/18/2022 1:30:00 AM 16.25 61.25 0.225 7.5 87.42 9.06
5/18/2022 1:45:00 AM 16.22 61.196 0.225 7.52 95.2 9.05
5/18/2022 2:00:00 AM 16.18 61.124 0.226 7.51 89.76 9.05
5/18/2022 2:15:00 AM 16.19 61.142 0.226 7.5 101.6 9.04
5/18/2022 2:30:00 AM 16.19 61.142 0.225 7.5 89.64 9.03
5/18/2022 2:45:00 AM 16.15 61.07 0.225 7.5 100.8 9.03
5/18/2022 3:00:00 AM 16.07 60.926 0.225 7.49 100.4 9.05
5/18/2022 3:15:00 AM 16.04 60.872 0.225 7.5 93.24 9.06
5/18/2022 3:30:00 AM 15.99 60.782 0.225 7.49 98.87 9.05
5/18/2022 3:45:00 AM 15.98 60.764 0.225 7.49 96.33 9.05
5/18/2022 4:00:00 AM 15.97 60.746 0.225 7.5 92.52 9.07
5/18/2022 4:15:00 AM 15.94 60.692 0.225 7.5 89.86 9.07
5/18/2022 4:30:00 AM 15.88 60.584 0.226 7.49 94.67 9.08
5/18/2022 4:45:00 AM 15.79 60.422 0.225 7.49 90.72 9.11
5/18/2022 5:00:00 AM 15.67 60.206 0.225 7.49 94.37 9.12
5/18/2022 5:15:00 AM 15.63 60.134 0.224 7.49 92.03 9.15
5/18/2022 5:30:00 AM 15.57 60.026 0.224 7.49 89.85 9.16
5/18/2022 5:45:00 AM 15.51 59.918 0.225 7.5 101.9 9.16
5/18/2022 6:00:00 AM 15.47 59.846 0.225 7.49 94.13 9.16
5/18/2022 6:15:00 AM 15.43 59.774 0.225 7.49 90.49 9.19
5/18/2022 6:30:00 AM 15.37 59.666 0.225 7.49 84.56 9.2
5/18/2022 6:45:00 AM 15.32 59.576 0.225 7.49 82 9.23
5/18/2022 7:00:00 AM 15.29 59.522 0.225 7.49 89.57 9.26
5/18/2022 7:15:00 AM 15.28 59.504 0.225 7.5 77.3 9.29
5/18/2022 7:30:00 AM 15.3 59.54 0.224 7.5 86.23 9.31
5/18/2022 7:45:00 AM 15.34 59.612 0.224 7.5 83.73 9.33
5/18/2022 8:00:00 AM 15.38 59.684 0.224 7.5 82.04 9.38
5/18/2022 8:15:00 AM 15.42 59.756 0.225 7.51 87.34 9.41
5/18/2022 8:30:00 AM 15.45 59.81 0.225 7.52 82.2 9.46
5/18/2022 8:45:00 AM 15.53 59.954 0.224 7.52 87.45 9.49
5/18/2022 9:00:00 AM 15.63 60.134 0.224 7.53 105.1 9.54
5/18/2022 9:15:00 AM 15.73 60.314 0.224 7.53 90.95 9.57
5/18/2022 9:30:00 AM 15.88 60.584 0.224 7.55 76.72 9.6
5/18/2022 9:45:00 AM 16.02 60.836 0.224 7.55 92.54 9.62
5/18/2022 10:00:00 AM 16.16 61.088 0.224 7.57 83.83 9.67
5/18/2022 10:15:00 AM 16.31 61.358 0.224 7.57 86.99 9.7
5/18/2022 10:30:00 AM 16.43 61.574 0.223 7.59 83.46 9.72
5/18/2022 10:45:00 AM 16.48 61.664 0.223 7.59 88.64 9.79
5/18/2022 11:00:00 AM 16.5 61.7 0.223 7.61 71.12 9.84
5/18/2022 11:15:00 AM 16.56 61.808 0.224 7.61 67.32 9.9
5/18/2022 11:30:00 AM 16.61 61.898 0.225 7.62 62.73 9.96
5/18/2022 11:45:00 AM 16.65 61.97 0.225 7.63 56.5 10.04
5/18/2022 12:00:00 PM 16.76 62.168 0.225 7.66 47.32 10.1
5/18/2022 12:15:00 PM 16.89 62.402 0.226 7.66 54.88 10.15
5/18/2022 12:30:00 PM 17.06 62.708 0.227 7.69 44.77 10.19
5/18/2022 12:45:00 PM 17.2 62.96 0.227 7.7 45.53 10.22
5/18/2022 1:00:00 PM 17.44 63.392 0.227 7.72 64.15 10.21
5/18/2022 1:15:00 PM 17.64 63.752 0.227 7.72 54.2 10.21
5/18/2022 1:30:00 PM 17.83 64.094 0.228 7.74 53.99 10.23
5/18/2022 1:45:00 PM 18.1 64.58 0.229 7.73 63.63 10.15
5/18/2022 2:00:00 PM 19 66.2 0.235 7.62 209.4 9.46
5/18/2022 2:15:00 PM 19.59 67.262 0.23 7.54 457.8 9.17
5/18/2022 2:30:00 PM 19.15 66.47 0.225 7.54 455.7 9.35
5/18/2022 2:45:00 PM 18.68 65.624 0.224 7.58 322.9 9.56
5/18/2022 3:00:00 PM 18.47 65.246 0.223 7.61 264.3 9.65
5/18/2022 3:15:00 PM 18.38 65.084 0.224 7.63 234.4 9.67
5/18/2022 3:30:00 PM 18.36 65.048 0.224 7.64 239.9 9.65
5/18/2022 3:45:00 PM 18.36 65.048 0.224 7.66 209.6 9.68
5/18/2022 4:00:00 PM 18.31 64.958 0.225 7.67 224.5 9.68
5/18/2022 4:15:00 PM 18.2 64.76 0.225 7.67 179.1 9.65
5/18/2022 4:30:00 PM 18.13 64.634 0.225 7.68 175.1 9.62
5/18/2022 4:45:00 PM 18.04 64.472 0.225 7.68 163.1 9.6
5/18/2022 5:00:00 PM 17.85 64.13 0.225 7.69 165 9.54
5/18/2022 5:15:00 PM 17.7 63.86 0.224 7.68 160.5 9.49
5/18/2022 5:30:00 PM 17.53 63.554 0.224 7.67 156.8 9.46
5/18/2022 5:45:00 PM 17.36 63.248 0.224 7.67 159.3 9.43
5/18/2022 6:00:00 PM 17.18 62.924 0.224 7.66 151.6 9.41
5/18/2022 6:15:00 PM 17.01 62.618 0.225 7.65 154.3 9.4
5/18/2022 6:30:00 PM 16.95 62.51 0.225 7.64 165.4 9.38
5/18/2022 6:45:00 PM 16.94 62.492 0.225 7.63 141.7 9.36
5/18/2022 7:00:00 PM 16.93 62.474 0.225 7.63 138.4 9.33
5/18/2022 7:15:00 PM 17 62.6 0.225 7.62 151 9.3
5/18/2022 7:30:00 PM 16.95 62.51 0.224 7.63 142.5 9.27
5/18/2022 7:45:00 PM 16.94 62.492 0.224 7.61 138.7 9.26
5/18/2022 8:00:00 PM 16.92 62.456 0.224 7.6 128.7 9.21
5/18/2022 8:15:00 PM 16.95 62.51 0.224 7.6 145.5 9.16
5/18/2022 8:30:00 PM 16.97 62.546 0.225 7.58 144.2 9.12
5/18/2022 8:45:00 PM 17.02 62.636 0.225 7.59 142.1 9.08
5/18/2022 9:00:00 PM 17.01 62.618 0.225 7.58 131.4 9.04
5/18/2022 9:15:00 PM 17.02 62.636 0.225 7.57 135.5 9.01
5/18/2022 9:30:00 PM 17.04 62.672 0.225 7.58 133.3 8.99
5/18/2022 9:45:00 PM 16.99 62.582 0.225 7.56 152.2 8.99
5/18/2022 10:00:00 PM 16.98 62.564 0.225 7.56 149.8 8.97
5/18/2022 10:15:00 PM 16.91 62.438 0.225 7.55 136 8.96
5/18/2022 10:30:00 PM 16.91 62.438 0.224 7.56 128.6 8.96
5/18/2022 10:45:00 PM 16.81 62.258 0.225 7.55 145.6 8.96
5/18/2022 11:00:00 PM 16.84 62.312 0.225 7.55 137.5 8.96
5/18/2022 11:15:00 PM 16.79 62.222 0.225 7.54 133.6 8.94
5/18/2022 11:30:00 PM 16.76 62.168 0.225 7.54 116.2 8.94
5/18/2022 11:45:00 PM 16.74 62.132 0.225 7.53 126.4 8.94
5/19/2022 12:00:00 AM 16.71 62.078 0.225 7.53 135.9 8.94
5/19/2022 12:15:00 AM 16.69 62.042 0.225 7.53 135.9 8.93
5/19/2022 12:30:00 AM 16.65 61.97 0.225 7.53 130.7 8.93
5/19/2022 12:45:00 AM 16.65 61.97 0.224 7.52 110.4 8.93
5/19/2022 1:00:00 AM 16.63 61.934 0.224 7.52 128.1 8.92
5/19/2022 1:15:00 AM 16.6 61.88 0.224 7.52 124.1 8.93
5/19/2022 1:30:00 AM 16.57 61.826 0.224 7.51 122.7 8.93
5/19/2022 1:45:00 AM 16.53 61.754 0.223 7.52 120.7 8.93
5/19/2022 2:00:00 AM 16.47 61.646 0.223 7.52 133.2 8.93
5/19/2022 2:15:00 AM 16.42 61.556 0.222 7.51 155.4 8.93
5/19/2022 2:30:00 AM 16.38 61.484 0.221 7.51 160.1 8.93
5/19/2022 2:45:00 AM 16.32 61.376 0.219 7.5 181.4 8.94
5/19/2022 3:00:00 AM 16.27 61.286 0.219 7.51 200.1 8.93
5/19/2022 3:15:00 AM 16.24 61.232 0.219 7.51 231.7 8.91
5/19/2022 3:30:00 AM 16.2 61.16 0.218 7.49 326.7 8.87
5/19/2022 3:45:00 AM 16.15 61.07 0.218 7.49 272 8.87
5/19/2022 4:00:00 AM 16.1 60.98 0.222 7.48 219.7 8.89
5/19/2022 4:15:00 AM 16.08 60.944 0.223 7.48 198.2 8.89
5/19/2022 4:30:00 AM 16.08 60.944 0.222 7.48 214.1 8.88
5/19/2022 4:45:00 AM 16.1 60.98 0.22 7.48 240.6 8.85
5/19/2022 5:00:00 AM 16.13 61.034 0.219 7.47 218.6 8.83
5/19/2022 5:15:00 AM 16.15 61.07 0.219 7.46 152.9 8.83
5/19/2022 5:30:00 AM 16.15 61.07 0.219 7.46 165.6 8.84
5/19/2022 5:45:00 AM 16.12 61.016 0.218 7.46 167.3 8.84
5/19/2022 6:00:00 AM 16.07 60.926 0.218 7.46 158.5 8.85
5/19/2022 6:15:00 AM 16.03 60.854 0.217 7.47 150.6 8.85
5/19/2022 6:30:00 AM 16.01 60.818 0.217 7.45 150.1 8.86
5/19/2022 6:45:00 AM 16.01 60.818 0.217 7.46 128.6 8.86
5/19/2022 7:00:00 AM 16.01 60.818 0.217 7.46 133.3 8.86
5/19/2022 7:15:00 AM 16.02 60.836 0.218 7.46 131.6 8.86
5/19/2022 7:30:00 AM 16.01 60.818 0.218 7.46 145.8 8.87
5/19/2022 7:45:00 AM 16 60.8 0.218 7.46 121 8.87
5/19/2022 8:00:00 AM 15.99 60.782 0.217 7.46 132.7 8.87
5/19/2022 8:15:00 AM 16.01 60.818 0.217 7.45 125 8.87
5/19/2022 8:30:00 AM 15.97 60.746 0.216 7.46 145.7 8.89
5/19/2022 8:45:00 AM 15.96 60.728 0.216 7.47 122.3 8.9
5/19/2022 9:00:00 AM 16 60.8 0.217 7.48 134.8 8.93
5/19/2022 9:15:00 AM 15.94 60.692 0.216 7.47 141.6 8.94
5/19/2022 9:30:00 AM 15.96 60.728 0.216 7.47 125.8 8.96
5/19/2022 9:45:00 AM 15.93 60.674 0.216 7.47 139.3 8.97
5/19/2022 10:00:00 AM 15.97 60.746 0.216 7.47 143.2 8.99
5/19/2022 10:15:00 AM 15.98 60.764 0.215 7.47 169.5 9.01
5/19/2022 10:30:00 AM 16 60.8 0.215 7.48 146 9.02
5/19/2022 10:45:00 AM 16.03 60.854 0.214 7.48 132.6 9.04
5/19/2022 11:00:00 AM 16.14 61.052 0.214 7.48 124.8 9.04
5/19/2022 11:15:00 AM 16.24 61.232 0.214 7.48 135.8 9.04
5/19/2022 11:30:00 AM 16.33 61.394 0.213 7.49 134.6 9.06
5/19/2022 11:45:00 AM 16.39 61.502 0.213 7.48 134.6 9.09
5/19/2022 12:00:00 PM 16.54 61.772 0.212 7.48 137.6 9.09
5/19/2022 12:15:00 PM 16.65 61.97 0.212 7.49 142.5 9.1
5/19/2022 12:30:00 PM 16.82 62.276 0.212 7.48 150.6 9.09
5/19/2022 12:45:00 PM 16.98 62.564 0.213 7.48 130.3 9.09
5/19/2022 1:00:00 PM 16.98 62.564 0.212 7.49 134.1 9.05
5/19/2022 1:15:00 PM 17.05 62.69 0.212 7.48 135 9.04
5/19/2022 1:30:00 PM 17.17 62.906 0.212 7.49 140.8 9.06
5/19/2022 1:45:00 PM 17.28 63.104 0.211 7.49 128.1 9.06
5/19/2022 2:00:00 PM 17.42 63.356 0.211 7.49 139.3 9.07
5/19/2022 2:15:00 PM 17.56 63.608 0.211 7.49 139.4 9.07
5/19/2022 2:30:00 PM 17.65 63.77 0.211 7.51 124.8 9.06
5/19/2022 2:45:00 PM 17.77 63.986 0.212 7.5 124.5 9.05
5/19/2022 3:00:00 PM 17.88 64.184 0.213 7.5 119.2 9.04
5/19/2022 3:15:00 PM 18.02 64.436 0.215 7.5 120.3 9.04
5/19/2022 3:30:00 PM 18.13 64.634 0.215 7.51 118.1 9.02
5/19/2022 3:45:00 PM 18.17 64.706 0.216 7.51 121 9.03
5/19/2022 4:00:00 PM 18.15 64.67 0.216 7.52 125.9 9.03
5/19/2022 4:15:00 PM 18.16 64.688 0.217 7.52 120.5 9.03
5/19/2022 4:30:00 PM 18.07 64.526 0.216 7.52 126.4 9.03
5/19/2022 4:45:00 PM 18.06 64.508 0.217 7.53 134.1 9.02
5/19/2022 5:00:00 PM 18.07 64.526 0.217 7.52 130.4 9.02
5/19/2022 5:15:00 PM 18.07 64.526 0.217 7.53 124.9 8.99
5/19/2022 5:30:00 PM 18 64.4 0.218 7.53 130.7 9
5/19/2022 5:45:00 PM 18 64.4 0.217 7.54 119.2 8.99
5/19/2022 6:00:00 PM 17.96 64.328 0.218 7.53 116.9 8.98
5/19/2022 6:15:00 PM 17.95 64.31 0.217 7.53 114.5 8.96
5/19/2022 6:30:00 PM 17.91 64.238 0.219 7.53 120.4 8.97
5/19/2022 6:45:00 PM 17.94 64.292 0.218 7.53 106.1 8.94
5/19/2022 7:00:00 PM 17.91 64.238 0.218 7.53 122.1 8.91
5/19/2022 7:15:00 PM 17.82 64.076 0.218 7.52 118.6 8.91
5/19/2022 7:30:00 PM 17.74 63.932 0.219 7.52 117.1 8.9
5/19/2022 7:45:00 PM 17.68 63.824 0.22 7.52 129.2 8.88
5/19/2022 8:00:00 PM 17.6 63.68 0.221 7.51 126.2 8.87
5/19/2022 8:15:00 PM 17.57 63.626 0.22 7.51 121.1 8.86
5/19/2022 8:30:00 PM 17.51 63.518 0.22 7.5 135.1 8.84
5/19/2022 8:45:00 PM 17.48 63.464 0.219 7.5 116.8 8.83
5/19/2022 9:00:00 PM 17.39 63.302 0.22 7.49 129 8.83
5/19/2022 9:15:00 PM 17.37 63.266 0.218 7.49 133.5 8.81
5/19/2022 9:30:00 PM 17.24 63.032 0.218 7.49 126.2 8.84
5/19/2022 9:45:00 PM 17.23 63.014 0.217 7.48 118.6 8.8
5/19/2022 10:00:00 PM 17.22 62.996 0.217 7.48 121.6 8.8
5/19/2022 10:15:00 PM 17.19 62.942 0.217 7.47 127.3 8.8
5/19/2022 10:30:00 PM 17.24 63.032 0.217 7.46 136.5 8.78
5/19/2022 10:45:00 PM 17.16 62.888 0.218 7.47 135.8 8.79
5/19/2022 11:00:00 PM 17.2 62.96 0.217 7.46 134.9 8.77
5/19/2022 11:15:00 PM 17.16 62.888 0.218 7.47 136.4 8.77
5/19/2022 11:30:00 PM 17.16 62.888 0.218 7.47 129 8.76
5/19/2022 11:45:00 PM 17.19 62.942 0.218 7.47 132.8 8.77
5/20/2022 12:00:00 AM 17.21 62.978 0.218 7.46 137.3 8.75
5/20/2022 12:15:00 AM 17.23 63.014 0.217 7.47 121.4 8.74
5/20/2022 12:30:00 AM 17.23 63.014 0.218 7.46 131.5 8.76
5/20/2022 12:45:00 AM 17.22 62.996 0.218 7.46 118.5 8.76
5/20/2022 1:00:00 AM 17.17 62.906 0.218 7.45 132.4 8.76
5/20/2022 1:15:00 AM 17.13 62.834 0.219 7.45 122.1 8.76
5/20/2022 1:30:00 AM 17.12 62.816 0.219 7.46 130.5 8.76
5/20/2022 1:45:00 AM 17.1 62.78 0.219 7.45 125.7 8.76
5/20/2022 2:00:00 AM 17.09 62.762 0.22 7.45 119.5 8.75
5/20/2022 2:15:00 AM 17.1 62.78 0.22 7.46 137.5 8.74
5/20/2022 2:30:00 AM 17.06 62.708 0.22 7.45 112.4 8.75
5/20/2022 2:45:00 AM 17.02 62.636 0.22 7.45 127.7 8.76
5/20/2022 3:00:00 AM 17 62.6 0.219 7.45 131.4 8.76
5/20/2022 3:15:00 AM 16.93 62.474 0.219 7.45 123.3 8.78
5/20/2022 3:30:00 AM 16.89 62.402 0.219 7.45 123.3 8.8
5/20/2022 3:45:00 AM 16.85 62.33 0.219 7.44 134.2 8.79
5/20/2022 4:00:00 AM 16.81 62.258 0.22 7.46 158.9 8.81
5/20/2022 4:15:00 AM 16.78 62.204 0.221 7.45 125 8.81
5/20/2022 4:30:00 AM 16.74 62.132 0.221 7.45 122.3 8.82
5/20/2022 4:45:00 AM 16.72 62.096 0.22 7.45 117.7 8.82
5/20/2022 5:00:00 AM 16.69 62.042 0.219 7.45 217.4 8.82
5/20/2022 5:15:00 AM 16.64 61.952 0.22 7.45 115.7 8.86
5/20/2022 5:30:00 AM 16.58 61.844 0.221 7.44 119.8 8.86
5/20/2022 5:45:00 AM 16.55 61.79 0.221 7.45 139.1 8.87
5/20/2022 6:00:00 AM 16.53 61.754 0.22 7.44 119.2 8.87
5/20/2022 6:15:00 AM 16.49 61.682 0.221 7.44 126.8 8.89
5/20/2022 6:30:00 AM 16.45 61.61 0.222 7.44 124.4 8.91
5/20/2022 6:45:00 AM 16.44 61.592 0.222 7.45 130.1 8.92
5/20/2022 7:00:00 AM 16.45 61.61 0.222 7.44 116.9 8.92
5/20/2022 7:15:00 AM 16.45 61.61 0.222 7.44 133.5 8.93
5/20/2022 7:30:00 AM 16.44 61.592 0.221 7.44 123.6 8.97
5/20/2022 7:45:00 AM 16.44 61.592 0.221 7.45 125.9 8.96
5/20/2022 8:00:00 AM 16.43 61.574 0.221 7.44 128.2 8.98
5/20/2022 8:15:00 AM 16.43 61.574 0.222 7.45 130.3 8.99
5/20/2022 8:30:00 AM 16.45 61.61 0.223 7.45 138.3 9.04
5/20/2022 8:45:00 AM 16.52 61.736 0.222 7.46 120.9 9.07
5/20/2022 9:00:00 AM 16.57 61.826 0.222 7.46 127.8 9.09
5/20/2022 9:15:00 AM 16.64 61.952 0.222 7.47 129.6 9.14
5/20/2022 9:30:00 AM 16.74 62.132 0.222 7.48 137.2 9.17
5/20/2022 9:45:00 AM 16.81 62.258 0.222 7.48 140.4 9.2
5/20/2022 10:00:00 AM 16.95 62.51 0.222 7.49 137.4 9.24
5/20/2022 10:15:00 AM 17.15 62.87 0.222 7.5 146.8 9.27
5/20/2022 10:30:00 AM 17.28 63.104 0.222 7.52 137 9.3
5/20/2022 10:45:00 AM 17.35 63.23 0.223 7.52 126.1 9.3
5/20/2022 11:00:00 AM 17.42 63.356 0.223 7.52 125.7 9.28
5/20/2022 11:15:00 AM 17.52 63.536 0.223 7.53 130.3 9.29
5/20/2022 11:30:00 AM 17.63 63.734 0.223 7.55 123.7 9.31
5/20/2022 11:45:00 AM 17.76 63.968 0.223 7.55 128.8 9.34
5/20/2022 12:00:00 PM 17.8 64.04 0.223 7.56 130.7 9.35
5/20/2022 12:15:00 PM 17.97 64.346 0.223 7.57 148.9 9.38
5/20/2022 12:30:00 PM 18.06 64.508 0.223 7.59 130.7 9.4
5/20/2022 12:45:00 PM 18.13 64.634 0.223 7.6 136.9 9.4
5/20/2022 1:00:00 PM 18.17 64.706 0.223 7.6 138.4 9.38
5/20/2022 1:15:00 PM 18.23 64.814 0.224 7.6 136.7 9.36
5/20/2022 1:30:00 PM 18.19 64.742 0.224 7.61 128.3 9.32
5/20/2022 1:45:00 PM 18.19 64.742 0.223 7.6 126.7 9.29
5/20/2022 2:00:00 PM 18.33 64.994 0.225 7.61 148.6 9.33
5/20/2022 2:15:00 PM 18.41 65.138 0.224 7.62 139.3 9.35
5/20/2022 2:30:00 PM 18.4 65.12 0.222 7.62 141.6 9.3
5/20/2022 2:45:00 PM 18.39 65.102 0.221 7.62 141.4 9.22
5/20/2022 3:00:00 PM 18.53 65.354 0.22 7.62 158 9.2
5/20/2022 3:15:00 PM 18.75 65.75 0.217 7.6 644.9 8.96
5/20/2022 3:30:00 PM 18.88 65.984 0.213 7.58 520.4 8.88
5/20/2022 3:45:00 PM 18.9 66.02 0.216 7.58 407.4 8.92
5/20/2022 4:00:00 PM 18.79 65.82201 0.222 7.56 287.4 8.96
5/20/2022 4:15:00 PM 18.76 65.768 0.222 7.57 250.4 8.99
5/20/2022 4:30:00 PM 18.78 65.804 0.219 7.56 268.6 8.94
5/20/2022 4:45:00 PM 18.73 65.714 0.217 7.55 261.5 8.94
5/20/2022 5:00:00 PM 18.64 65.552 0.217 7.55 229.6 8.95
5/20/2022 5:15:00 PM 18.58 65.444 0.218 7.55 221.6 8.95
5/20/2022 5:30:00 PM 18.52 65.336 0.218 7.55 199.8 8.92
5/20/2022 5:45:00 PM 18.51 65.318 0.218 7.55 193 8.91
5/20/2022 6:00:00 PM 18.44 65.192 0.218 7.55 188.8 8.93
5/20/2022 6:15:00 PM 18.29 64.922 0.219 7.54 172.6 8.96
5/20/2022 6:30:00 PM 18.2 64.76 0.219 7.54 164.8 8.97
5/20/2022 6:45:00 PM 18.16 64.688 0.22 7.54 164.4 8.96
5/20/2022 7:00:00 PM 18.15 64.67 0.219 7.53 177.3 8.92
5/20/2022 7:15:00 PM 18.09 64.562 0.22 7.54 182.4 8.9
5/20/2022 7:30:00 PM 18.05 64.49 0.22 7.52 182.3 8.89
5/20/2022 7:45:00 PM 17.99 64.382 0.22 7.52 178.1 8.87
5/20/2022 8:00:00 PM 17.91 64.238 0.221 7.51 201 8.88
5/20/2022 8:15:00 PM 17.82 64.076 0.221 7.49 163.6 8.88
5/20/2022 8:30:00 PM 17.75 63.95 0.221 7.5 150.8 8.84
5/20/2022 8:45:00 PM 17.71 63.878 0.222 7.48 169.2 8.84
5/20/2022 9:00:00 PM 17.7 63.86 0.222 7.47 168.3 8.83
5/20/2022 9:15:00 PM 17.63 63.734 0.222 7.47 175.4 8.83
5/20/2022 9:30:00 PM 17.65 63.77 0.222 7.47 176.4 8.81
5/20/2022 9:45:00 PM 17.66 63.788 0.223 7.45 161.6 8.79
5/20/2022 10:00:00 PM 17.65 63.77 0.223 7.46 173.7 8.76
5/20/2022 10:15:00 PM 17.65 63.77 0.223 7.44 182.9 8.77
5/20/2022 10:30:00 PM 17.57 63.626 0.223 7.43 205.8 8.76
5/20/2022 10:45:00 PM 17.58 63.644 0.224 7.44 186.3 8.77
5/20/2022 11:00:00 PM 17.57 63.626 0.224 7.42 167.5 8.76
5/20/2022 11:15:00 PM 17.59 63.662 0.225 7.42 196 8.75
5/20/2022 11:30:00 PM 17.57 63.626 0.225 7.41 177.8 8.75
5/20/2022 11:45:00 PM 17.54 63.572 0.225 7.41 199.1 8.76
5/21/2022 12:00:00 AM 17.53 63.554 0.225 7.4 167.5 8.76
5/21/2022 12:15:00 AM 17.49 63.482 0.225 7.4 213.1 8.76
5/21/2022 12:30:00 AM 17.5 63.5 0.225 7.39 194.1 8.75
5/21/2022 12:45:00 AM 17.6 63.68 0.224 7.38 183.7 8.72
5/21/2022 1:00:00 AM 17.56 63.608 0.225 7.38 196 8.73
5/21/2022 1:15:00 AM 17.56 63.608 0.225 7.38 210.4 8.73
5/21/2022 1:30:00 AM 17.56 63.608 0.225 7.37 217.5 8.71
5/21/2022 1:45:00 AM 17.56 63.608 0.225 7.37 204.6 8.71
5/21/2022 2:00:00 AM 17.56 63.608 0.225 7.37 204.6 8.71
5/21/2022 2:15:00 AM 17.55 63.59 0.225 7.37 193.6 8.72
5/21/2022 2:30:00 AM 17.5 63.5 0.225 7.36 205.3 8.72
5/21/2022 2:45:00 AM 17.48 63.464 0.225 7.35 205.5 8.73
5/21/2022 3:00:00 AM 17.48 63.464 0.225 7.34 226.4 8.72
5/21/2022 3:15:00 AM 17.47 63.446 0.224 7.35 198.5 8.73
5/21/2022 3:30:00 AM 17.46 63.428 0.225 7.34 178.9 8.71
5/21/2022 3:45:00 AM 17.51 63.518 0.224 7.35 252.6 8.72
5/21/2022 4:00:00 AM 17.48 63.464 0.224 7.34 200.7 8.71
5/21/2022 4:15:00 AM 17.47 63.446 0.224 7.33 221.6 8.71
5/21/2022 4:30:00 AM 17.44 63.392 0.224 7.34 186.8 8.72
5/21/2022 4:45:00 AM 17.38 63.284 0.225 7.34 233.3 8.74
5/21/2022 5:00:00 AM 17.36 63.248 0.224 7.34 179 8.75
5/21/2022 5:15:00 AM 17.34 63.212 0.224 7.33 185.8 8.75
5/21/2022 5:30:00 AM 17.31 63.158 0.224 7.34 196.4 8.76
5/21/2022 5:45:00 AM 17.31 63.158 0.224 7.34 182.9 8.75
5/21/2022 6:00:00 AM 17.31 63.158 0.224 7.34 187.6 8.75
5/21/2022 6:15:00 AM 17.29 63.122 0.224 7.34 189.4 8.76
5/21/2022 6:30:00 AM 17.28 63.104 0.224 7.34 218.3 8.77
5/21/2022 6:45:00 AM 17.28 63.104 0.224 7.35 224.4 8.79
5/21/2022 7:00:00 AM 17.25 63.05 0.225 7.35 213 8.8
5/21/2022 7:15:00 AM 17.27 63.086 0.224 7.35 190.2 8.83
5/21/2022 7:30:00 AM 17.32 63.176 0.224 7.37 241.6 8.84
5/21/2022 7:45:00 AM 17.34 63.212 0.223 7.38 208.6 8.87
5/21/2022 8:00:00 AM 17.37 63.266 0.224 7.37 234.5 8.9
5/21/2022 8:15:00 AM 17.42 63.356 0.224 7.38 236.6 8.93
5/21/2022 8:30:00 AM 17.48 63.464 0.224 7.39 204.7 8.96
5/21/2022 8:45:00 AM 17.54 63.572 0.224 7.41 253.9 9
5/21/2022 9:00:00 AM 17.64 63.752 0.224 7.42 219.2 9
5/21/2022 9:15:00 AM 17.78 64.004 0.224 7.42 212.5 9.04
5/21/2022 9:30:00 AM 17.93 64.274 0.224 7.42 204 9.06
5/21/2022 9:45:00 AM 18.11 64.598 0.224 7.44 239.8 9.07
5/21/2022 10:00:00 AM 18.29 64.922 0.224 7.45 260.9 9.11
5/21/2022 10:15:00 AM 18.46 65.228 0.224 7.46 205.5 9.11
5/21/2022 10:30:00 AM 18.64 65.552 0.224 7.47 223.2 9.15
5/21/2022 10:45:00 AM 18.8 65.84 0.224 7.48 208.9 9.16
5/21/2022 11:00:00 AM 18.99 66.182 0.224 7.49 285.9 9.17
5/21/2022 11:15:00 AM 19.16 66.488 0.225 7.5 204 9.2
5/21/2022 11:30:00 AM 19.33 66.794 0.225 7.51 271.3 9.19
5/21/2022 11:45:00 AM 19.51 67.118 0.224 7.53 335.8 9.22
5/21/2022 12:00:00 PM 19.66 67.388 0.225 7.53 221.1 9.22
5/21/2022 12:15:00 PM 19.8 67.64 0.224 7.54 253.3 9.25
5/21/2022 12:30:00 PM 19.95 67.91 0.224 7.55 228.8 9.26
5/21/2022 12:45:00 PM 20.09 68.162 0.224 7.56 243.5 9.27
5/21/2022 1:00:00 PM 20.22 68.396 0.225 7.58 221.8 9.27
5/21/2022 1:15:00 PM 20.34 68.612 0.225 7.58 192.6 9.27
5/21/2022 1:30:00 PM 20.45 68.81 0.225 7.6 229.4 9.27
5/21/2022 1:45:00 PM 20.58 69.044 0.226 7.6 319.8 9.25
5/21/2022 2:00:00 PM 20.68 69.224 0.225 7.6 199.1 9.25
5/21/2022 2:15:00 PM 20.76 69.368 0.225 7.62 294.3 9.24
5/21/2022 2:30:00 PM 20.83 69.494 0.225 7.62 269.2 9.23
5/21/2022 2:45:00 PM 20.87 69.566 0.225 7.64 268.6 9.2
5/21/2022 3:00:00 PM 20.88 69.584 0.224 7.63 256.2 9.17
5/21/2022 3:15:00 PM 20.88 69.584 0.225 7.62 278 9.15
5/21/2022 3:30:00 PM 20.94 69.692 0.225 7.64 263.7 9.14
5/21/2022 3:45:00 PM 20.98 69.764 0.225 7.64 329.6 9.11
5/21/2022 4:00:00 PM 20.97 69.746 0.225 7.64 324.4 9.1
5/21/2022 4:15:00 PM 20.96 69.728 0.225 7.64 305.8 9.08
5/21/2022 4:30:00 PM 20.91 69.638 0.225 7.64 368.6 9.05
5/21/2022 4:45:00 PM 20.78 69.404 0.225 7.64 353.8 9.02
5/21/2022 5:00:00 PM 20.72 69.296 0.225 7.63 405.4 9.01
5/21/2022 5:15:00 PM 20.64 69.152 0.225 7.63 314 9
5/21/2022 5:30:00 PM 20.63 69.134 0.224 7.64 339.6 8.95
5/21/2022 5:45:00 PM 20.51 68.918 0.224 7.64 382 8.94
5/21/2022 6:00:00 PM 20.54 68.972 0.224 7.62 360.3 8.89
5/21/2022 6:15:00 PM 20.42 68.756 0.225 7.62 358.4 8.86
5/21/2022 6:30:00 PM 20.3 68.54 0.225 7.62 459.4 8.83
5/21/2022 6:45:00 PM 20.25 68.45 0.225 7.61 462.2 8.8
5/21/2022 7:00:00 PM 20.17 68.306 0.225 7.61 347.4 8.79
5/21/2022 7:15:00 PM 20.04 68.07201 0.225 7.6 300.4 8.76
5/21/2022 7:30:00 PM 19.93 67.874 0.225 7.6 352.6 8.75
5/21/2022 7:45:00 PM 19.68 67.424 0.224 7.58 349.6 8.74
5/21/2022 8:00:00 PM 19.61 67.298 0.225 7.57 484 8.72
5/21/2022 8:15:00 PM 19.68 67.424 0.222 7.57 386.9 8.68
5/21/2022 8:30:00 PM 19.56 67.208 0.22 7.56 470.3 8.65
5/21/2022 8:45:00 PM 19.58 67.244 0.225 7.56 480.5 8.61
5/21/2022 9:00:00 PM 19.53 67.154 0.225 7.54 344.9 8.58
5/21/2022 9:15:00 PM 19.52 67.136 0.226 7.53 374.1 8.55
5/21/2022 9:30:00 PM 19.52 67.136 0.224 7.51 387.4 8.52
5/21/2022 9:45:00 PM 19.41 66.938 0.226 7.51 577.9 8.53
5/21/2022 10:00:00 PM 19.42 66.956 0.226 7.49 631.5 8.5
5/21/2022 10:15:00 PM 19.34 66.812 0.225 7.49 575.3 8.48
5/21/2022 10:30:00 PM 19.33 66.794 0.225 7.47 534.7 8.49
5/21/2022 10:45:00 PM 19.32 66.776 0.227 7.47 525.1 8.48
5/21/2022 11:00:00 PM 19.42 66.956 0.226 7.46 374.1 8.44
5/21/2022 11:15:00 PM 19.37 66.866 0.228 7.46 473 8.45
5/21/2022 11:30:00 PM 19.34 66.812 0.228 7.46 434.5 8.46
5/21/2022 11:45:00 PM 19.36 66.848 0.228 7.44 485.5 8.46
5/22/2022 12:00:00 AM 19.17 66.506 0.229 7.45 435.5 8.47
5/22/2022 12:15:00 AM 19.15 66.47 0.228 7.45 428.6 8.47
5/22/2022 12:30:00 AM 19.12 66.416 0.228 7.44 394.1 8.47
5/22/2022 12:45:00 AM 19.09 66.362 0.228 7.44 439.6 8.47
5/22/2022 1:00:00 AM 19.01 66.218 0.229 7.44 492.2 8.47
5/22/2022 1:15:00 AM 19.06 66.308 0.223 7.44 446.9 8.49
5/22/2022 1:30:00 AM 19.04 66.272 0.228 7.45 418.4 8.48
5/22/2022 1:45:00 AM 19.15 66.47 0.209 7.44 416.7 8.47
5/22/2022 2:00:00 AM 19.04 66.272 0.221 7.45 221.6 8.47
5/22/2022 2:15:00 AM 18.98 66.164 0.223 7.45 207.7 8.49
5/22/2022 2:30:00 AM 19 66.2 0.229 7.44 178.5 8.47
5/22/2022 2:45:00 AM 18.93 66.074 0.229 7.44 189.3 8.46
5/22/2022 3:00:00 AM 18.92 66.056 0.228 7.44 192.8 8.48
5/22/2022 3:15:00 AM 19.01 66.218 0.229 7.44 214.2 8.47
5/22/2022 3:30:00 AM 18.75 65.75 0.229 7.44 230.9 8.49
5/22/2022 3:45:00 AM 18.79 65.82201 0.229 7.43 230.4 8.49
5/22/2022 4:00:00 AM 18.7 65.66 0.229 7.43 220.7 8.52
5/22/2022 4:15:00 AM 18.65 65.57 0.229 7.43 209 8.51
5/22/2022 4:30:00 AM 18.7 65.66 0.229 7.43 205.4 8.52
5/22/2022 4:45:00 AM 18.56 65.408 0.229 7.43 226.2 8.52
5/22/2022 5:00:00 AM 18.56 65.408 0.229 7.43 191.4 8.54
5/22/2022 5:15:00 AM 18.46 65.228 0.229 7.43 333.9 8.54
5/22/2022 5:30:00 AM 18.45 65.21 0.229 7.43 210.4 8.56
5/22/2022 5:45:00 AM 18.5 65.3 0.229 7.42 202.9 8.55
5/22/2022 6:00:00 AM 18.46 65.228 0.229 7.42 239.1 8.54
5/22/2022 6:15:00 AM 18.4 65.12 0.23 7.42 242.6 8.55
5/22/2022 6:30:00 AM 18.4 65.12 0.229 7.42 239.8 8.56
5/22/2022 6:45:00 AM 18.38 65.084 0.229 7.42 260.6 8.57
5/22/2022 7:00:00 AM 18.41 65.138 0.229 7.42 283.6 8.58
5/22/2022 7:15:00 AM 18.43 65.174 0.229 7.42 276.7 8.61
5/22/2022 7:30:00 AM 18.41 65.138 0.229 7.43 279.6 8.64
5/22/2022 7:45:00 AM 18.43 65.174 0.228 7.44 314.5 8.65
5/22/2022 8:00:00 AM 18.48 65.264 0.228 7.43 251.6 8.66
5/22/2022 8:15:00 AM 18.57 65.426 0.229 7.45 313.5 8.72
5/22/2022 8:30:00 AM 18.66 65.588 0.229 7.44 267.7 8.72
5/22/2022 8:45:00 AM 18.72 65.696 0.227 7.46 309.7 8.75
5/22/2022 9:00:00 AM 18.87 65.966 0.228 7.46 399 8.78
5/22/2022 9:15:00 AM 19.06 66.308 0.228 7.47 226.3 8.8
5/22/2022 9:30:00 AM 19.12 66.416 0.228 7.48 237.2 8.82
5/22/2022 9:45:00 AM 19.25 66.65 0.228 7.49 243.2 8.82
5/22/2022 10:00:00 AM 19.41 66.938 0.228 7.5 244.1 8.86
5/22/2022 10:15:00 AM 19.58 67.244 0.228 7.51 273.9 8.87
5/22/2022 10:30:00 AM 19.66 67.388 0.227 7.51 291.1 8.9
5/22/2022 10:45:00 AM 19.78 67.604 0.227 7.53 332.3 8.92
5/22/2022 11:00:00 AM 19.91 67.838 0.227 7.55 313.3 8.94
5/22/2022 11:15:00 AM 20.15 68.27 0.228 7.56 290.7 8.95
5/22/2022 11:30:00 AM 20.28 68.504 0.227 7.56 323.8 8.98
5/22/2022 11:45:00 AM 20.48 68.864 0.227 7.57 284.2 9
5/22/2022 12:00:00 PM 20.59 69.062 0.227 7.58 343.5 9
5/22/2022 12:15:00 PM 20.82 69.476 0.218 7.58 273.5 9
5/22/2022 12:30:00 PM 21.01 69.818 0.228 7.59 288.9 9.01
5/22/2022 12:45:00 PM 21.16 70.088 0.227 7.59 260.5 9
5/22/2022 1:00:00 PM 21.32 70.376 0.228 7.61 614.1 8.99
5/22/2022 1:15:00 PM 21.47 70.646 0.228 7.61 279.5 8.99
5/22/2022 1:30:00 PM 21.55 70.79 0.222 7.63 299.2 9
5/22/2022 1:45:00 PM 21.64 70.952 0.229 7.63 435.6 8.98
5/22/2022 2:00:00 PM 21.72 71.096 0.229 7.64 397.7 8.96
5/22/2022 2:15:00 PM 21.72 71.096 0.229 7.66 300.8 8.95
5/22/2022 2:30:00 PM 21.8 71.24 0.229 7.65 340.5 8.95
5/22/2022 2:45:00 PM 21.73 71.114 0.229 7.66 361.7 8.96
5/22/2022 3:00:00 PM 21.73 71.114 0.228 7.66 315.8 8.94
5/22/2022 3:15:00 PM 21.77 71.186 0.228 7.66 370.2 8.93
5/22/2022 3:30:00 PM 21.63 70.934 0.228 7.65 302.7 8.91
5/22/2022 3:45:00 PM 21.67 71.006 0.229 7.66 341.5 8.89
5/22/2022 4:00:00 PM 21.6 70.88 0.229 7.66 732.2 8.85
5/22/2022 4:15:00 PM 21.49 70.682 0.229 7.66 374 8.79
5/22/2022 4:30:00 PM 21.39 70.502 0.229 7.65 314.4 8.75
5/22/2022 4:45:00 PM 21.22 70.196 0.229 7.65 361.6 8.73
5/22/2022 5:00:00 PM 21.06 69.908 0.229 7.65 318.7 8.72
5/22/2022 5:15:00 PM 20.91 69.638 0.229 7.65 386 8.72
5/22/2022 5:30:00 PM 20.74 69.332 0.229 7.64 380.6 8.72
5/22/2022 5:45:00 PM 20.56 69.008 0.229 7.64 402.3 8.72
5/22/2022 6:00:00 PM 20.44 68.792 0.229 7.63 414.2 8.71
5/22/2022 6:15:00 PM 20.44 68.792 0.228 7.63 346.9 8.67
5/22/2022 6:30:00 PM 20.4 68.72 0.228 7.63 404.9 8.66
5/22/2022 6:45:00 PM 20.26 68.468 0.229 7.62 383.3 8.63
5/22/2022 7:00:00 PM 20.25 68.45 0.228 7.62 393.8 8.57
5/22/2022 7:15:00 PM 20.29 68.522 0.227 7.62 526.4 8.51
5/22/2022 7:30:00 PM 20.25 68.45 0.227 7.6 419.9 8.49
5/22/2022 7:45:00 PM 20.2 68.36 0.226 7.6 408.2 8.5
5/22/2022 8:00:00 PM 19.87 67.766 0.226 7.59 471.1 8.51
5/22/2022 8:15:00 PM 19.92 67.856 0.226 7.57 519.5 8.41
5/22/2022 8:30:00 PM 19.76 67.568 0.225 7.55 644.3 8.38
5/22/2022 8:45:00 PM 19.77 67.586 0.226 7.54 657 8.32
5/22/2022 9:00:00 PM 19.78 67.604 0.23 7.53 765.2 8.28
5/22/2022 9:15:00 PM 20 68 0.227 7.5 571.5 8.22
5/22/2022 9:30:00 PM 20.1 68.18 0.219 7.49 589.2 8.2
5/22/2022 9:45:00 PM 20.18 68.324 0.219 7.49 846.8 8.17
5/22/2022 10:00:00 PM 20.52 68.936 0.222 7.48 438.5 8.12
5/22/2022 10:15:00 PM 20.8 69.44 0.222 7.49 545.9 8.06
5/22/2022 10:30:00 PM 20.9 69.62 0.221 7.49 600.6 8
5/22/2022 10:45:00 PM 21.04 69.872 0.2 7.48 542.9 7.99
5/22/2022 11:00:00 PM 21.1 69.98 0.202 7.48 597.9 7.94
5/22/2022 11:15:00 PM 21.1 69.98 0.218 7.47 550 7.89
5/22/2022 11:30:00 PM 21.14 70.052 0.218 7.45 617.1 7.83
5/22/2022 11:45:00 PM 21.08 69.944 0.216 7.47 652.4 7.72
5/23/2022 12:00:00 AM 21.02 69.836 0.212 7.48 664.3 7.56
5/23/2022 12:15:00 AM 20.8 69.44 0.202 7.39 959 7.38
5/23/2022 12:30:00 AM 20.72 69.296 0.194 7.32 1111 7.24
5/23/2022 12:45:00 AM 20.54 68.972 0.19 7.28 1366 7.08
5/23/2022 1:00:00 AM 20.46 68.828 0.188 7.28 1490 6.89
5/23/2022 1:15:00 AM 20.33 68.594 0.181 7.28 1602 6.8
5/23/2022 1:30:00 AM 20.23 68.414 0.176 7.24 1485 6.8
5/23/2022 1:45:00 AM 20.16 68.288 0.174 7.22 1533 6.87
5/23/2022 2:00:00 AM 20.04 68.07201 0.174 7.19 1352 6.92
5/23/2022 2:15:00 AM 19.95 67.91 0.174 7.18 1302 6.95
5/23/2022 2:30:00 AM 19.84 67.712 0.174 7.17 1281 6.98
5/23/2022 2:45:00 AM 19.8 67.64 0.171 7.17 1346 7.03
5/23/2022 3:00:00 AM 19.72 67.496 0.17 7.17 1219 7.12
5/23/2022 3:15:00 AM 19.69 67.442 0.169 7.17 1393 7.18
5/23/2022 3:30:00 AM 19.59 67.262 0.168 7.17 1129 7.28
5/23/2022 3:45:00 AM 19.47 67.046 0.17 7.18 895.3 7.37
5/23/2022 4:00:00 AM 19.34 66.812 0.172 7.2 1106 7.44
5/23/2022 4:15:00 AM 19.27 66.686 0.175 7.21 1142 7.51
5/23/2022 4:30:00 AM 19.18 66.524 0.176 7.23 1020 7.58
5/23/2022 4:45:00 AM 19.06 66.308 0.179 7.23 1014 7.67
5/23/2022 5:00:00 AM 18.95 66.11 0.181 7.25 1102 7.73
5/23/2022 5:15:00 AM 18.86 65.948 0.182 7.26 913.8 7.79
5/23/2022 5:30:00 AM 18.76 65.768 0.183 7.27 927.1 7.83
5/23/2022 5:45:00 AM 18.71 65.67799 0.184 7.27 826.2 7.88
5/23/2022 6:00:00 AM 18.57 65.426 0.186 7.28 896.3 7.96
5/23/2022 6:15:00 AM 18.46 65.228 0.188 7.28 951.5 8.01
5/23/2022 6:30:00 AM 18.46 65.228 0.187 7.3 1017 8.05
5/23/2022 6:45:00 AM 18.34 65.012 0.188 7.31 906.8 8.11
5/23/2022 7:00:00 AM 18.24 64.832 0.19 7.32 962.8 8.16
5/23/2022 7:15:00 AM 18.21 64.778 0.191 7.32 917 8.2
5/23/2022 7:30:00 AM 18.18 64.724 0.19 7.32 952.7 8.23
5/23/2022 7:45:00 AM 18.14 64.652 0.192 7.34 932.5 8.28
5/23/2022 8:00:00 AM 18.11 64.598 0.193 7.35 914.9 8.33
5/23/2022 8:15:00 AM 18.07 64.526 0.196 7.35 775 8.35
5/23/2022 8:30:00 AM 18.15 64.67 0.195 7.37 777.3 8.36
5/23/2022 8:45:00 AM 18.18 64.724 0.195 7.36 801.3 8.39
5/23/2022 9:00:00 AM 18.18 64.724 0.197 7.38 1125 8.42
5/23/2022 9:15:00 AM 18.27 64.886 0.198 7.38 799 8.44
5/23/2022 9:30:00 AM 18.36 65.048 0.197 7.39 971.7 8.44
5/23/2022 9:45:00 AM 18.42 65.156 0.199 7.39 846.2 8.46
5/23/2022 10:00:00 AM 18.5 65.3 0.201 7.41 889 8.49
5/23/2022 10:15:00 AM 18.58 65.444 0.2 7.41 800.9 8.5
5/23/2022 10:30:00 AM 18.67 65.606 0.202 7.41 885.9 8.51
5/23/2022 10:45:00 AM 18.69 65.642 0.203 7.43 700.2 8.54
5/23/2022 11:00:00 AM 18.7 65.66 0.203 7.43 861.5 8.55
5/23/2022 11:15:00 AM 18.75 65.75 0.203 7.43 872.1 8.55
5/23/2022 11:30:00 AM 18.86 65.948 0.205 7.44 875.1 8.57
5/23/2022 11:45:00 AM 18.93 66.074 0.205 7.44 820.8 8.57
5/23/2022 12:00:00 PM 18.99 66.182 0.205 7.45 731.4 8.6
5/23/2022 12:15:00 PM 19.11 66.398 0.206 7.45 773.4 8.61
5/23/2022 12:30:00 PM 19.19 66.542 0.206 7.47 816.2 8.62
5/23/2022 12:45:00 PM 19.27 66.686 0.208 7.47 742.9 8.65
5/23/2022 1:00:00 PM 19.39 66.902 0.209 7.47 631.4 8.64
5/23/2022 1:15:00 PM 19.55 67.19 0.209 7.48 880.8 8.64
5/23/2022 1:30:00 PM 19.68 67.424 0.21 7.48 901.2 8.62
5/23/2022 1:45:00 PM 19.73 67.514 0.211 7.48 697.8 8.62
5/23/2022 2:00:00 PM 19.72 67.496 0.212 7.49 954.9 8.63
5/23/2022 2:15:00 PM 19.76 67.568 0.213 7.5 975.5 8.64
5/23/2022 2:30:00 PM 19.76 67.568 0.212 7.49 814.9 8.63
5/23/2022 2:45:00 PM 19.77 67.586 0.214 7.5 958.2 8.64
5/23/2022 3:00:00 PM 19.79 67.622 0.214 7.51 875 8.64
5/23/2022 3:15:00 PM 19.77 67.586 0.214 7.51 862.7 8.64
5/23/2022 3:30:00 PM 19.75 67.55 0.215 7.53 946.2 8.65
5/23/2022 3:45:00 PM 19.71 67.478 0.216 7.54 1016 8.66
5/23/2022 4:00:00 PM 19.63 67.334 0.216 7.54 1040 8.67
5/23/2022 4:15:00 PM 19.55 67.19 0.217 7.55 1131 8.66
5/23/2022 4:30:00 PM 19.46 67.028 0.217 7.55 1125 8.67
5/23/2022 4:45:00 PM 19.34 66.812 0.217 7.56 898.4 8.68
5/23/2022 5:00:00 PM 19.24 66.632 0.217 7.56 869.1 8.68
5/23/2022 5:15:00 PM 19.14 66.452 0.218 7.56 1029 8.68
5/23/2022 5:30:00 PM 19.06 66.308 0.218 7.56 975.5 8.69
5/23/2022 5:45:00 PM 18.98 66.164 0.218 7.56 875.1 8.7
5/23/2022 6:00:00 PM 18.95 66.11 0.219 7.56 1069 8.7
5/23/2022 6:15:00 PM 18.87 65.966 0.22 7.57 1128 8.71
5/23/2022 6:30:00 PM 18.84 65.912 0.219 7.58 1230 8.71
5/23/2022 6:45:00 PM 18.78 65.804 0.22 7.57 964.2 8.7
5/23/2022 7:00:00 PM 18.79 65.82201 0.22 7.58 1112 8.71
5/23/2022 7:15:00 PM 18.78 65.804 0.22 7.57 920.7 8.71
5/23/2022 7:30:00 PM 18.72 65.696 0.22 7.57 1135 8.7
5/23/2022 7:45:00 PM 18.69 65.642 0.22 7.58 956.8 8.7
5/23/2022 8:00:00 PM 18.69 65.642 0.22 7.57 940.5 8.7
5/23/2022 8:15:00 PM 18.64 65.552 0.221 7.57 1098 8.7
5/23/2022 8:30:00 PM 18.61 65.498 0.221 7.58 1121 8.68
5/23/2022 8:45:00 PM 18.61 65.498 0.221 7.58 1107 8.67
5/23/2022 9:00:00 PM 18.57 65.426 0.221 7.56 955 8.67
5/23/2022 9:15:00 PM 18.48 65.264 0.222 7.56 958.2 8.67
5/23/2022 9:30:00 PM 18.41 65.138 0.222 7.56 999.1 8.69
5/23/2022 9:45:00 PM 18.38 65.084 0.222 7.56 909 8.68
5/23/2022 10:00:00 PM 18.34 65.012 0.221 7.55 915.2 8.68
5/23/2022 10:15:00 PM 18.31 64.958 0.222 7.55 1224 8.69
5/23/2022 10:30:00 PM 18.28 64.904 0.222 7.55 870.7 8.69
5/23/2022 10:45:00 PM 18.26 64.868 0.223 7.54 949.4 8.7
5/23/2022 11:00:00 PM 18.21 64.778 0.223 7.55 1123 8.7
5/23/2022 11:15:00 PM 18.21 64.778 0.223 7.55 1076 8.68
5/23/2022 11:30:00 PM 18.16 64.688 0.224 7.55 1056 8.72
5/23/2022 11:45:00 PM 18.14 64.652 0.224 7.54 1038 8.7
5/24/2022 12:00:00 AM 18.13 64.634 0.223 7.54 929.7 8.71
5/24/2022 12:15:00 AM 18.12 64.616 0.223 7.55 1202 8.72
5/24/2022 12:30:00 AM 18.1 64.58 0.223 7.54 979 8.73
5/24/2022 12:45:00 AM 18.08 64.544 0.223 7.54 1203 8.72
5/24/2022 1:00:00 AM 18.04 64.472 0.223 7.55 1170 8.73
5/24/2022 1:15:00 AM 18.01 64.418 0.224 7.54 1223 8.74
5/24/2022 1:30:00 AM 17.99 64.382 0.224 7.54 1125 8.74
5/24/2022 1:45:00 AM 17.98 64.364 0.224 7.54 1084 8.74
5/24/2022 2:00:00 AM 17.98 64.364 0.224 7.53 1026 8.75
5/24/2022 2:15:00 AM 17.99 64.382 0.224 7.53 1083 8.73
5/24/2022 2:30:00 AM 17.97 64.346 0.224 7.54 1115 8.74
5/24/2022 2:45:00 AM 17.95 64.31 0.224 7.53 1343 8.75
5/24/2022 3:00:00 AM 17.92 64.256 0.223 7.53 963.9 8.76
5/24/2022 3:15:00 AM 17.89 64.202 0.223 7.53 959.5 8.76
5/24/2022 3:30:00 AM 17.86 64.148 0.224 7.54 1342 8.77
5/24/2022 3:45:00 AM 17.84 64.112 0.224 7.54 1136 8.77
5/24/2022 4:00:00 AM 17.81 64.058 0.224 7.53 1122 8.77
5/24/2022 4:15:00 AM 17.81 64.058 0.225 7.53 1076 8.77
5/24/2022 4:30:00 AM 17.81 64.058 0.225 7.54 1014 8.77
5/24/2022 4:45:00 AM 17.78 64.004 0.225 7.54 1188 8.78
5/24/2022 5:00:00 AM 17.76 63.968 0.225 7.54 1024 8.78
5/24/2022 5:15:00 AM 17.74 63.932 0.225 7.53 1008 8.79
5/24/2022 5:30:00 AM 17.71 63.878 0.224 7.53 927.5 8.79
5/24/2022 5:45:00 AM 17.67 63.806 0.224 7.53 1046 8.8
5/24/2022 6:00:00 AM 17.66 63.788 0.225 7.54 1065 8.8
5/24/2022 6:15:00 AM 17.61 63.698 0.225 7.53 839.9 8.81
5/24/2022 6:30:00 AM 17.59 63.662 0.225 7.53 877 8.82
5/24/2022 6:45:00 AM 17.58 63.644 0.225 7.53 918.4 8.83
5/24/2022 7:00:00 AM 17.55 63.59 0.226 7.53 1152 8.84
5/24/2022 7:15:00 AM 17.53 63.554 0.226 7.53 1075 8.86
5/24/2022 7:30:00 AM 17.51 63.518 0.226 7.53 1086 8.88
5/24/2022 7:45:00 AM 17.52 63.536 0.225 7.54 1156 8.91
5/24/2022 8:00:00 AM 17.51 63.518 0.225 7.55 1178 8.91
5/24/2022 8:15:00 AM 17.49 63.482 0.226 7.54 987.5 8.94
5/24/2022 8:30:00 AM 17.48 63.464 0.226 7.54 1167 8.95
5/24/2022 8:45:00 AM 17.46 63.428 0.226 7.55 1052 8.97
5/24/2022 9:00:00 AM 17.5 63.5 0.226 7.55 905 8.97
5/24/2022 9:15:00 AM 17.52 63.536 0.226 7.55 1080 8.98
5/24/2022 9:30:00 AM 17.56 63.608 0.226 7.56 1037 8.99
5/24/2022 9:45:00 AM 17.56 63.608 0.226 7.56 1106 9.03
5/24/2022 10:00:00 AM 17.57 63.626 0.226 7.57 1289 9.03
5/24/2022 10:15:00 AM 17.63 63.734 0.226 7.56 799.1 9.06
5/24/2022 10:30:00 AM 17.8 64.04 0.226 7.58 1126 9.09
5/24/2022 10:45:00 AM 17.89 64.202 0.226 7.59 961 9.12
5/24/2022 11:00:00 AM 17.94 64.292 0.227 7.58 1148 9.11
5/24/2022 11:15:00 AM 17.94 64.292 0.226 7.58 934 9.09
5/24/2022 11:30:00 AM 17.98 64.364 0.227 7.58 1200 9.08
5/24/2022 11:45:00 AM 17.95 64.31 0.226 7.59 910.6 9.06
5/24/2022 12:00:00 PM 17.92 64.256 0.226 7.59 989.7 9.05
5/24/2022 12:15:00 PM 17.94 64.292 0.226 7.59 961.9 9.04
5/24/2022 12:30:00 PM 17.89 64.202 0.227 7.59 1052 9.03
5/24/2022 12:45:00 PM 17.83 64.094 0.226 7.6 1200 9.04
5/24/2022 1:00:00 PM 17.86 64.148 0.227 7.6 1066 9.04
5/24/2022 1:15:00 PM 17.82 64.076 0.227 7.61 1126 9.07
5/24/2022 1:30:00 PM 17.78 64.004 0.227 7.61 905.2 9.1
5/24/2022 1:45:00 PM 17.84 64.112 0.227 7.6 959.6 9.1
5/24/2022 2:00:00 PM 17.75 63.95 0.227 7.62 1208 9.12
5/24/2022 2:15:00 PM 17.82 64.076 0.227 7.62 1122 9.1
5/24/2022 2:30:00 PM 17.82 64.076 0.227 7.62 1265 9.11
5/24/2022 2:45:00 PM 17.83 64.094 0.226 7.63 1106 9.11
5/24/2022 3:00:00 PM 17.92 64.256 0.226 7.63 1202 9.13
5/24/2022 3:15:00 PM 18.02 64.436 0.226 7.64 1156 9.14
5/24/2022 3:30:00 PM 18.08 64.544 0.227 7.65 1322 9.14
5/24/2022 3:45:00 PM 18.24 64.832 0.227 7.65 1118 9.14
5/24/2022 4:00:00 PM 18.3 64.94 0.227 7.67 1407 9.11
5/24/2022 4:15:00 PM 18.4 65.12 0.227 7.67 1041 9.11
5/24/2022 4:30:00 PM 18.51 65.318 0.205 7.69 1218 9.09
5/24/2022 4:45:00 PM 18.58 65.444 0.215 7.7 1087 9.07
5/24/2022 5:00:00 PM 18.6 65.48 0.225 7.69 987.2 9.07
5/24/2022 5:15:00 PM 18.55 65.39 0.225 7.71 1271 9.07
5/24/2022 5:30:00 PM 18.57 65.426 0.225 7.72 1150 9.07
5/24/2022 5:45:00 PM 18.66 65.588 0.225 7.71 1110 9.06
5/24/2022 6:00:00 PM 18.58 65.444 0.226 7.74 1413 9.06
5/24/2022 6:15:00 PM 18.56 65.408 0.226 7.73 1259 9.05
5/24/2022 6:30:00 PM 18.55 65.39 0.226 7.74 1203 9.04
5/24/2022 6:45:00 PM 18.53 65.354 0.226 7.74 1179 9.02
5/24/2022 7:00:00 PM 18.44 65.192 0.226 7.74 1143 9.03
5/24/2022 7:15:00 PM 18.51 65.318 0.226 7.75 1210 8.99
5/24/2022 7:30:00 PM 18.46 65.228 0.226 7.75 1203 9
5/24/2022 7:45:00 PM 18.38 65.084 0.226 7.74 1416 8.98
5/24/2022 8:00:00 PM 18.29 64.922 0.226 7.74 1306 8.98
5/24/2022 8:15:00 PM 18.19 64.742 0.226 7.74 1147 8.99
5/24/2022 8:30:00 PM 18.06 64.508 0.227 7.74 1223 8.99
5/24/2022 8:45:00 PM 17.98 64.364 0.227 7.73 1212 8.99
5/24/2022 9:00:00 PM 17.89 64.202 0.227 7.73 1413 8.98
5/24/2022 9:15:00 PM 17.89 64.202 0.227 7.71 1014 8.96
5/24/2022 9:30:00 PM 17.82 64.076 0.227 7.7 1150 8.96
5/24/2022 9:45:00 PM 17.76 63.968 0.227 7.7 1149 8.97
5/24/2022 10:00:00 PM 17.78 64.004 0.226 7.69 1221 8.95
5/24/2022 10:15:00 PM 17.7 63.86 0.227 7.68 1313 8.96
5/24/2022 10:30:00 PM 17.54 63.572 0.226 7.66 1061 8.98
5/24/2022 10:45:00 PM 17.52 63.536 0.227 7.66 1296 8.98
5/24/2022 11:00:00 PM 17.44 63.392 0.227 7.65 1198 9
5/24/2022 11:15:00 PM 17.5 63.5 0.227 7.65 1462 9
5/24/2022 11:30:00 PM 17.4 63.32 0.227 7.64 1318 9.01
5/24/2022 11:45:00 PM 17.34 63.212 0.227 7.64 1425 9.02
5/25/2022 12:00:00 AM 17.35 63.23 0.227 7.63 1290 9.02
5/25/2022 12:15:00 AM 17.32 63.176 0.227 7.62 1337 9.03
5/25/2022 12:30:00 AM 17.29 63.122 0.226 7.62 1260 9.02
5/25/2022 12:45:00 AM 17.28 63.104 0.205 7.61 1361 9.03
5/25/2022 1:00:00 AM 17.25 63.05 0.222 7.61 1353 9.03
5/25/2022 1:15:00 AM 17.23 63.014 0.202 7.59 988.9 9.03
5/25/2022 1:30:00 AM 17.19 62.942 0.216 7.61 1312 9.04
5/25/2022 1:45:00 AM 17.2 62.96 0.221 7.6 1189 9.03
5/25/2022 2:00:00 AM 17.12 62.816 0.205 7.59 1258 9.05
5/25/2022 2:15:00 AM 17.11 62.798 0.203 7.59 1323 9.05
5/25/2022 2:30:00 AM 17.1 62.78 0.205 7.58 1101 9.04
5/25/2022 2:45:00 AM 17.03 62.654 0.227 7.57 1136 9.05
5/25/2022 3:00:00 AM 17.05 62.69 0.227 7.58 1212 9.04
5/25/2022 3:15:00 AM 16.99 62.582 0.227 7.57 1092 9.05
5/25/2022 3:30:00 AM 16.97 62.546 0.227 7.58 1523 9.06
5/25/2022 3:45:00 AM 16.94 62.492 0.228 7.57 1221 9.05
5/25/2022 4:00:00 AM 17.01 62.618 0.226 7.57 1139 9.04
5/25/2022 4:15:00 AM 16.89 62.402 0.227 7.56 1111 9.06
5/25/2022 4:30:00 AM 16.95 62.51 0.228 7.56 1348 9.05
5/25/2022 4:45:00 AM 16.87 62.366 0.228 7.57 1225 9.06
5/25/2022 5:00:00 AM 16.82 62.276 0.227 7.56 1314 9.06
5/25/2022 5:15:00 AM 16.79 62.222 0.227 7.56 1046 9.07
5/25/2022 5:30:00 AM 16.79 62.222 0.227 7.56 1117 9.08
5/25/2022 5:45:00 AM 16.78 62.204 0.227 7.57 1314 9.08
5/25/2022 6:00:00 AM 16.64 61.952 0.227 7.56 1345 9.1
5/25/2022 6:15:00 AM 16.64 61.952 0.227 7.56 1187 9.1
5/25/2022 6:30:00 AM 16.66 61.988 0.227 7.55 1094 9.11
5/25/2022 6:45:00 AM 16.58 61.844 0.227 7.55 999.1 9.13
5/25/2022 7:00:00 AM 16.63 61.934 0.227 7.56 1324 9.13
5/25/2022 7:15:00 AM 16.62 61.916 0.227 7.56 1135 9.14
5/25/2022 7:30:00 AM 16.77 62.186 0.227 7.55 1111 9.15
5/25/2022 7:45:00 AM 16.6 61.88 0.202 7.56 1076 9.2
5/25/2022 8:00:00 AM 16.76 62.168 0.227 7.57 1406 9.19
5/25/2022 8:15:00 AM 16.75 62.15 0.227 7.57 1159 9.21
5/25/2022 8:30:00 AM 16.83 62.294 0.227 7.57 1123 9.24
5/25/2022 8:45:00 AM 16.88 62.384 0.227 7.58 1264 9.27
5/25/2022 9:00:00 AM 16.97 62.546 0.227 7.58 1215 9.28
5/25/2022 9:15:00 AM 17.06 62.708 0.227 7.59 1185 9.31
5/25/2022 9:30:00 AM 17.19 62.942 0.227 7.58 1021 9.31
5/25/2022 9:45:00 AM 17.3 63.14 0.227 7.6 1210 9.3
5/25/2022 10:00:00 AM 17.34 63.212 0.228 7.6 1082 9.32
5/25/2022 10:15:00 AM 17.36 63.248 0.227 7.61 997 9.34
5/25/2022 10:30:00 AM 17.59 63.662 0.226 7.61 1053 9.35
5/25/2022 10:45:00 AM 17.6 63.68 0.228 7.63 1121 9.36
5/25/2022 11:00:00 AM 18 64.4 0.227 7.63 1129 9.35
5/25/2022 11:15:00 AM 18.17 64.706 0.228 7.63 978.2 9.35
5/25/2022 11:30:00 AM 18.34 65.012 0.228 7.63 1053 9.35
5/25/2022 11:45:00 AM 18.5 65.3 0.228 7.64 1015 9.36
5/25/2022 12:00:00 PM 18.67 65.606 0.228 7.65 1060 9.35
5/25/2022 12:15:00 PM 18.78 65.804 0.228 7.66 1289 9.31
5/25/2022 12:30:00 PM 19 66.2 0.228 7.66 1093 9.32
5/25/2022 12:45:00 PM 19.05 66.29 0.228 7.67 1082 9.33
5/25/2022 1:00:00 PM 19.25 66.65 0.229 7.67 1122 9.3
5/25/2022 1:15:00 PM 19.33 66.794 0.229 7.69 1119 9.28
5/25/2022 1:30:00 PM 19.45 67.01 0.23 7.68 1099 9.27
5/25/2022 1:45:00 PM 19.41 66.938 0.229 7.69 1089 9.26
5/25/2022 2:00:00 PM 19.53 67.154 0.23 7.69 673.3 9.24
5/25/2022 2:15:00 PM 19.45 67.01 0.229 7.7 1108 9.23
5/25/2022 2:30:00 PM 19.51 67.118 0.229 7.71 902.3 9.21
5/25/2022 2:45:00 PM 19.5 67.1 0.228 7.71 1375 9.22
5/25/2022 3:00:00 PM 19.49 67.082 0.228 7.71 1125 9.21
5/25/2022 3:15:00 PM 19.41 66.938 0.228 7.71 1068 9.21
5/25/2022 3:30:00 PM 19.39 66.902 0.228 7.72 962 9.2
5/25/2022 3:45:00 PM 19.45 67.01 0.229 7.72 1187 9.19
5/25/2022 4:00:00 PM 19.61 67.298 0.229 7.73 1245 9.16
5/25/2022 4:15:00 PM 19.63 67.334 0.228 7.74 997.4 9.15
5/25/2022 4:30:00 PM 19.69 67.442 0.229 7.73 1050 9.14
5/25/2022 4:45:00 PM 19.75 67.55 0.229 7.74 870.6 9.1
5/25/2022 5:00:00 PM 19.61 67.298 0.228 7.75 1204 9.12
5/25/2022 5:15:00 PM 19.69 67.442 0.228 7.75 1065 9.09
5/25/2022 5:30:00 PM 19.63 67.334 0.228 7.75 1156 9.08
5/25/2022 5:45:00 PM 19.6 67.28 0.229 7.76 1048 9.04
5/25/2022 6:00:00 PM 19.51 67.118 0.228 7.77 930.5 9.02
5/25/2022 6:15:00 PM 19.49 67.082 0.229 7.78 1001 9
5/25/2022 6:30:00 PM 19.52 67.136 0.229 7.78 882.5 8.96
5/25/2022 6:45:00 PM 19.45 67.01 0.229 7.78 963.4 8.95
5/25/2022 7:00:00 PM 19.46 67.028 0.229 7.78 1128 8.93
5/25/2022 7:15:00 PM 19.36 66.848 0.228 7.77 911.2 8.92
5/25/2022 7:30:00 PM 19.22 66.596 0.228 7.78 1064 8.9
5/25/2022 7:45:00 PM 19.2 66.56 0.228 7.77 1172 8.88
5/25/2022 8:00:00 PM 19.1 66.38 0.228 7.78 1284 8.87
5/25/2022 8:15:00 PM 19.01 66.218 0.228 7.77 1232 8.85
5/25/2022 8:30:00 PM 18.91 66.038 0.228 7.75 989.5 8.84
5/25/2022 8:45:00 PM 18.8 65.84 0.228 7.75 1083 8.84
5/25/2022 9:00:00 PM 18.76 65.768 0.23 7.74 1009 8.83
5/25/2022 9:15:00 PM 18.67 65.606 0.229 7.73 1008 8.82
5/25/2022 9:30:00 PM 18.65 65.57 0.216 7.73 1006 8.8
5/25/2022 9:45:00 PM 18.58 65.444 0.229 7.72 920 8.79
5/25/2022 10:00:00 PM 18.53 65.354 0.229 7.7 1133 8.8
5/25/2022 10:15:00 PM 18.49 65.282 0.229 7.7 1086 8.8
5/25/2022 10:30:00 PM 18.47 65.246 0.229 7.69 1059 8.8
5/25/2022 10:45:00 PM 18.44 65.192 0.229 7.68 1000 8.79
5/25/2022 11:00:00 PM 18.37 65.066 0.229 7.68 1101 8.81
5/25/2022 11:15:00 PM 18.3 64.94 0.222 7.66 1000 8.8
5/25/2022 11:30:00 PM 18.27 64.886 0.216 7.68 1027 8.82
5/25/2022 11:45:00 PM 18.21 64.778 0.229 7.68 1049 8.82
5/26/2022 12:00:00 AM 18.17 64.706 0.231 7.66 1011 8.82
5/26/2022 12:15:00 AM 18.15 64.67 0.23 7.65 911.3 8.83
5/26/2022 12:30:00 AM 18.1 64.58 0.23 7.64 985.8 8.84
5/26/2022 12:45:00 AM 18.06 64.508 0.23 7.64 1068 8.84
5/26/2022 1:00:00 AM 18.06 64.508 0.23 7.64 1019 8.84
5/26/2022 1:15:00 AM 18.04 64.472 0.23 7.63 962.7 8.84
5/26/2022 1:30:00 AM 17.98 64.364 0.23 7.62 1016 8.83
5/26/2022 1:45:00 AM 17.92 64.256 0.23 7.62 885.7 8.85
5/26/2022 2:00:00 AM 17.87 64.166 0.23 7.63 962.4 8.86
5/26/2022 2:15:00 AM 17.83 64.094 0.23 7.62 973.4 8.86
5/26/2022 2:30:00 AM 17.81 64.058 0.23 7.61 1011 8.85
5/26/2022 2:45:00 AM 17.79 64.022 0.229 7.62 960.5 8.85
5/26/2022 3:00:00 AM 17.78 64.004 0.229 7.61 933.7 8.86
5/26/2022 3:15:00 AM 17.75 63.95 0.227 7.62 897.9 8.86
5/26/2022 3:30:00 AM 17.72 63.896 0.223 7.62 1024 8.88
5/26/2022 3:45:00 AM 17.72 63.896 0.201 7.61 937 8.87
5/26/2022 4:00:00 AM 17.64 63.752 0.227 7.61 937.1 8.87
5/26/2022 4:15:00 AM 17.64 63.752 0.229 7.61 1039 8.87
5/26/2022 4:30:00 AM 17.57 63.626 0.225 7.62 1120 8.89
5/26/2022 4:45:00 AM 17.58 63.644 0.229 7.61 1026 8.89
5/26/2022 5:00:00 AM 17.53 63.554 0.229 7.6 960.4 8.89
5/26/2022 5:15:00 AM 17.51 63.518 0.229 7.6 998.4 8.89
5/26/2022 5:30:00 AM 17.47 63.446 0.229 7.6 917.4 8.91
5/26/2022 5:45:00 AM 17.48 63.464 0.229 7.6 965.9 8.9
5/26/2022 6:00:00 AM 17.42 63.356 0.229 7.6 1040 8.92
5/26/2022 6:15:00 AM 17.44 63.392 0.23 7.6 953.7 8.92
5/26/2022 6:30:00 AM 17.46 63.428 0.23 7.59 922.7 8.92
5/26/2022 6:45:00 AM 17.44 63.392 0.23 7.6 930.7 8.93
5/26/2022 7:00:00 AM 17.43 63.374 0.23 7.61 988.3 8.92
5/26/2022 7:15:00 AM 17.54 63.572 0.23 7.6 1024 8.94
5/26/2022 7:30:00 AM 17.51 63.518 0.23 7.6 982.3 8.96
5/26/2022 7:45:00 AM 17.54 63.572 0.229 7.61 1006 8.98
5/26/2022 8:00:00 AM 17.55 63.59 0.229 7.61 920.3 8.98
5/26/2022 8:15:00 AM 17.56 63.608 0.229 7.62 1125 9.03
5/26/2022 8:30:00 AM 17.62 63.716 0.23 7.62 986.4 9.06
5/26/2022 8:45:00 AM 17.65 63.77 0.229 7.63 973.1 9.08
5/26/2022 9:00:00 AM 17.71 63.878 0.229 7.63 1015 9.09
5/26/2022 9:15:00 AM 17.86 64.148 0.229 7.64 1078 9.1
5/26/2022 9:30:00 AM 17.93 64.274 0.229 7.64 945.7 9.12
5/26/2022 9:45:00 AM 17.97 64.346 0.229 7.64 848.3 9.11
5/26/2022 10:00:00 AM 18 64.4 0.229 7.66 916 9.12
5/26/2022 10:15:00 AM 18.13 64.634 0.229 7.66 1012 9.12
5/26/2022 10:30:00 AM 18.1 64.58 0.229 7.66 985.5 9.13
5/26/2022 10:45:00 AM 18.11 64.598 0.229 7.67 892.3 9.14
5/26/2022 11:00:00 AM 18.13 64.634 0.229 7.68 1005 9.16
5/26/2022 11:15:00 AM 18.16 64.688 0.229 7.69 1022 9.18
5/26/2022 11:30:00 AM 18.22 64.796 0.229 7.7 1082 9.2
5/26/2022 11:45:00 AM 18.38 65.084 0.229 7.71 939.9 9.22
5/26/2022 12:00:00 PM 18.43 65.174 0.228 7.73 939.1 9.21
5/26/2022 12:15:00 PM 18.56 65.408 0.228 7.73 949.1 9.22
5/26/2022 12:30:00 PM 18.64 65.552 0.228 7.73 840.4 9.2
5/26/2022 12:45:00 PM 18.73 65.714 0.229 7.75 931.8 9.22
5/26/2022 1:00:00 PM 18.89 66.002 0.229 7.76 848.3 9.21
5/26/2022 1:15:00 PM 19.02 66.236 0.229 7.76 724.1 9.19
5/26/2022 1:30:00 PM 19 66.2 0.229 7.78 705.6 9.19
5/26/2022 1:45:00 PM 19.13 66.434 0.229 7.77 728.8 9.15
5/26/2022 2:00:00 PM 19.15 66.47 0.229 7.78 826.3 9.13
5/26/2022 2:15:00 PM 19.14 66.452 0.229 7.79 874 9.14
5/26/2022 2:30:00 PM 19.17 66.506 0.229 7.8 785.3 9.16
5/26/2022 2:45:00 PM 19.29 66.722 0.228 7.81 869.2 9.18
5/26/2022 3:00:00 PM 19.19 66.542 0.228 7.82 853.2 9.21
5/26/2022 3:15:00 PM 19.19 66.542 0.228 7.81 866.4 9.21
5/26/2022 3:30:00 PM 19.27 66.686 0.228 7.83 964.5 9.2
5/26/2022 3:45:00 PM 19.35 66.83 0.228 7.84 817.9 9.2
5/26/2022 4:00:00 PM 19.36 66.848 0.228 7.83 776.7 9.18
5/26/2022 4:15:00 PM 19.44 66.992 0.229 7.84 794.8 9.12
5/26/2022 4:30:00 PM 19.41 66.938 0.228 7.86 792.1 9.1
5/26/2022 4:45:00 PM 19.41 66.938 0.228 7.85 816 9.07
5/26/2022 5:00:00 PM 19.39 66.902 0.228 7.85 806.5 9.02
5/26/2022 5:15:00 PM 19.32 66.776 0.228 7.84 759.5 9
5/26/2022 5:30:00 PM 19.37 66.866 0.227 7.84 741.5 8.98
5/26/2022 5:45:00 PM 19.34 66.812 0.227 7.85 853.4 8.97
5/26/2022 6:00:00 PM 19.36 66.848 0.228 7.86 780.2 8.94
5/26/2022 6:15:00 PM 19.38 66.884 0.227 7.86 762.1 8.92
5/26/2022 6:30:00 PM 19.23 66.614 0.228 7.88 831.7 8.91
5/26/2022 6:45:00 PM 19.29 66.722 0.228 7.87 714.9 8.89
5/26/2022 7:00:00 PM 19.28 66.704 0.228 7.87 824 8.87
5/26/2022 7:15:00 PM 19.18 66.524 0.228 7.87 912.5 8.85
5/26/2022 7:30:00 PM 19.2 66.56 0.228 7.86 923.1 8.82
5/26/2022 7:45:00 PM 19.12 66.416 0.228 7.85 730 8.83
5/26/2022 8:00:00 PM 19.1 66.38 0.228 7.86 752.5 8.79
5/26/2022 8:15:00 PM 19.03 66.254 0.228 7.84 783.6 8.78
5/26/2022 8:30:00 PM 18.99 66.182 0.228 7.84 744.5 8.76
5/26/2022 8:45:00 PM 18.96 66.128 0.225 7.83 737 8.76
5/26/2022 9:00:00 PM 18.95 66.11 0.228 7.81 756.1 8.73
5/26/2022 9:15:00 PM 18.9 66.02 0.229 7.8 777.4 8.73
5/26/2022 9:30:00 PM 18.91 66.038 0.226 7.78 694.4 8.71
5/26/2022 9:45:00 PM 18.93 66.074 0.226 7.78 852.4 8.7
5/26/2022 10:00:00 PM 18.92 66.056 0.228 7.78 744 8.68
5/26/2022 10:15:00 PM 18.96 66.128 0.228 7.77 691.9 8.66
5/26/2022 10:30:00 PM 18.96 66.128 0.228 7.76 766.1 8.66
5/26/2022 10:45:00 PM 18.95 66.11 0.228 7.75 744.3 8.65
5/26/2022 11:00:00 PM 18.95 66.11 0.229 7.75 791.9 8.65
5/26/2022 11:15:00 PM 18.91 66.038 0.229 7.75 704.8 8.65
5/26/2022 11:30:00 PM 18.89 66.002 0.229 7.74 771 8.66
5/26/2022 11:45:00 PM 18.84 65.912 0.229 7.74 796.2 8.66
5/27/2022 12:00:00 AM 18.79 65.82201 0.229 7.73 791.6 8.67
5/27/2022 12:15:00 AM 18.78 65.804 0.229 7.73 806.5 8.67
5/27/2022 12:30:00 AM 18.83 65.894 0.229 7.71 773.7 8.65
5/27/2022 12:45:00 AM 18.75 65.75 0.228 7.7 703.7 8.65
5/27/2022 1:00:00 AM 18.74 65.732 0.228 7.69 726.8 8.66
5/27/2022 1:15:00 AM 18.67 65.606 0.228 7.68 698.5 8.65
5/27/2022 1:30:00 AM 18.67 65.606 0.23 7.69 844.4 8.66
5/27/2022 1:45:00 AM 18.59 65.462 0.229 7.67 766.4 8.67
5/27/2022 2:00:00 AM 18.54 65.372 0.229 7.66 792.3 8.67
5/27/2022 2:15:00 AM 18.49 65.282 0.229 7.66 902.9 8.69
5/27/2022 2:30:00 AM 18.47 65.246 0.229 7.64 777.8 8.69
5/27/2022 2:45:00 AM 18.43 65.174 0.23 7.63 781.3 8.69
5/27/2022 3:00:00 AM 18.37 65.066 0.229 7.62 771.9 8.69
5/27/2022 3:15:00 AM 18.39 65.102 0.228 7.62 784.7 8.7
5/27/2022 3:30:00 AM 18.32 64.976 0.228 7.61 721.8 8.7
5/27/2022 3:45:00 AM 18.26 64.868 0.229 7.61 721.9 8.71
5/27/2022 4:00:00 AM 18.28 64.904 0.229 7.6 660.5 8.7
5/27/2022 4:15:00 AM 18.24 64.832 0.229 7.59 721.7 8.71
5/27/2022 4:30:00 AM 18.21 64.778 0.229 7.59 657.8 8.71
5/27/2022 4:45:00 AM 18.16 64.688 0.229 7.59 649.2 8.71
5/27/2022 5:00:00 AM 18.14 64.652 0.229 7.58 603.1 8.72
5/27/2022 5:15:00 AM 18.09 64.562 0.229 7.59 703.1 8.73
5/27/2022 5:30:00 AM 18.08 64.544 0.228 7.59 791.3 8.73
5/27/2022 5:45:00 AM 18.11 64.598 0.228 7.57 662 8.72
5/27/2022 6:00:00 AM 18.12 64.616 0.229 7.58 670.5 8.71
5/27/2022 6:15:00 AM 18.1 64.58 0.228 7.57 692.3 8.72
5/27/2022 6:30:00 AM 18.14 64.652 0.229 7.58 665 8.7
5/27/2022 6:45:00 AM 18.18 64.724 0.212 7.57 675.3 8.7
5/27/2022 7:00:00 AM 18.17 64.706 0.213 7.57 670.8 8.71
5/27/2022 7:15:00 AM 18.22 64.796 0.211 7.56 622.9 8.7
5/27/2022 7:30:00 AM 18.24 64.832 0.204 7.57 657 8.72
5/27/2022 7:45:00 AM 18.26 64.868 0.225 7.56 622.3 8.73
5/27/2022 8:00:00 AM 18.32 64.976 0.217 7.58 674.6 8.73
5/27/2022 8:15:00 AM 18.33 64.994 0.228 7.57 657 8.73
5/27/2022 8:30:00 AM 18.33 64.994 0.228 7.58 630.5 8.74
5/27/2022 8:45:00 AM 18.29 64.922 0.229 7.58 620.2 8.75
5/27/2022 9:00:00 AM 18.42 65.156 0.228 7.58 522.4 8.76
5/27/2022 9:15:00 AM 18.47 65.246 0.224 7.59 656.9 8.77
5/27/2022 9:30:00 AM 18.52 65.336 0.227 7.58 557.2 8.77
5/27/2022 9:45:00 AM 18.6 65.48 0.228 7.6 582.2 8.78
5/27/2022 10:00:00 AM 18.64 65.552 0.205 7.61 615.2 8.77
5/27/2022 10:15:00 AM 18.73 65.714 0.228 7.61 542.6 8.79
5/27/2022 10:30:00 AM 18.73 65.714 0.227 7.62 620.7 8.81
5/27/2022 10:45:00 AM 18.8 65.84 0.229 7.62 569.6 8.82
5/27/2022 11:00:00 AM 18.82 65.876 0.207 7.62 578.5 8.84
5/27/2022 11:15:00 AM 18.85 65.93 0.228 7.63 569.1 8.83
5/27/2022 11:30:00 AM 18.85 65.93 0.229 7.63 604.2 8.83
5/27/2022 11:45:00 AM 18.92 66.056 0.229 7.64 548.4 8.82
5/27/2022 12:00:00 PM 18.94 66.092 0.227 7.65 581.5 8.84
5/27/2022 12:15:00 PM 18.98 66.164 0.226 7.66 577.9 8.85
5/27/2022 12:30:00 PM 19.12 66.416 0.228 7.68 604.5 8.88
5/27/2022 12:45:00 PM 19.16 66.488 0.228 7.67 510.5 8.91
5/27/2022 1:00:00 PM 19.28 66.704 0.219 7.69 530 8.88
5/27/2022 1:15:00 PM 19.29 66.722 0.22 7.69 548 8.85
5/27/2022 1:30:00 PM 19.32 66.776 0.227 7.7 676.3 8.8
5/27/2022 1:45:00 PM 19.3 66.74 0.226 7.69 623.7 8.75
5/27/2022 2:00:00 PM 19.22 66.596 0.218 7.69 647.6 8.67
5/27/2022 2:15:00 PM 19.22 66.596 0.217 7.67 621.5 8.64
5/27/2022 2:30:00 PM 19.17 66.506 0.222 7.67 697 8.64
5/27/2022 2:45:00 PM 19.08 66.344 0.224 7.65 682 8.68
5/27/2022 3:00:00 PM 19.07 66.326 0.225 7.67 667.6 8.7
5/27/2022 3:15:00 PM 19.08 66.344 0.226 7.65 584.5 8.71
5/27/2022 3:30:00 PM 19.09 66.362 0.227 7.66 579.1 8.76
5/27/2022 3:45:00 PM 19.04 66.272 0.23 7.66 668.5 8.8
5/27/2022 4:00:00 PM 19.06 66.308 0.231 7.66 552.3 8.83
5/27/2022 4:15:00 PM 19.2 66.56 0.226 7.66 564 8.83
5/27/2022 4:30:00 PM 19.32 66.776 0.225 7.68 596.4 8.81
5/27/2022 4:45:00 PM 19.43 66.974 0.228 7.69 558.8 8.82
5/27/2022 5:00:00 PM 19.44 66.992 0.228 7.7 557.9 8.81
5/27/2022 5:15:00 PM 19.38 66.884 0.217 7.69 520.1 8.8
5/27/2022 5:30:00 PM 19.35 66.83 0.219 7.69 517.6 8.81
5/27/2022 5:45:00 PM 19.41 66.938 0.218 7.69 512.9 8.81
5/27/2022 6:00:00 PM 19.39 66.902 0.216 7.69 502.5 8.78
5/27/2022 6:15:00 PM 19.36 66.848 0.222 7.69 567.8 8.77
5/27/2022 6:30:00 PM 19.34 66.812 0.221 7.69 533.1 8.76
5/27/2022 6:45:00 PM 19.25 66.65 0.222 7.68 580 8.74
5/27/2022 7:00:00 PM 19.14 66.452 0.221 7.67 567.1 8.72
5/27/2022 7:15:00 PM 19.07 66.326 0.22 7.66 535.5 8.71
5/27/2022 7:30:00 PM 19 66.2 0.219 7.65 478.1 8.69
5/27/2022 7:45:00 PM 18.94 66.092 0.224 7.63 457.1 8.67
5/27/2022 8:00:00 PM 18.9 66.02 0.225 7.63 520.4 8.65
5/27/2022 8:15:00 PM 18.85 65.93 0.225 7.62 461 8.65
5/27/2022 8:30:00 PM 18.82 65.876 0.224 7.62 491.8 8.61
5/27/2022 8:45:00 PM 18.84 65.912 0.225 7.62 469.6 8.6
5/27/2022 9:00:00 PM 18.8 65.84 0.224 7.62 509.9 8.59
5/27/2022 9:15:00 PM 18.78 65.804 0.223 7.61 487 8.57
5/27/2022 9:30:00 PM 18.74 65.732 0.224 7.6 486.7 8.58
5/27/2022 9:45:00 PM 18.72 65.696 0.227 7.6 452.3 8.58
5/27/2022 10:00:00 PM 18.7 65.66 0.225 7.59 505.5 8.57
5/27/2022 10:15:00 PM 18.67 65.606 0.221 7.57 468.4 8.56
5/27/2022 10:30:00 PM 18.63 65.534 0.226 7.56 452.9 8.57
5/27/2022 10:45:00 PM 18.6 65.48 0.226 7.56 475.7 8.57
5/27/2022 11:00:00 PM 18.56 65.408 0.226 7.55 470.8 8.56
5/27/2022 11:15:00 PM 18.56 65.408 0.226 7.54 492.2 8.56
5/27/2022 11:30:00 PM 18.5 65.3 0.226 7.54 480.7 8.56
5/27/2022 11:45:00 PM 18.46 65.228 0.226 7.54 447.6 8.56
5/28/2022 12:00:00 AM 18.47 65.246 0.225 7.53 469.4 8.54
5/28/2022 12:15:00 AM 18.43 65.174 0.225 7.54 474.8 8.53
5/28/2022 12:30:00 AM 18.4 65.12 0.225 7.53 408.8 8.55
5/28/2022 12:45:00 AM 18.41 65.138 0.225 7.52 403.9 8.55
5/28/2022 1:00:00 AM 18.38 65.084 0.225 7.52 399.1 8.56
5/28/2022 1:15:00 AM 18.32 64.976 0.226 7.51 441.1 8.56
5/28/2022 1:30:00 AM 18.31 64.958 0.227 7.5 436.4 8.54
5/28/2022 1:45:00 AM 18.3 64.94 0.227 7.51 388.9 8.56
5/28/2022 2:00:00 AM 18.27 64.886 0.227 7.5 387.6 8.56
5/28/2022 2:15:00 AM 18.21 64.778 0.227 7.5 418 8.57
5/28/2022 2:30:00 AM 18.15 64.67 0.226 7.5 377 8.57
5/28/2022 2:45:00 AM 18.2 64.76 0.225 7.49 323.6 8.57
5/28/2022 3:00:00 AM 18.16 64.688 0.225 7.5 352.3 8.57
5/28/2022 3:15:00 AM 18.12 64.616 0.224 7.49 337.8 8.57
5/28/2022 3:30:00 AM 18.08 64.544 0.224 7.5 381.6 8.57
5/28/2022 3:45:00 AM 18.06 64.508 0.224 7.5 396.4 8.58
5/28/2022 4:00:00 AM 18.05 64.49 0.225 7.5 345.5 8.57
5/28/2022 4:15:00 AM 18.04 64.472 0.225 7.51 380.7 8.58
5/28/2022 4:30:00 AM 18.02 64.436 0.226 7.5 337.7 8.58
5/28/2022 4:45:00 AM 18.01 64.418 0.226 7.5 343.2 8.59
5/28/2022 5:00:00 AM 17.99 64.382 0.226 7.51 328.9 8.61
5/28/2022 5:15:00 AM 17.98 64.364 0.226 7.51 322.3 8.61
5/28/2022 5:30:00 AM 17.96 64.328 0.226 7.51 338.7 8.61
5/28/2022 5:45:00 AM 17.95 64.31 0.227 7.51 320.7 8.61
5/28/2022 6:00:00 AM 17.93 64.274 0.227 7.52 342.3 8.59
5/28/2022 6:15:00 AM 17.9 64.22 0.228 7.51 275.9 8.6
5/28/2022 6:30:00 AM 17.86 64.148 0.228 7.52 285 8.63
5/28/2022 6:45:00 AM 17.83 64.094 0.228 7.51 263.1 8.63
5/28/2022 7:00:00 AM 17.83 64.094 0.227 7.52 267.1 8.64
5/28/2022 7:15:00 AM 17.81 64.058 0.228 7.52 272.2 8.63
5/28/2022 7:30:00 AM 17.87 64.166 0.228 7.52 265.7 8.65
5/28/2022 7:45:00 AM 17.88 64.184 0.203 7.54 257.4 8.69
5/28/2022 8:00:00 AM 17.94 64.292 0.203 7.53 257.7 8.71
5/28/2022 8:15:00 AM 17.99 64.382 0.202 7.53 251.6 8.71
5/28/2022 8:30:00 AM 18 64.4 0.203 7.53 260.2 8.72
5/28/2022 8:45:00 AM 18.05 64.49 0.224 7.53 248 8.72
5/28/2022 9:00:00 AM 18.04 64.472 0.223 7.54 258.3 8.75
5/28/2022 9:15:00 AM 18.12 64.616 0.226 7.55 249.1 8.77
5/28/2022 9:30:00 AM 18.24 64.832 0.226 7.55 239.3 8.78
5/28/2022 9:45:00 AM 18.35 65.03 0.225 7.54 248.9 8.78
5/28/2022 10:00:00 AM 18.38 65.084 0.2 7.54 236.1 8.82
5/28/2022 10:15:00 AM 18.5 65.3 0.22 7.55 248.9 8.84
5/28/2022 10:30:00 AM 18.61 65.498 0.22 7.57 237.9 8.85
5/28/2022 10:45:00 AM 18.65 65.57 0.22 7.56 236.3 8.87
5/28/2022 11:00:00 AM 18.86 65.948 0.219 7.56 233.6 8.88
5/28/2022 11:15:00 AM 19 66.2 0.219 7.57 236.4 8.89
5/28/2022 11:30:00 AM 19.07 66.326 0.224 7.57 234.6 8.9
5/28/2022 11:45:00 AM 19.13 66.434 0.225 7.58 234.7 8.89
5/28/2022 12:00:00 PM 19.26 66.668 0.225 7.57 231 8.91
5/28/2022 12:15:00 PM 19.44 66.992 0.225 7.58 228.1 8.92
5/28/2022 12:30:00 PM 19.56 67.208 0.225 7.59 226.2 8.94
5/28/2022 12:45:00 PM 19.55 67.19 0.224 7.6 216.9 8.97
5/28/2022 1:00:00 PM 19.71 67.478 0.225 7.59 217 8.95
5/28/2022 1:15:00 PM 19.83 67.694 0.225 7.59 238 8.97
5/28/2022 1:30:00 PM 19.85 67.73 0.225 7.6 212.4 8.93
5/28/2022 1:45:00 PM 19.89 67.802 0.225 7.6 207.2 8.93
5/28/2022 2:00:00 PM 19.92 67.856 0.225 7.6 201.7 8.94
5/28/2022 2:15:00 PM 19.97 67.946 0.225 7.61 205.5 8.89
5/28/2022 2:30:00 PM 19.97 67.946 0.224 7.6 201.6 8.88
5/28/2022 2:45:00 PM 19.95 67.91 0.221 7.6 201.7 8.9
5/28/2022 3:00:00 PM 19.84 67.712 0.224 7.6 213.2 8.93
5/28/2022 3:15:00 PM 19.77 67.586 0.225 7.61 206 8.91
5/28/2022 3:30:00 PM 19.76 67.568 0.224 7.6 199 8.9
5/28/2022 3:45:00 PM 19.81 67.658 0.226 7.59 196.1 8.9
5/28/2022 4:00:00 PM 19.79 67.622 0.226 7.61 196.8 8.88
5/28/2022 4:15:00 PM 19.87 67.766 0.226 7.6 194.4 8.86
5/28/2022 4:30:00 PM 19.88 67.784 0.226 7.6 191.5 8.84
5/28/2022 4:45:00 PM 19.87 67.766 0.226 7.6 201 8.81
5/28/2022 5:00:00 PM 19.82 67.676 0.226 7.61 192.5 8.81
5/28/2022 5:15:00 PM 19.78 67.604 0.226 7.6 188.6 8.81
5/28/2022 5:30:00 PM 19.81 67.658 0.226 7.6 179.8 8.8
5/28/2022 5:45:00 PM 19.78 67.604 0.226 7.6 185.9 8.79
5/28/2022 6:00:00 PM 19.74 67.532 0.227 7.6 193.7 8.8
5/28/2022 6:15:00 PM 19.73 67.514 0.227 7.6 184.3 8.78
5/28/2022 6:30:00 PM 19.73 67.514 0.227 7.61 185.6 8.76
5/28/2022 6:45:00 PM 19.75 67.55 0.228 7.59 180.1 8.75
5/28/2022 7:00:00 PM 19.74 67.532 0.227 7.61 189.3 8.72
5/28/2022 7:15:00 PM 19.69 67.442 0.228 7.61 180.3 8.71
5/28/2022 7:30:00 PM 19.69 67.442 0.228 7.61 181.7 8.69
5/28/2022 7:45:00 PM 19.65 67.37 0.227 7.59 185.6 8.66
5/28/2022 8:00:00 PM 19.63 67.334 0.227 7.59 182.5 8.63
5/28/2022 8:15:00 PM 19.59 67.262 0.227 7.58 187.3 8.61
5/28/2022 8:30:00 PM 19.53 67.154 0.228 7.58 185.2 8.59
5/28/2022 8:45:00 PM 19.46 67.028 0.228 7.58 190.3 8.56
5/28/2022 9:00:00 PM 19.42 66.956 0.227 7.57 187.9 8.56
5/28/2022 9:15:00 PM 19.44 66.992 0.227 7.56 183.2 8.55
5/28/2022 9:30:00 PM 19.39 66.902 0.228 7.56 185.2 8.54
5/28/2022 9:45:00 PM 19.36 66.848 0.228 7.56 189.6 8.53
5/28/2022 10:00:00 PM 19.3 66.74 0.227 7.56 185.8 8.53
5/28/2022 10:15:00 PM 19.25 66.65 0.228 7.56 192.6 8.53
5/28/2022 10:30:00 PM 19.2 66.56 0.227 7.55 190.2 8.53
5/28/2022 10:45:00 PM 19.14 66.452 0.227 7.54 191.7 8.53
5/28/2022 11:00:00 PM 19.11 66.398 0.227 7.55 185.4 8.53
5/28/2022 11:15:00 PM 19.1 66.38 0.227 7.54 180.9 8.54
5/28/2022 11:30:00 PM 19.07 66.326 0.227 7.54 179.8 8.54
5/28/2022 11:45:00 PM 19.02 66.236 0.228 7.54 176.8 8.54
5/29/2022 12:00:00 AM 19.01 66.218 0.227 7.54 182.1 8.53
5/29/2022 12:15:00 AM 19.01 66.218 0.228 7.54 174.4 8.53
5/29/2022 12:30:00 AM 18.99 66.182 0.228 7.54 185.1 8.53
5/29/2022 12:45:00 AM 18.96 66.128 0.227 7.54 174.8 8.54
5/29/2022 1:00:00 AM 18.92 66.056 0.227 7.54 177.9 8.53
5/29/2022 1:15:00 AM 18.86 65.948 0.227 7.54 183.4 8.56
5/29/2022 1:30:00 AM 18.79 65.82201 0.228 7.54 179.2 8.55
5/29/2022 1:45:00 AM 18.74 65.732 0.228 7.54 170.1 8.57
5/29/2022 2:00:00 AM 18.7 65.66 0.227 7.54 174 8.57
5/29/2022 2:15:00 AM 18.65 65.57 0.228 7.54 169.3 8.57
5/29/2022 2:30:00 AM 18.63 65.534 0.227 7.53 170.1 8.58
5/29/2022 2:45:00 AM 18.59 65.462 0.227 7.53 176.2 8.58
5/29/2022 3:00:00 AM 18.56 65.408 0.226 7.53 171 8.58
5/29/2022 3:15:00 AM 18.53 65.354 0.226 7.53 168.5 8.57
5/29/2022 3:30:00 AM 18.5 65.3 0.226 7.53 171.1 8.59
5/29/2022 3:45:00 AM 18.46 65.228 0.227 7.53 192.2 8.6
5/29/2022 4:00:00 AM 18.44 65.192 0.226 7.53 183.6 8.6
5/29/2022 4:15:00 AM 18.4 65.12 0.227 7.53 176.8 8.61
5/29/2022 4:30:00 AM 18.37 65.066 0.227 7.53 176.1 8.61
5/29/2022 4:45:00 AM 18.32 64.976 0.227 7.53 171.9 8.61
5/29/2022 5:00:00 AM 18.3 64.94 0.225 7.52 171.4 8.63
5/29/2022 5:15:00 AM 18.27 64.886 0.226 7.53 164.9 8.62
5/29/2022 5:30:00 AM 18.25 64.85 0.226 7.52 167.9 8.63
5/29/2022 5:45:00 AM 18.2 64.76 0.226 7.53 182.5 8.65
5/29/2022 6:00:00 AM 18.18 64.724 0.226 7.52 176.8 8.65
5/29/2022 6:15:00 AM 18.13 64.634 0.226 7.53 190.3 8.66
5/29/2022 6:30:00 AM 18.1 64.58 0.226 7.52 169.4 8.66
5/29/2022 6:45:00 AM 18.1 64.58 0.226 7.52 183.6 8.67
5/29/2022 7:00:00 AM 18.08 64.544 0.226 7.52 173.5 8.7
5/29/2022 7:15:00 AM 18.07 64.526 0.226 7.51 173.2 8.72
5/29/2022 7:30:00 AM 18.06 64.508 0.225 7.53 163.1 8.73
5/29/2022 7:45:00 AM 18.12 64.616 0.225 7.52 161.3 8.74
5/29/2022 8:00:00 AM 18.14 64.652 0.226 7.53 171.2 8.77
5/29/2022 8:15:00 AM 18.23 64.814 0.225 7.54 161.8 8.79
5/29/2022 8:30:00 AM 18.28 64.904 0.225 7.53 162.7 8.81
5/29/2022 8:45:00 AM 18.35 65.03 0.226 7.54 163.4 8.83
5/29/2022 9:00:00 AM 18.46 65.228 0.225 7.54 155.9 8.84
5/29/2022 9:15:00 AM 18.6 65.48 0.226 7.55 159 8.86
5/29/2022 9:30:00 AM 18.65 65.57 0.225 7.55 155.4 8.88
5/29/2022 9:45:00 AM 18.87 65.966 0.227 7.56 158 8.88
5/29/2022 10:00:00 AM 18.99 66.182 0.227 7.57 158.9 8.89
5/29/2022 10:15:00 AM 19.17 66.506 0.227 7.58 158.1 8.91
5/29/2022 10:30:00 AM 19.32 66.776 0.227 7.57 163.7 8.92
5/29/2022 10:45:00 AM 19.48 67.064 0.226 7.58 154.5 8.92
5/29/2022 11:00:00 AM 19.54 67.172 0.228 7.59 155.5 8.96
5/29/2022 11:15:00 AM 19.69 67.442 0.228 7.59 154.6 8.96
5/29/2022 11:30:00 AM 19.88 67.784 0.227 7.59 156.9 8.97
5/29/2022 11:45:00 AM 19.94 67.892 0.227 7.61 150.6 8.98
5/29/2022 12:00:00 PM 20.06 68.108 0.228 7.61 149.4 8.99
5/29/2022 12:15:00 PM 20.32 68.576 0.226 7.61 147.7 8.98
5/29/2022 12:30:00 PM 20.42 68.756 0.228 7.61 148.9 8.99
5/29/2022 12:45:00 PM 20.53 68.954 0.228 7.62 144.1 8.99
5/29/2022 1:00:00 PM 20.62 69.116 0.227 7.61 141.7 8.96
5/29/2022 1:15:00 PM 20.53 68.954 0.228 7.63 154.2 8.96
5/29/2022 1:30:00 PM 20.56 69.008 0.228 7.63 147.8 8.95
5/29/2022 1:45:00 PM 20.64 69.152 0.228 7.63 146.3 8.91
5/29/2022 2:00:00 PM 20.67 69.206 0.228 7.63 147.5 8.94
5/29/2022 2:15:00 PM 20.74 69.332 0.227 7.63 157.6 8.95
5/29/2022 2:30:00 PM 20.81 69.458 0.227 7.64 158.8 8.99
5/29/2022 2:45:00 PM 20.87 69.566 0.228 7.65 152.3 8.99
5/29/2022 3:00:00 PM 21.03 69.854 0.228 7.64 153.5 8.95
5/29/2022 3:15:00 PM 21.09 69.962 0.228 7.63 160.3 8.93
5/29/2022 3:30:00 PM 21.15 70.07 0.228 7.63 157.7 8.88
5/29/2022 3:45:00 PM 21.14 70.052 0.227 7.63 151.3 8.89
5/29/2022 4:00:00 PM 21.02 69.836 0.228 7.65 153 8.9
5/29/2022 4:15:00 PM 20.95 69.71 0.228 7.65 148.4 8.9
5/29/2022 4:30:00 PM 20.9 69.62 0.228 7.64 152.3 8.87
5/29/2022 4:45:00 PM 20.89 69.602 0.227 7.65 152.3 8.86
5/29/2022 5:00:00 PM 20.87 69.566 0.228 7.65 145.4 8.83
5/29/2022 5:15:00 PM 20.84 69.512 0.227 7.64 154.1 8.8
5/29/2022 5:30:00 PM 20.77 69.386 0.227 7.65 151.8 8.8
5/29/2022 5:45:00 PM 20.7 69.26 0.227 7.64 160.6 8.77
5/29/2022 6:00:00 PM 20.63 69.134 0.227 7.65 150.6 8.77
5/29/2022 6:15:00 PM 20.53 68.954 0.228 7.63 162.5 8.74
5/29/2022 6:30:00 PM 20.45 68.81 0.227 7.63 136.7 8.71
5/29/2022 6:45:00 PM 20.35 68.63 0.227 7.62 147.6 8.69
5/29/2022 7:00:00 PM 20.27 68.486 0.227 7.62 149.4 8.69
5/29/2022 7:15:00 PM 20.2 68.36 0.227 7.61 152.1 8.67
5/29/2022 7:30:00 PM 20.14 68.252 0.227 7.6 144.4 8.66
5/29/2022 7:45:00 PM 20.07 68.126 0.227 7.61 144 8.65
5/29/2022 8:00:00 PM 20 68 0.226 7.6 152 8.62
5/29/2022 8:15:00 PM 19.94 67.892 0.226 7.58 146.8 8.6
5/29/2022 8:30:00 PM 19.86 67.748 0.226 7.59 147 8.59
5/29/2022 8:45:00 PM 19.78 67.604 0.227 7.59 142.9 8.58
5/29/2022 9:00:00 PM 19.73 67.514 0.227 7.57 147.2 8.56
5/29/2022 9:15:00 PM 19.69 67.442 0.226 7.56 147 8.55
5/29/2022 9:30:00 PM 19.64 67.352 0.226 7.56 145.5 8.54
5/29/2022 9:45:00 PM 19.61 67.298 0.227 7.55 145 8.53
5/29/2022 10:00:00 PM 19.64 67.352 0.227 7.55 146.2 8.51
5/29/2022 10:15:00 PM 19.59 67.262 0.226 7.55 150.5 8.5
5/29/2022 10:30:00 PM 19.59 67.262 0.226 7.55 149.3 8.5
5/29/2022 10:45:00 PM 19.57 67.226 0.226 7.53 154.4 8.5
5/29/2022 11:00:00 PM 19.51 67.118 0.226 7.54 146.4 8.49
5/29/2022 11:15:00 PM 19.5 67.1 0.227 7.53 147.2 8.49
5/29/2022 11:30:00 PM 19.47 67.046 0.227 7.53 148.4 8.5
5/29/2022 11:45:00 PM 19.43 66.974 0.226 7.52 147 8.5
5/30/2022 12:00:00 AM 19.4 66.92 0.225 7.53 146.2 8.5
5/30/2022 12:15:00 AM 19.37 66.866 0.225 7.52 149.5 8.5
5/30/2022 12:30:00 AM 19.33 66.794 0.224 7.52 148.9 8.51
5/30/2022 12:45:00 AM 19.27 66.686 0.225 7.53 149.8 8.53
5/30/2022 1:00:00 AM 19.24 66.632 0.225 7.52 156.8 8.52
5/30/2022 1:15:00 AM 19.23 66.614 0.225 7.52 153.3 8.52
5/30/2022 1:30:00 AM 19.22 66.596 0.224 7.52 159.2 8.52
5/30/2022 1:45:00 AM 19.2 66.56 0.224 7.51 163 8.52
5/30/2022 2:00:00 AM 19.16 66.488 0.224 7.51 165.7 8.54
5/30/2022 2:15:00 AM 19.11 66.398 0.225 7.51 160.1 8.54
5/30/2022 2:30:00 AM 19.07 66.326 0.224 7.51 165.4 8.54
5/30/2022 2:45:00 AM 19.05 66.29 0.224 7.5 163 8.54
5/30/2022 3:00:00 AM 19.03 66.254 0.224 7.51 163.6 8.54
5/30/2022 3:15:00 AM 18.99 66.182 0.222 7.51 158.1 8.55
5/30/2022 3:30:00 AM 18.96 66.128 0.223 7.5 164.3 8.56
5/30/2022 3:45:00 AM 18.9 66.02 0.223 7.5 172.9 8.57
5/30/2022 4:00:00 AM 18.85 65.93 0.224 7.5 172.3 8.57
5/30/2022 4:15:00 AM 18.82 65.876 0.224 7.49 175.8 8.57
5/30/2022 4:30:00 AM 18.81 65.858 0.223 7.49 170.8 8.58
5/30/2022 4:45:00 AM 18.8 65.84 0.223 7.5 168.9 8.58
5/30/2022 5:00:00 AM 18.78 65.804 0.223 7.5 174.8 8.57
5/30/2022 5:15:00 AM 18.75 65.75 0.221 7.48 178.3 8.59
5/30/2022 5:30:00 AM 18.72 65.696 0.222 7.49 167.9 8.59
5/30/2022 5:45:00 AM 18.69 65.642 0.221 7.49 166.8 8.58
5/30/2022 6:00:00 AM 18.65 65.57 0.222 7.48 169.2 8.6
5/30/2022 6:15:00 AM 18.62 65.516 0.222 7.48 168.1 8.6
5/30/2022 6:30:00 AM 18.58 65.444 0.222 7.48 178.4 8.61
5/30/2022 6:45:00 AM 18.59 65.462 0.223 7.48 184.7 8.62
5/30/2022 7:00:00 AM 18.56 65.408 0.223 7.48 170.5 8.63
5/30/2022 7:15:00 AM 18.58 65.444 0.222 7.48 173.7 8.65
5/30/2022 7:30:00 AM 18.64 65.552 0.223 7.49 177.8 8.66
5/30/2022 7:45:00 AM 18.68 65.624 0.222 7.5 168.6 8.67
5/30/2022 8:00:00 AM 18.72 65.696 0.222 7.49 164.1 8.68
5/30/2022 8:15:00 AM 18.83 65.894 0.223 7.48 173.5 8.71
5/30/2022 8:30:00 AM 18.86 65.948 0.221 7.49 165.3 8.73
5/30/2022 8:45:00 AM 18.93 66.074 0.222 7.5 172.7 8.74
5/30/2022 9:00:00 AM 19.07 66.326 0.222 7.49 173.4 8.75
5/30/2022 9:15:00 AM 19.17 66.506 0.222 7.51 165.3 8.76
5/30/2022 9:30:00 AM 19.34 66.812 0.221 7.51 160 8.76
5/30/2022 9:45:00 AM 19.5 67.1 0.222 7.51 164.8 8.78
5/30/2022 10:00:00 AM 19.71 67.478 0.221 7.52 167.5 8.8
5/30/2022 10:15:00 AM 19.84 67.712 0.222 7.53 159.7 8.82
5/30/2022 10:30:00 AM 20.03 68.054 0.222 7.53 153.8 8.82
5/30/2022 10:45:00 AM 20.21 68.378 0.222 7.53 159.6 8.83
5/30/2022 11:00:00 AM 20.33 68.594 0.221 7.54 151.5 8.85
5/30/2022 11:15:00 AM 20.46 68.828 0.222 7.55 150 8.86
5/30/2022 11:30:00 AM 20.59 69.062 0.222 7.56 150.6 8.87
5/30/2022 11:45:00 AM 20.73 69.314 0.221 7.55 151.9 8.88
5/30/2022 12:00:00 PM 20.91 69.638 0.223 7.56 148.8 8.88
5/30/2022 12:15:00 PM 21.02 69.836 0.222 7.56 151 8.89
5/30/2022 12:30:00 PM 21.21 70.17799 0.223 7.56 147.9 8.89
5/30/2022 12:45:00 PM 21.32 70.376 0.222 7.56 146.8 8.89
5/30/2022 1:00:00 PM 21.44 70.592 0.222 7.57 155.3 8.88
5/30/2022 1:15:00 PM 21.56 70.808 0.222 7.57 153.6 8.88
5/30/2022 1:30:00 PM 21.67 71.006 0.221 7.57 151.2 8.86
5/30/2022 1:45:00 PM 21.74 71.132 0.223 7.59 147.2 8.84
5/30/2022 2:00:00 PM 21.79 71.222 0.222 7.58 151.5 8.84
5/30/2022 2:15:00 PM 21.87 71.366 0.223 7.59 141.3 8.86
5/30/2022 2:30:00 PM 21.92 71.456 0.222 7.59 143.9 8.82
5/30/2022 2:45:00 PM 21.99 71.582 0.221 7.58 154.5 8.77
5/30/2022 3:00:00 PM 22.02 71.636 0.221 7.58 141.5 8.8
5/30/2022 3:15:00 PM 22.09 71.762 0.222 7.6 140.6 8.78
5/30/2022 3:30:00 PM 22.09 71.762 0.222 7.59 135.6 8.77
5/30/2022 3:45:00 PM 22.06 71.708 0.222 7.6 136.7 8.74
5/30/2022 4:00:00 PM 22.08 71.744 0.222 7.6 135.6 8.7
5/30/2022 4:15:00 PM 22.02 71.636 0.222 7.61 135.6 8.69
5/30/2022 4:30:00 PM 22.01 71.618 0.222 7.59 138.2 8.66
5/30/2022 4:45:00 PM 21.97 71.546 0.221 7.59 139.9 8.66
5/30/2022 5:00:00 PM 21.92 71.456 0.222 7.6 136.9 8.6
5/30/2022 5:15:00 PM 21.87 71.366 0.222 7.6 135.2 8.61
5/30/2022 5:30:00 PM 21.82 71.276 0.222 7.58 136 8.59
5/30/2022 5:45:00 PM 21.76 71.168 0.221 7.6 134.4 8.57
5/30/2022 6:00:00 PM 21.72 71.096 0.221 7.58 137.2 8.54
5/30/2022 6:15:00 PM 21.63 70.934 0.221 7.59 136.6 8.53
5/30/2022 6:30:00 PM 21.55 70.79 0.222 7.59 133.9 8.52
5/30/2022 6:45:00 PM 21.46 70.628 0.221 7.58 136.1 8.5
5/30/2022 7:00:00 PM 21.35 70.43 0.222 7.58 130.8 8.49
5/30/2022 7:15:00 PM 21.3 70.34 0.222 7.57 133 8.47
5/30/2022 7:30:00 PM 21.21 70.17799 0.22 7.57 131.5 8.45
5/30/2022 7:45:00 PM 21.15 70.07 0.222 7.56 133.4 8.44
5/30/2022 8:00:00 PM 21.05 69.89 0.221 7.56 133.3 8.43
5/30/2022 8:15:00 PM 20.96 69.728 0.22 7.55 135.4 8.42
5/30/2022 8:30:00 PM 20.91 69.638 0.221 7.54 134.9 8.4
5/30/2022 8:45:00 PM 20.85 69.53 0.221 7.53 137.1 8.38
5/30/2022 9:00:00 PM 20.83 69.494 0.221 7.53 139 8.35
5/30/2022 9:15:00 PM 20.77 69.386 0.221 7.53 133.9 8.36
5/30/2022 9:30:00 PM 20.75 69.35 0.221 7.52 134.1 8.34
5/30/2022 9:45:00 PM 20.69 69.242 0.221 7.5 137.7 8.33
5/30/2022 10:00:00 PM 20.66 69.188 0.221 7.51 131.7 8.32
5/30/2022 10:15:00 PM 20.7 69.26 0.221 7.49 130.2 8.31
5/30/2022 10:30:00 PM 20.67 69.206 0.221 7.5 131.2 8.29
5/30/2022 10:45:00 PM 20.59 69.062 0.22 7.49 130.7 8.29
5/30/2022 11:00:00 PM 20.56 69.008 0.219 7.48 134.5 8.3
5/30/2022 11:15:00 PM 20.54 68.972 0.22 7.48 131.9 8.3
5/30/2022 11:30:00 PM 20.52 68.936 0.221 7.49 131.1 8.29
5/30/2022 11:45:00 PM 20.46 68.828 0.22 7.48 134.3 8.29
5/31/2022 12:00:00 AM 20.43 68.774 0.22 7.48 131.6 8.31
5/31/2022 12:15:00 AM 20.42 68.756 0.219 7.47 133.8 8.3
5/31/2022 12:30:00 AM 20.44 68.792 0.219 7.47 133.1 8.28
5/31/2022 12:45:00 AM 20.44 68.792 0.219 7.47 128.8 8.29
5/31/2022 1:00:00 AM 20.41 68.738 0.219 7.47 127.3 8.29
5/31/2022 1:15:00 AM 20.36 68.648 0.219 7.46 129.9 8.3
5/31/2022 1:30:00 AM 20.31 68.558 0.22 7.47 134.4 8.3
5/31/2022 1:45:00 AM 20.24 68.432 0.221 7.46 137.6 8.31
5/31/2022 2:00:00 AM 20.16 68.288 0.22 7.47 127.6 8.32
5/31/2022 2:15:00 AM 20.13 68.234 0.219 7.46 132.8 8.31
5/31/2022 2:30:00 AM 20.13 68.234 0.22 7.46 130 8.32
5/31/2022 2:45:00 AM 20.14 68.252 0.219 7.45 131 8.32
5/31/2022 3:00:00 AM 20.07 68.126 0.219 7.45 129.2 8.33
5/31/2022 3:15:00 AM 20.04 68.07201 0.218 7.45 129.2 8.33
5/31/2022 3:30:00 AM 20.01 68.018 0.219 7.46 132.1 8.33
5/31/2022 3:45:00 AM 19.99 67.982 0.219 7.45 128.2 8.33
5/31/2022 4:00:00 AM 19.98 67.964 0.219 7.45 129.6 8.33
5/31/2022 4:15:00 AM 19.94 67.892 0.219 7.45 133 8.33
5/31/2022 4:30:00 AM 19.89 67.802 0.219 7.45 130.4 8.33
5/31/2022 4:45:00 AM 19.84 67.712 0.218 7.44 128.6 8.35
5/31/2022 5:00:00 AM 19.84 67.712 0.218 7.45 128.7 8.33
5/31/2022 5:15:00 AM 19.8 67.64 0.218 7.44 128.8 8.33
5/31/2022 5:30:00 AM 19.79 67.622 0.217 7.43 128.1 8.34
5/31/2022 5:45:00 AM 19.77 67.586 0.216 7.43 127.2 8.35
5/31/2022 6:00:00 AM 19.73 67.514 0.216 7.43 140.3 8.34
5/31/2022 6:15:00 AM 19.71 67.478 0.218 7.45 137.2 8.35
5/31/2022 6:30:00 AM 19.68 67.424 0.217 7.44 135.6 8.36
5/31/2022 6:45:00 AM 19.65 67.37 0.217 7.45 133.6 8.39
5/31/2022 7:00:00 AM 19.64 67.352 0.216 7.44 142.5 8.4
5/31/2022 7:15:00 AM 19.63 67.334 0.217 7.44 145.3 8.41
5/31/2022 7:30:00 AM 19.63 67.334 0.216 7.44 146 8.44
5/31/2022 7:45:00 AM 19.64 67.352 0.217 7.44 144.4 8.44
5/31/2022 8:00:00 AM 19.69 67.442 0.217 7.45 147.1 8.47
5/31/2022 8:15:00 AM 19.76 67.568 0.217 7.46 146.1 8.48
5/31/2022 8:30:00 AM 19.83 67.694 0.217 7.45 144.1 8.51
5/31/2022 8:45:00 AM 19.9 67.82 0.216 7.45 144.4 8.53
5/31/2022 9:00:00 AM 20.02 68.036 0.217 7.47 138.6 8.54
5/31/2022 9:15:00 AM 20.16 68.288 0.217 7.47 149.6 8.54
5/31/2022 9:30:00 AM 20.32 68.576 0.217 7.48 137.2 8.56
5/31/2022 9:45:00 AM 20.51 68.918 0.217 7.48 141 8.57
5/31/2022 10:00:00 AM 20.71 69.278 0.218 7.49 145.2 8.57
5/31/2022 10:15:00 AM 20.86 69.548 0.216 7.5 146.3 8.58
5/31/2022 10:30:00 AM 20.96 69.728 0.218 7.49 152.1 8.58
5/31/2022 10:45:00 AM 21.17 70.106 0.217 7.52 171.4 8.62
5/31/2022 11:00:00 AM 21.34 70.412 0.218 7.52 182.1 8.62
5/31/2022 11:15:00 AM 21.45 70.61 0.216 7.53 190.9 8.63
5/31/2022 11:30:00 AM 21.62 70.916 0.216 7.52 165.2 8.66
5/31/2022 11:45:00 AM 21.75 71.15 0.216 7.54 454.9 8.67
5/31/2022 12:00:00 PM 21.92 71.456 0.216 7.54 610.3 8.67
5/31/2022 12:15:00 PM 22.07 71.726 0.218 7.55 464 8.67
5/31/2022 12:30:00 PM 22.2 71.96 0.217 7.56 452.9 8.68
5/31/2022 12:45:00 PM 22.36 72.248 0.217 7.56 266.8 8.68
5/31/2022 1:00:00 PM 22.46 72.42799 0.216 7.56 411.6 8.67
5/31/2022 1:15:00 PM 22.57 72.626 0.217 7.57 452 8.68
5/31/2022 1:30:00 PM 22.62 72.716 0.217 7.57 459.6 8.67
5/31/2022 1:45:00 PM 22.67 72.806 0.218 7.58 481.1 8.67
5/31/2022 2:00:00 PM 22.7 72.86 0.218 7.59 449 8.65
5/31/2022 2:15:00 PM 22.74 72.932 0.217 7.6 466.4 8.66
5/31/2022 2:30:00 PM 22.8 73.04 0.217 7.58 435.4 8.64
5/31/2022 2:45:00 PM 22.84 73.112 0.218 7.59 481.2 8.63
5/31/2022 3:00:00 PM 22.79 73.022 0.216 7.59 454.8 8.63
5/31/2022 3:15:00 PM 22.76 72.968 0.216 7.6 469 8.59
5/31/2022 3:30:00 PM 22.8 73.04 0.216 7.58 503.3 8.57
5/31/2022 3:45:00 PM 22.78 73.004 0.218 7.59 495.2 8.55
5/31/2022 4:00:00 PM 22.74 72.932 0.217 7.59 498.7 8.53
5/31/2022 4:15:00 PM 22.66 72.788 0.217 7.59 444.5 8.53
5/31/2022 4:30:00 PM 22.56 72.608 0.216 7.6 474.6 8.51
5/31/2022 4:45:00 PM 22.47 72.446 0.216 7.59 542.9 8.5
5/31/2022 5:00:00 PM 22.46 72.42799 0.217 7.59 534.8 8.5
5/31/2022 5:15:00 PM 22.36 72.248 0.215 7.58 418 8.48
5/31/2022 5:30:00 PM 22.29 72.122 0.217 7.59 609.4 8.45
5/31/2022 5:45:00 PM 22.37 72.266 0.216 7.59 526.4 8.41
5/31/2022 6:00:00 PM 22.32 72.176 0.216 7.58 505.7 8.39
5/31/2022 6:15:00 PM 22.3 72.14 0.218 7.59 429.5 8.38
5/31/2022 6:30:00 PM 22.31 72.158 0.218 7.59 491.1 8.34
5/31/2022 6:45:00 PM 22.26 72.068 0.217 7.58 508.8 8.32
5/31/2022 7:00:00 PM 22.22 71.996 0.218 7.6 565.2 8.29
5/31/2022 7:15:00 PM 22.19 71.942 0.217 7.58 646.4 8.27
5/31/2022 7:30:00 PM 22.07 71.726 0.218 7.57 697.5 8.27
5/31/2022 7:45:00 PM 21.99 71.582 0.215 7.56 638.9 8.26
5/31/2022 8:00:00 PM 21.93 71.474 0.217 7.56 553.4 8.24
5/31/2022 8:15:00 PM 21.87 71.366 0.216 7.56 702.6 8.22
5/31/2022 8:30:00 PM 21.83 71.294 0.217 7.55 476.5 8.19
5/31/2022 8:45:00 PM 21.8 71.24 0.217 7.55 497.2 8.17
5/31/2022 9:00:00 PM 21.71 71.078 0.217 7.55 523.8 8.15
5/31/2022 9:15:00 PM 21.7 71.06 0.218 7.53 506.3 8.14
5/31/2022 9:30:00 PM 21.57 70.826 0.218 7.53 499.8 8.15
5/31/2022 9:45:00 PM 21.64 70.952 0.216 7.51 589.6 8.11
5/31/2022 10:00:00 PM 21.57 70.826 0.217 7.51 549.9 8.12
5/31/2022 10:15:00 PM 21.57 70.826 0.216 7.51 464.9 8.1
5/31/2022 10:30:00 PM 21.52 70.736 0.217 7.51 567.8 8.08
5/31/2022 10:45:00 PM 21.54 70.772 0.216 7.49 790 8.08
5/31/2022 11:00:00 PM 21.52 70.736 0.217 7.48 706.5 8.07
5/31/2022 11:15:00 PM 21.45 70.61 0.216 7.49 485.1 8.08
5/31/2022 11:30:00 PM 21.36 70.448 0.217 7.49 509.3 8.09
5/31/2022 11:45:00 PM 21.32 70.376 0.217 7.48 600.8 8.1
6/1/2022 12:00:00 AM 21.3 70.34 0.218 7.48 566.2 8.1
6/1/2022 12:15:00 AM 21.32 70.376 0.215 7.48 713.9 8.09
6/1/2022 12:30:00 AM 21.3 70.34 0.216 7.49 607 8.09
6/1/2022 12:45:00 AM 21.22 70.196 0.215 7.48 647.3 8.09
6/1/2022 1:00:00 AM 21.2 70.16 0.215 7.48 582.8 8.11
6/1/2022 1:15:00 AM 21.19 70.142 0.214 7.48 738.7 8.11
6/1/2022 1:30:00 AM 21.17 70.106 0.216 7.48 604.8 8.1
6/1/2022 1:45:00 AM 21.15 70.07 0.217 7.47 682.1 8.11
6/1/2022 2:00:00 AM 21.06 69.908 0.215 7.47 671.4 8.12
6/1/2022 2:15:00 AM 21.02 69.836 0.216 7.48 608.3 8.12
6/1/2022 2:30:00 AM 20.99 69.782 0.215 7.46 679.1 8.12
6/1/2022 2:45:00 AM 21 69.8 0.215 7.46 770.9 8.12
6/1/2022 3:00:00 AM 20.95 69.71 0.215 7.47 656.8 8.13
6/1/2022 3:15:00 AM 20.92 69.656 0.215 7.46 684.9 8.13
6/1/2022 3:30:00 AM 20.86 69.548 0.215 7.46 878.1 8.13
6/1/2022 3:45:00 AM 20.84 69.512 0.215 7.47 673.6 8.13
6/1/2022 4:00:00 AM 20.79 69.422 0.214 7.46 566.1 8.14
6/1/2022 4:15:00 AM 20.75 69.35 0.214 7.45 669.9 8.16
6/1/2022 4:30:00 AM 20.75 69.35 0.214 7.46 603.4 8.16
6/1/2022 4:45:00 AM 20.74 69.332 0.214 7.46 588.3 8.15
6/1/2022 5:00:00 AM 20.71 69.278 0.214 7.45 684.8 8.14
6/1/2022 5:15:00 AM 20.67 69.206 0.213 7.45 803.3 8.15
6/1/2022 5:30:00 AM 20.62 69.116 0.213 7.45 734.4 8.15
6/1/2022 5:45:00 AM 20.58 69.044 0.213 7.45 800.2 8.17
6/1/2022 6:00:00 AM 20.55 68.99 0.213 7.45 792.2 8.18
6/1/2022 6:15:00 AM 20.51 68.918 0.214 7.44 839.2 8.19
6/1/2022 6:30:00 AM 20.48 68.864 0.214 7.44 719.4 8.19
6/1/2022 6:45:00 AM 20.45 68.81 0.213 7.45 766.4 8.22
6/1/2022 7:00:00 AM 20.43 68.774 0.213 7.45 845.8 8.23
6/1/2022 7:15:00 AM 20.43 68.774 0.213 7.44 805 8.24
6/1/2022 7:30:00 AM 20.44 68.792 0.212 7.44 830.1 8.26
6/1/2022 7:45:00 AM 20.48 68.864 0.213 7.45 721 8.27
6/1/2022 8:00:00 AM 20.52 68.936 0.212 7.46 855.4 8.28
6/1/2022 8:15:00 AM 20.59 69.062 0.213 7.45 790.7 8.29
6/1/2022 8:30:00 AM 20.67 69.206 0.213 7.46 847 8.32
6/1/2022 8:45:00 AM 20.74 69.332 0.214 7.47 932.9 8.32
6/1/2022 9:00:00 AM 20.84 69.512 0.214 7.46 755.5 8.34
6/1/2022 9:15:00 AM 20.97 69.746 0.212 7.47 683.4 8.36
6/1/2022 9:30:00 AM 21.11 69.998 0.213 7.48 1014 8.37
6/1/2022 9:45:00 AM 21.28 70.304 0.213 7.49 756.9 8.38
6/1/2022 10:00:00 AM 21.42 70.556 0.212 7.49 990.9 8.4
6/1/2022 10:15:00 AM 21.62 70.916 0.212 7.51 782.6 8.39
6/1/2022 10:30:00 AM 21.75 71.15 0.212 7.51 898.3 8.41
6/1/2022 10:45:00 AM 21.93 71.474 0.213 7.51 821.3 8.42
6/1/2022 11:00:00 AM 22.11 71.798 0.213 7.53 941.9 8.43
6/1/2022 11:15:00 AM 22.27 72.086 0.214 7.54 1085 8.44
6/1/2022 11:30:00 AM 22.43 72.374 0.213 7.55 716.6 8.46
6/1/2022 11:45:00 AM 22.57 72.626 0.213 7.55 697.2 8.46
6/1/2022 12:00:00 PM 22.69 72.842 0.211 7.56 742.3 8.47
6/1/2022 12:15:00 PM 22.74 72.932 0.211 7.56 966.4 8.46
6/1/2022 12:30:00 PM 22.77 72.986 0.211 7.57 744.8 8.46
6/1/2022 12:45:00 PM 22.87 73.166 0.212 7.58 924.1 8.48
6/1/2022 1:00:00 PM 22.91 73.238 0.211 7.58 851.7 8.49
6/1/2022 1:15:00 PM 22.97 73.346 0.212 7.59 837.4 8.51
6/1/2022 1:30:00 PM 22.98 73.364 0.212 7.6 786 8.49
6/1/2022 1:45:00 PM 23.02 73.436 0.212 7.6 792.4 8.48
6/1/2022 2:00:00 PM 23.03 73.454 0.212 7.6 902.3 8.47
6/1/2022 2:15:00 PM 23 73.4 0.212 7.59 1146 8.49
6/1/2022 2:30:00 PM 23.03 73.454 0.212 7.61 1025 8.46
6/1/2022 2:45:00 PM 23.04 73.472 0.213 7.61 899.8 8.47
6/1/2022 3:00:00 PM 23.05 73.49 0.211 7.61 662.5 8.43
6/1/2022 3:15:00 PM 23.06 73.508 0.212 7.6 1172 8.39
6/1/2022 3:30:00 PM 23.04 73.472 0.211 7.61 780.6 8.36
6/1/2022 3:45:00 PM 22.9 73.22 0.212 7.61 814.3 8.37
6/1/2022 4:00:00 PM 22.86 73.148 0.211 7.6 793.1 8.35
6/1/2022 4:15:00 PM 22.83 73.094 0.212 7.6 1071 8.37
6/1/2022 4:30:00 PM 22.79 73.022 0.212 7.61 844.6 8.37
6/1/2022 4:45:00 PM 22.75 72.95 0.212 7.6 1051 8.35
6/1/2022 5:00:00 PM 22.83 73.094 0.212 7.6 973.1 8.31
6/1/2022 5:15:00 PM 22.88 73.184 0.211 7.6 1361 8.31
6/1/2022 5:30:00 PM 22.93 73.274 0.211 7.6 1072 8.28
6/1/2022 5:45:00 PM 22.92 73.256 0.212 7.6 964.4 8.25
6/1/2022 6:00:00 PM 22.91 73.238 0.213 7.6 927.3 8.22
6/1/2022 6:15:00 PM 22.89 73.202 0.212 7.6 917.2 8.21
6/1/2022 6:30:00 PM 22.87 73.166 0.213 7.6 1015 8.19
6/1/2022 6:45:00 PM 22.79 73.022 0.212 7.6 1115 8.18
6/1/2022 7:00:00 PM 22.7 72.86 0.211 7.59 1085 8.16
6/1/2022 7:15:00 PM 22.68 72.824 0.212 7.58 927.2 8.12
6/1/2022 7:30:00 PM 22.65 72.77 0.21 7.58 682.1 8.1
6/1/2022 7:45:00 PM 22.52 72.536 0.21 7.59 903.3 8.09
6/1/2022 8:00:00 PM 22.46 72.42799 0.21 7.58 1091 8.08
6/1/2022 8:15:00 PM 22.31 72.158 0.211 7.57 976.4 8.07
6/1/2022 8:30:00 PM 22.19 71.942 0.211 7.56 1217 8.06
6/1/2022 8:45:00 PM 22.15 71.87 0.211 7.56 778.1 8.05
6/1/2022 9:00:00 PM 22.08 71.744 0.212 7.56 963.4 8.03
6/1/2022 9:15:00 PM 22.09 71.762 0.212 7.55 1126 8.01
6/1/2022 9:30:00 PM 22.02 71.636 0.21 7.54 1032 7.99
6/1/2022 9:45:00 PM 22.02 71.636 0.21 7.53 1012 8
6/1/2022 10:00:00 PM 22.03 71.654 0.212 7.52 1046 7.98
6/1/2022 10:15:00 PM 21.96 71.528 0.211 7.5 1036 7.97
6/1/2022 10:30:00 PM 21.9 71.42 0.211 7.5 724.6 7.97
6/1/2022 10:45:00 PM 21.85 71.33 0.211 7.5 1087 7.97
6/1/2022 11:00:00 PM 21.84 71.312 0.21 7.48 1159 7.97
6/1/2022 11:15:00 PM 21.75 71.15 0.21 7.49 1142 7.98
6/1/2022 11:30:00 PM 21.76 71.168 0.21 7.49 1095 7.96
6/1/2022 11:45:00 PM 21.71 71.078 0.21 7.48 885 7.97
6/2/2022 12:00:00 AM 21.75 71.15 0.21 7.48 908.9 7.96
6/2/2022 12:15:00 AM 21.74 71.132 0.209 7.48 834.8 7.96
6/2/2022 12:30:00 AM 21.82 71.276 0.21 7.47 1045 7.95
6/2/2022 12:45:00 AM 21.78 71.204 0.209 7.48 999.4 7.95
6/2/2022 1:00:00 AM 21.86 71.348 0.209 7.48 1043 7.93
6/2/2022 1:15:00 AM 21.84 71.312 0.208 7.48 974.5 7.94
6/2/2022 1:30:00 AM 21.82 71.276 0.209 7.48 1156 7.94
6/2/2022 1:45:00 AM 21.72 71.096 0.21 7.49 915.2 7.95
6/2/2022 2:00:00 AM 21.64 70.952 0.209 7.49 871.9 7.96
6/2/2022 2:15:00 AM 21.65 70.97 0.21 7.5 804.9 7.96
6/2/2022 2:30:00 AM 21.62 70.916 0.209 7.5 1018 7.97
6/2/2022 2:45:00 AM 21.6 70.88 0.21 7.5 804.9 7.96
6/2/2022 3:00:00 AM 21.57 70.826 0.21 7.5 956.9 7.96
6/2/2022 3:15:00 AM 21.55 70.79 0.21 7.51 826 7.96
6/2/2022 3:30:00 AM 21.5 70.7 0.208 7.51 954.3 7.98
6/2/2022 3:45:00 AM 21.51 70.718 0.209 7.5 917.5 7.97
6/2/2022 4:00:00 AM 21.5 70.7 0.21 7.5 962.1 7.96
6/2/2022 4:15:00 AM 21.5 70.7 0.21 7.5 1195 7.97
6/2/2022 4:30:00 AM 21.44 70.592 0.209 7.49 1180 7.98
6/2/2022 4:45:00 AM 21.4 70.52 0.209 7.5 823.8 7.99
6/2/2022 5:00:00 AM 21.38 70.484 0.21 7.49 1105 7.98
6/2/2022 5:15:00 AM 21.34 70.412 0.209 7.5 1085 8
6/2/2022 5:30:00 AM 21.32 70.376 0.21 7.49 876.8 8
6/2/2022 5:45:00 AM 21.33 70.394 0.209 7.49 1028 7.98
6/2/2022 6:00:00 AM 21.32 70.376 0.208 7.49 1120 7.98
6/2/2022 6:15:00 AM 21.31 70.358 0.209 7.49 1206 8
6/2/2022 6:30:00 AM 21.31 70.358 0.208 7.49 1092 7.99
6/2/2022 6:45:00 AM 21.29 70.32201 0.209 7.49 1160 7.99
6/2/2022 7:00:00 AM 21.29 70.32201 0.208 7.49 1132 8.01
6/2/2022 7:15:00 AM 21.3 70.34 0.207 7.49 894.1 8.02
6/2/2022 7:30:00 AM 21.31 70.358 0.208 7.5 913.6 8.02
6/2/2022 7:45:00 AM 21.31 70.358 0.208 7.5 978.7 8.05
6/2/2022 8:00:00 AM 21.32 70.376 0.208 7.51 1170 8.08
6/2/2022 8:15:00 AM 21.35 70.43 0.207 7.51 1017 8.09
6/2/2022 8:30:00 AM 21.39 70.502 0.206 7.5 1090 8.11
6/2/2022 8:45:00 AM 21.45 70.61 0.207 7.51 1121 8.12
6/2/2022 9:00:00 AM 21.52 70.736 0.208 7.51 1030 8.14
6/2/2022 9:15:00 AM 21.57 70.826 0.207 7.52 1029 8.14
6/2/2022 9:30:00 AM 21.69 71.042 0.207 7.52 1051 8.17
6/2/2022 9:45:00 AM 21.77 71.186 0.206 7.51 948.6 8.2
6/2/2022 10:00:00 AM 21.88 71.384 0.207 7.51 1035 8.23
6/2/2022 10:15:00 AM 22.03 71.654 0.206 7.52 975.5 8.25
6/2/2022 10:30:00 AM 22.17 71.906 0.207 7.53 1090 8.24
6/2/2022 10:45:00 AM 22.3 72.14 0.206 7.53 1038 8.25
6/2/2022 11:00:00 AM 22.43 72.374 0.207 7.53 1061 8.26
6/2/2022 11:15:00 AM 22.56 72.608 0.206 7.53 1033 8.28
6/2/2022 11:30:00 AM 22.65 72.77 0.208 7.55 1124 8.29
6/2/2022 11:45:00 AM 22.63 72.734 0.206 7.54 979.5 8.28
6/2/2022 12:00:00 PM 22.71 72.878 0.207 7.55 1067 8.31
6/2/2022 12:15:00 PM 22.83 73.094 0.207 7.56 724.4 8.33
6/2/2022 12:30:00 PM 22.87 73.166 0.207 7.55 878.2 8.31
6/2/2022 12:45:00 PM 22.92 73.256 0.207 7.58 759.2 8.3
6/2/2022 1:00:00 PM 22.99 73.382 0.207 7.56 1173 8.29
6/2/2022 1:15:00 PM 22.96 73.328 0.207 7.58 1104 8.31
6/2/2022 1:30:00 PM 22.92 73.256 0.207 7.58 922.4 8.33
6/2/2022 1:45:00 PM 22.89 73.202 0.207 7.58 843.6 8.3
6/2/2022 2:00:00 PM 22.87 73.166 0.207 7.57 1023 8.29
6/2/2022 2:15:00 PM 22.87 73.166 0.208 7.59 981.7 8.29
6/2/2022 2:30:00 PM 22.86 73.148 0.208 7.59 1102 8.33
6/2/2022 2:45:00 PM 22.83 73.094 0.207 7.59 887.4 8.34
6/2/2022 3:00:00 PM 22.77 72.986 0.207 7.59 1009 8.31
6/2/2022 3:15:00 PM 22.77 72.986 0.207 7.59 897.9 8.29
6/2/2022 3:30:00 PM 22.74 72.932 0.207 7.58 973.4 8.28
6/2/2022 3:45:00 PM 22.73 72.914 0.207 7.58 1231 8.28
6/2/2022 4:00:00 PM 22.77 72.986 0.206 7.57 1039 8.28
6/2/2022 4:15:00 PM 22.76 72.968 0.208 7.58 817.7 8.28
6/2/2022 4:30:00 PM 22.77 72.986 0.208 7.58 919.2 8.26
6/2/2022 4:45:00 PM 22.79 73.022 0.207 7.59 886.1 8.27
6/2/2022 5:00:00 PM 22.75 72.95 0.207 7.58 1263 8.25
6/2/2022 5:15:00 PM 22.66 72.788 0.207 7.59 926.1 8.22
6/2/2022 5:30:00 PM 22.61 72.698 0.206 7.59 752 8.19
6/2/2022 5:45:00 PM 22.5 72.5 0.206 7.58 959.8 8.15
6/2/2022 6:00:00 PM 22.36 72.248 0.205 7.56 1209 8.13
6/2/2022 6:15:00 PM 22.21 71.978 0.204 7.56 1202 8.11
6/2/2022 6:30:00 PM 22.08 71.744 0.206 7.56 742.8 8.12
6/2/2022 6:45:00 PM 21.97 71.546 0.205 7.54 1008 8.12
6/2/2022 7:00:00 PM 21.88 71.384 0.205 7.55 707.1 8.11
6/2/2022 7:15:00 PM 21.86 71.348 0.205 7.55 761.4 8.08
6/2/2022 7:30:00 PM 21.84 71.312 0.204 7.53 912.3 8.07
6/2/2022 7:45:00 PM 21.88 71.384 0.205 7.53 938.6 8.04
6/2/2022 8:00:00 PM 21.83 71.294 0.206 7.52 1016 8.04
6/2/2022 8:15:00 PM 21.76 71.168 0.205 7.52 1045 8.04
6/2/2022 8:30:00 PM 21.67 71.006 0.205 7.52 837.9 8.05
6/2/2022 8:45:00 PM 21.59 70.862 0.206 7.51 1090 8.05
6/2/2022 9:00:00 PM 21.58 70.844 0.206 7.51 1011 8.04
6/2/2022 9:15:00 PM 21.49 70.682 0.208 7.51 1081 8.04
6/2/2022 9:30:00 PM 21.46 70.628 0.208 7.51 800 8.04
6/2/2022 9:45:00 PM 21.48 70.664 0.207 7.51 822.8 8.03
6/2/2022 10:00:00 PM 21.48 70.664 0.206 7.51 939.1 8
6/2/2022 10:15:00 PM 21.54 70.772 0.207 7.5 1136 7.99
6/2/2022 10:30:00 PM 21.6 70.88 0.207 7.5 1063 7.97
6/2/2022 10:45:00 PM 21.68 71.024 0.205 7.48 1064 7.96
6/2/2022 11:00:00 PM 21.73 71.114 0.206 7.5 1079 7.95
6/2/2022 11:15:00 PM 21.78 71.204 0.206 7.49 977.6 7.93
6/2/2022 11:30:00 PM 21.82 71.276 0.206 7.5 973.2 7.92
6/2/2022 11:45:00 PM 21.85 71.33 0.207 7.49 1052 7.92
6/3/2022 12:00:00 AM 21.81 71.258 0.207 7.49 1471 7.91
6/3/2022 12:15:00 AM 21.78 71.204 0.206 7.49 942 7.91
6/3/2022 12:30:00 AM 21.78 71.204 0.206 7.49 715.6 7.91
6/3/2022 12:45:00 AM 21.79 71.222 0.205 7.48 892.6 7.9
6/3/2022 1:00:00 AM 21.78 71.204 0.206 7.49 745.8 7.89
6/3/2022 1:15:00 AM 21.75 71.15 0.206 7.48 981.7 7.9
6/3/2022 1:30:00 AM 21.69 71.042 0.206 7.48 963.9 7.9
6/3/2022 1:45:00 AM 21.62 70.916 0.206 7.48 891.4 7.91
6/3/2022 2:00:00 AM 21.56 70.808 0.206 7.48 916 7.93
6/3/2022 2:15:00 AM 21.51 70.718 0.206 7.47 1106 7.91
6/3/2022 2:30:00 AM 21.47 70.646 0.207 7.47 998.6 7.94
6/3/2022 2:45:00 AM 21.44 70.592 0.206 7.48 771.5 7.95
6/3/2022 3:00:00 AM 21.41 70.538 0.206 7.47 882 7.96
6/3/2022 3:15:00 AM 21.37 70.466 0.205 7.46 893.4 7.96
6/3/2022 3:30:00 AM 21.32 70.376 0.206 7.46 809.7 7.96
6/3/2022 3:45:00 AM 21.29 70.32201 0.205 7.46 993.9 7.97
6/3/2022 4:00:00 AM 21.23 70.214 0.205 7.46 953.6 7.98
6/3/2022 4:15:00 AM 21.22 70.196 0.205 7.46 893.4 7.99
6/3/2022 4:30:00 AM 21.19 70.142 0.206 7.45 1125 7.99
6/3/2022 4:45:00 AM 21.16 70.088 0.206 7.45 841.6 7.99
6/3/2022 5:00:00 AM 21.13 70.034 0.205 7.46 1059 7.98
6/3/2022 5:15:00 AM 21.1 69.98 0.206 7.45 1051 7.98
6/3/2022 5:30:00 AM 21.09 69.962 0.204 7.45 729.4 7.99
6/3/2022 5:45:00 AM 21.08 69.944 0.204 7.47 989.4 8.01
6/3/2022 6:00:00 AM 21.06 69.908 0.204 7.46 1018 8
6/3/2022 6:15:00 AM 21.04 69.872 0.204 7.46 1080 8.01
6/3/2022 6:30:00 AM 20.99 69.782 0.205 7.46 930.7 8.01
6/3/2022 6:45:00 AM 21 69.8 0.205 7.46 968.6 8.03
6/3/2022 7:00:00 AM 20.95 69.71 0.205 7.46 1098 8.05
6/3/2022 7:15:00 AM 20.88 69.584 0.204 7.46 1154 8.08
6/3/2022 7:30:00 AM 20.86 69.548 0.204 7.47 927.3 8.1
6/3/2022 7:45:00 AM 20.81 69.458 0.204 7.47 1203 8.13
6/3/2022 8:00:00 AM 20.78 69.404 0.204 7.49 762.9 8.15
6/3/2022 8:15:00 AM 20.75 69.35 0.204 7.48 938.7 8.18
6/3/2022 8:30:00 AM 20.74 69.332 0.204 7.49 706.2 8.2
6/3/2022 8:45:00 AM 20.75 69.35 0.204 7.48 930.4 8.23
6/3/2022 9:00:00 AM 20.76 69.368 0.204 7.48 1041 8.25
6/3/2022 9:15:00 AM 20.77 69.386 0.204 7.49 1091 8.29
6/3/2022 9:30:00 AM 20.92 69.656 0.204 7.51 849.8 8.3
6/3/2022 9:45:00 AM 21.03 69.854 0.204 7.5 899 8.31
6/3/2022 10:00:00 AM 21.15 70.07 0.203 7.51 961.8 8.33
6/3/2022 10:15:00 AM 21.23 70.214 0.203 7.51 794.7 8.34
6/3/2022 10:30:00 AM 21.36 70.448 0.203 7.51 1127 8.36
6/3/2022 10:45:00 AM 21.45 70.61 0.204 7.51 1143 8.38
6/3/2022 11:00:00 AM 21.56 70.808 0.204 7.51 1013 8.39
6/3/2022 11:15:00 AM 21.57 70.826 0.204 7.52 1159 8.44
6/3/2022 11:30:00 AM 21.62 70.916 0.203 7.53 958.3 8.48
6/3/2022 11:45:00 AM 21.69 71.042 0.203 7.54 1084 8.5
6/3/2022 12:00:00 PM 21.78 71.204 0.203 7.53 1270 8.52
6/3/2022 12:15:00 PM 21.88 71.384 0.203 7.54 1109 8.51
6/3/2022 12:30:00 PM 22.03 71.654 0.203 7.56 1073 8.52
6/3/2022 12:45:00 PM 22.15 71.87 0.203 7.56 1095 8.52
6/3/2022 1:00:00 PM 22.18 71.924 0.202 7.56 905.7 8.54
6/3/2022 1:15:00 PM 22.25 72.05 0.203 7.57 1042 8.54
6/3/2022 1:30:00 PM 22.24 72.032 0.204 7.57 970.5 8.55
6/3/2022 1:45:00 PM 22.24 72.032 0.204 7.58 965.6 8.55
6/3/2022 2:00:00 PM 22.33 72.194 0.204 7.57 1259 8.56
6/3/2022 2:15:00 PM 22.35 72.23 0.203 7.57 1155 8.56
6/3/2022 2:30:00 PM 22.41 72.338 0.203 7.58 854.4 8.54
6/3/2022 2:45:00 PM 22.43 72.374 0.203 7.58 1148 8.53
6/3/2022 3:00:00 PM 22.55 72.59 0.203 7.57 973.3 8.5
6/3/2022 3:15:00 PM 22.58 72.644 0.203 7.58 1191 8.5
6/3/2022 3:30:00 PM 22.59 72.662 0.203 7.59 967.1 8.46
6/3/2022 3:45:00 PM 22.61 72.698 0.203 7.59 988.4 8.46
6/3/2022 4:00:00 PM 22.6 72.68 0.203 7.59 912.1 8.44
6/3/2022 4:15:00 PM 22.53 72.554 0.204 7.58 1187 8.45
6/3/2022 4:30:00 PM 22.49 72.482 0.204 7.59 1009 8.42
6/3/2022 4:45:00 PM 22.39 72.302 0.204 7.58 1127 8.42
6/3/2022 5:00:00 PM 22.29 72.122 0.203 7.59 991.8 8.43
6/3/2022 5:15:00 PM 22.23 72.014 0.204 7.6 932.7 8.42
6/3/2022 5:30:00 PM 22.18 71.924 0.204 7.59 1150 8.39
6/3/2022 5:45:00 PM 22.13 71.834 0.204 7.58 1063 8.4
6/3/2022 6:00:00 PM 22.03 71.654 0.203 7.58 1013 8.38
6/3/2022 6:15:00 PM 21.96 71.528 0.204 7.58 1077 8.37
6/3/2022 6:30:00 PM 21.93 71.474 0.205 7.58 1153 8.35
6/3/2022 6:45:00 PM 21.93 71.474 0.205 7.57 1156 8.32
6/3/2022 7:00:00 PM 21.94 71.492 0.204 7.57 1168 8.29
6/3/2022 7:15:00 PM 21.91 71.438 0.204 7.56 941.6 8.26
6/3/2022 7:30:00 PM 21.86 71.348 0.203 7.55 1195 8.25
6/3/2022 7:45:00 PM 21.82 71.276 0.203 7.56 1179 8.24
6/3/2022 8:00:00 PM 21.8 71.24 0.203 7.55 1313 8.21
6/3/2022 8:15:00 PM 21.74 71.132 0.203 7.56 1136 8.18
6/3/2022 8:30:00 PM 21.66 70.988 0.203 7.54 1452 8.17
6/3/2022 8:45:00 PM 21.58 70.844 0.202 7.53 1113 8.17
6/3/2022 9:00:00 PM 21.49 70.682 0.203 7.53 1248 8.15
6/3/2022 9:15:00 PM 21.43 70.574 0.204 7.53 855.7 8.13
6/3/2022 9:30:00 PM 21.38 70.484 0.204 7.53 1037 8.12
6/3/2022 9:45:00 PM 21.35 70.43 0.203 7.52 1225 8.12
6/3/2022 10:00:00 PM 21.34 70.412 0.203 7.52 995.5 8.11
6/3/2022 10:15:00 PM 21.33 70.394 0.203 7.51 1227 8.1
6/3/2022 10:30:00 PM 21.33 70.394 0.203 7.52 1227 8.07
6/3/2022 10:45:00 PM 21.33 70.394 0.202 7.51 1211 8.07
6/3/2022 11:00:00 PM 21.3 70.34 0.202 7.5 1285 8.07
6/3/2022 11:15:00 PM 21.24 70.232 0.203 7.5 1188 8.07
6/3/2022 11:30:00 PM 21.19 70.142 0.203 7.5 1153 8.07
6/3/2022 11:45:00 PM 21.14 70.052 0.202 7.5 1182 8.08
6/4/2022 12:00:00 AM 21.09 69.962 0.203 7.51 1261 8.08
6/4/2022 12:15:00 AM 21.08 69.944 0.202 7.5 1196 8.08
6/4/2022 12:30:00 AM 21.07 69.926 0.202 7.5 1146 8.07
6/4/2022 12:45:00 AM 21.07 69.926 0.202 7.51 1059 8.08
6/4/2022 1:00:00 AM 21.03 69.854 0.202 7.5 1116 8.09
6/4/2022 1:15:00 AM 20.96 69.728 0.202 7.5 1076 8.09
6/4/2022 1:30:00 AM 20.89 69.602 0.202 7.48 1213 8.1
6/4/2022 1:45:00 AM 20.82 69.476 0.203 7.49 1004 8.11
6/4/2022 2:00:00 AM 20.77 69.386 0.202 7.49 1149 8.12
6/4/2022 2:15:00 AM 20.71 69.278 0.202 7.49 1104 8.13
6/4/2022 2:30:00 AM 20.72 69.296 0.202 7.48 1177 8.13
6/4/2022 2:45:00 AM 20.69 69.242 0.202 7.48 921.5 8.14
6/4/2022 3:00:00 AM 20.63 69.134 0.202 7.49 1143 8.13
6/4/2022 3:15:00 AM 20.63 69.134 0.202 7.48 1239 8.15
6/4/2022 3:30:00 AM 20.6 69.08 0.201 7.48 1190 8.15
6/4/2022 3:45:00 AM 20.54 68.972 0.202 7.49 1143 8.14
6/4/2022 4:00:00 AM 20.51 68.918 0.202 7.48 1125 8.16
6/4/2022 4:15:00 AM 20.46 68.828 0.202 7.48 1189 8.17
6/4/2022 4:30:00 AM 20.34 68.612 0.202 7.48 1260 8.18
6/4/2022 4:45:00 AM 20.31 68.558 0.202 7.48 1102 8.18
6/4/2022 5:00:00 AM 20.3 68.54 0.202 7.48 1067 8.19
6/4/2022 5:15:00 AM 20.22 68.396 0.201 7.47 1051 8.19
6/4/2022 5:30:00 AM 20.16 68.288 0.201 7.48 1152 8.21
6/4/2022 5:45:00 AM 20.2 68.36 0.201 7.48 1043 8.22
6/4/2022 6:00:00 AM 20.09 68.162 0.202 7.49 1095 8.21
6/4/2022 6:15:00 AM 20.03 68.054 0.201 7.48 1073 8.24
6/4/2022 6:30:00 AM 20.04 68.07201 0.202 7.47 1081 8.24
6/4/2022 6:45:00 AM 19.91 67.838 0.202 7.47 1198 8.26
6/4/2022 7:00:00 AM 19.9 67.82 0.202 7.48 1178 8.29
6/4/2022 7:15:00 AM 19.88 67.784 0.201 7.47 1100 8.3
6/4/2022 7:30:00 AM 19.95 67.91 0.202 7.48 1121 8.31
6/4/2022 7:45:00 AM 20.03 68.054 0.202 7.48 1232 8.32
6/4/2022 8:00:00 AM 20.02 68.036 0.201 7.48 1180 8.34
6/4/2022 8:15:00 AM 20.13 68.234 0.201 7.49 1141 8.35
6/4/2022 8:30:00 AM 20.22 68.396 0.201 7.48 1153 8.37
6/4/2022 8:45:00 AM 20.27 68.486 0.201 7.49 1258 8.39
6/4/2022 9:00:00 AM 20.4 68.72 0.201 7.5 1166 8.4
6/4/2022 9:15:00 AM 20.54 68.972 0.201 7.5 1119 8.42
6/4/2022 9:30:00 AM 20.69 69.242 0.2 7.5 1163 8.43
6/4/2022 9:45:00 AM 20.87 69.566 0.2 7.5 1244 8.43
6/4/2022 10:00:00 AM 21.06 69.908 0.201 7.5 1213 8.44
6/4/2022 10:15:00 AM 21.28 70.304 0.2 7.52 1183 8.44
6/4/2022 10:30:00 AM 21.38 70.484 0.201 7.52 1278 8.46
6/4/2022 10:45:00 AM 21.52 70.736 0.201 7.53 1468 8.47
6/4/2022 11:00:00 AM 21.78 71.204 0.201 7.54 1264 8.47
6/4/2022 11:15:00 AM 21.82 71.276 0.201 7.53 1308 8.49
6/4/2022 11:30:00 AM 21.93 71.474 0.201 7.53 1051 8.52
6/4/2022 11:45:00 AM 22.19 71.942 0.201 7.55 1360 8.53
6/4/2022 12:00:00 PM 22.15 71.87 0.201 7.57 1222 8.55
6/4/2022 12:15:00 PM 22.33 72.194 0.201 7.56 1255 8.55
6/4/2022 12:30:00 PM 22.55 72.59 0.201 7.58 1291 8.54
6/4/2022 12:45:00 PM 22.59 72.662 0.2 7.57 1157 8.57
6/4/2022 1:00:00 PM 22.77 72.986 0.2 7.58 1113 8.56
6/4/2022 1:15:00 PM 22.69 72.842 0.201 7.58 1320 8.58
6/4/2022 1:30:00 PM 22.8 73.04 0.201 7.59 1197 8.58
6/4/2022 1:45:00 PM 22.89 73.202 0.202 7.59 1150 8.57
6/4/2022 2:00:00 PM 22.95 73.31 0.201 7.6 999.3 8.57
6/4/2022 2:15:00 PM 23.03 73.454 0.201 7.6 1011 8.54
6/4/2022 2:30:00 PM 22.91 73.238 0.201 7.59 1217 8.53
6/4/2022 2:45:00 PM 23.02 73.436 0.2 7.6 1233 8.51
6/4/2022 3:00:00 PM 23.06 73.508 0.201 7.59 1151 8.47
6/4/2022 3:15:00 PM 22.97 73.346 0.2 7.58 1407 8.46
6/4/2022 3:30:00 PM 23.01 73.418 0.2 7.59 1135 8.46
6/4/2022 3:45:00 PM 22.98 73.364 0.2 7.59 1183 8.43
6/4/2022 4:00:00 PM 22.92 73.256 0.201 7.59 1106 8.43
6/4/2022 4:15:00 PM 22.9 73.22 0.201 7.58 1129 8.4
6/4/2022 4:30:00 PM 22.84 73.112 0.201 7.59 994.5 8.4
6/4/2022 4:45:00 PM 22.73 72.914 0.201 7.58 1073 8.39
6/4/2022 5:00:00 PM 22.57 72.626 0.201 7.58 1209 8.39
6/4/2022 5:15:00 PM 22.48 72.464 0.201 7.59 1228 8.38
6/4/2022 5:30:00 PM 22.38 72.284 0.201 7.57 1106 8.36
6/4/2022 5:45:00 PM 22.37 72.266 0.202 7.57 970 8.33
6/4/2022 6:00:00 PM 22.35 72.23 0.202 7.57 1062 8.31
6/4/2022 6:15:00 PM 22.29 72.122 0.202 7.57 1101 8.29
6/4/2022 6:30:00 PM 22.24 72.032 0.202 7.56 1061 8.27
6/4/2022 6:45:00 PM 22.18 71.924 0.202 7.54 1174 8.25
6/4/2022 7:00:00 PM 22.1 71.78 0.202 7.54 1207 8.25
6/4/2022 7:15:00 PM 22 71.6 0.202 7.55 1067 8.22
6/4/2022 7:30:00 PM 21.92 71.456 0.202 7.53 1248 8.21
6/4/2022 7:45:00 PM 21.87 71.366 0.201 7.54 1068 8.2
6/4/2022 8:00:00 PM 21.83 71.294 0.202 7.53 1107 8.17
6/4/2022 8:15:00 PM 21.71 71.078 0.202 7.54 1144 8.17
6/4/2022 8:30:00 PM 21.63 70.934 0.201 7.53 1127 8.16
6/4/2022 8:45:00 PM 21.51 70.718 0.201 7.53 1060 8.16
6/4/2022 9:00:00 PM 21.46 70.628 0.202 7.52 1117 8.14
6/4/2022 9:15:00 PM 21.43 70.574 0.202 7.51 933.8 8.13
6/4/2022 9:30:00 PM 21.43 70.574 0.202 7.52 1135 8.11
6/4/2022 9:45:00 PM 21.4 70.52 0.202 7.51 1035 8.1
6/4/2022 10:00:00 PM 21.35 70.43 0.202 7.51 1282 8.1
6/4/2022 10:15:00 PM 21.3 70.34 0.201 7.5 1060 8.1
6/4/2022 10:30:00 PM 21.25 70.25 0.2 7.5 1049 8.1
6/4/2022 10:45:00 PM 21.18 70.124 0.201 7.51 1107 8.09
6/4/2022 11:00:00 PM 21.14 70.052 0.2 7.49 1092 8.1
6/4/2022 11:15:00 PM 21.09 69.962 0.201 7.5 997.7 8.1
6/4/2022 11:30:00 PM 21.05 69.89 0.202 7.49 1051 8.1
6/4/2022 11:45:00 PM 21.01 69.818 0.201 7.49 1018 8.1
6/5/2022 12:00:00 AM 20.99 69.782 0.201 7.5 962.1 8.1
6/5/2022 12:15:00 AM 20.97 69.746 0.201 7.5 1021 8.1
6/5/2022 12:30:00 AM 20.95 69.71 0.201 7.5 1003 8.09
6/5/2022 12:45:00 AM 20.95 69.71 0.2 7.5 1006 8.1
6/5/2022 1:00:00 AM 20.92 69.656 0.2 7.5 1072 8.1
6/5/2022 1:15:00 AM 20.85 69.53 0.2 7.49 1072 8.11
6/5/2022 1:30:00 AM 20.87 69.566 0.2 7.49 1074 8.09
6/5/2022 1:45:00 AM 20.8 69.44 0.2 7.49 1018 8.12
6/5/2022 2:00:00 AM 20.76 69.368 0.2 7.49 1109 8.13
6/5/2022 2:15:00 AM 20.7 69.26 0.2 7.49 1138 8.13
6/5/2022 2:30:00 AM 20.67 69.206 0.2 7.49 1160 8.14
6/5/2022 2:45:00 AM 20.6 69.08 0.201 7.49 1380 8.14
6/5/2022 3:00:00 AM 20.62 69.116 0.2 7.49 1148 8.14
6/5/2022 3:15:00 AM 20.51 68.918 0.2 7.49 1143 8.16
6/5/2022 3:30:00 AM 20.5 68.9 0.2 7.49 1055 8.17
6/5/2022 3:45:00 AM 20.48 68.864 0.2 7.49 1170 8.17
6/5/2022 4:00:00 AM 20.39 68.702 0.2 7.48 1046 8.18
6/5/2022 4:15:00 AM 20.35 68.63 0.201 7.47 1108 8.19
6/5/2022 4:30:00 AM 20.28 68.504 0.2 7.47 1170 8.2
6/5/2022 4:45:00 AM 20.22 68.396 0.199 7.48 1126 8.21
6/5/2022 5:00:00 AM 20.16 68.288 0.199 7.48 947.5 8.23
6/5/2022 5:15:00 AM 20.15 68.27 0.199 7.48 1222 8.23
6/5/2022 5:30:00 AM 20.14 68.252 0.199 7.48 932.2 8.24
6/5/2022 5:45:00 AM 20.08 68.144 0.199 7.49 979.9 8.24
6/5/2022 6:00:00 AM 20.01 68.018 0.198 7.48 1078 8.26
6/5/2022 6:15:00 AM 19.93 67.874 0.198 7.47 1069 8.27
6/5/2022 6:30:00 AM 19.83 67.694 0.199 7.48 1112 8.29
6/5/2022 6:45:00 AM 19.85 67.73 0.199 7.49 1095 8.3
6/5/2022 7:00:00 AM 19.84 67.712 0.199 7.49 934.4 8.31
6/5/2022 7:15:00 AM 19.76 67.568 0.199 7.49 1199 8.35
6/5/2022 7:30:00 AM 19.8 67.64 0.199 7.48 946.7 8.34
6/5/2022 7:45:00 AM 19.79 67.622 0.199 7.49 1153 8.37
6/5/2022 8:00:00 AM 19.83 67.694 0.199 7.5 1252 8.39
6/5/2022 8:15:00 AM 19.91 67.838 0.198 7.5 974.9 8.41
6/5/2022 8:30:00 AM 19.93 67.874 0.198 7.49 1222 8.43
6/5/2022 8:45:00 AM 20.07 68.126 0.199 7.5 903.1 8.45
6/5/2022 9:00:00 AM 20.05 68.09 0.199 7.51 1229 8.48
6/5/2022 9:15:00 AM 20.23 68.414 0.199 7.51 1067 8.51
6/5/2022 9:30:00 AM 20.35 68.63 0.198 7.52 1237 8.53
6/5/2022 9:45:00 AM 20.56 69.008 0.198 7.52 972.5 8.52
6/5/2022 10:00:00 AM 20.59 69.062 0.198 7.53 1540 8.57
6/5/2022 10:15:00 AM 20.8 69.44 0.198 7.53 1132 8.57
6/5/2022 10:30:00 AM 21.08 69.944 0.197 7.54 1088 8.55
6/5/2022 10:45:00 AM 21.16 70.088 0.198 7.54 1069 8.57
6/5/2022 11:00:00 AM 21.35 70.43 0.198 7.55 1060 8.59
6/5/2022 11:15:00 AM 21.57 70.826 0.198 7.56 815.8 8.6
6/5/2022 11:30:00 AM 21.64 70.952 0.198 7.56 1444 8.63
6/5/2022 11:45:00 AM 21.79 71.222 0.198 7.56 1050 8.64
6/5/2022 12:00:00 PM 21.94 71.492 0.198 7.57 906.9 8.65
6/5/2022 12:15:00 PM 22.17 71.906 0.198 7.58 1104 8.64
6/5/2022 12:30:00 PM 22.3 72.14 0.198 7.59 1147 8.65
6/5/2022 12:45:00 PM 22.48 72.464 0.198 7.58 898.9 8.64
6/5/2022 1:00:00 PM 22.77 72.986 0.198 7.59 1098 8.62
6/5/2022 1:15:00 PM 22.71 72.878 0.198 7.6 1081 8.63
6/5/2022 1:30:00 PM 22.85 73.13 0.198 7.6 865 8.62
6/5/2022 1:45:00 PM 22.82 73.076 0.199 7.61 1000 8.62
6/5/2022 2:00:00 PM 23.04 73.472 0.198 7.61 925.4 8.6
6/5/2022 2:15:00 PM 23.18 73.724 0.198 7.61 902.4 8.58
6/5/2022 2:30:00 PM 23.09 73.562 0.198 7.61 955.5 8.58
6/5/2022 2:45:00 PM 23.22 73.796 0.197 7.62 651.2 8.56
6/5/2022 3:00:00 PM 23.2 73.76 0.198 7.62 774.1 8.54
6/5/2022 3:15:00 PM 23.32 73.976 0.197 7.62 885.6 8.51
6/5/2022 3:30:00 PM 23.29 73.922 0.197 7.61 844.1 8.49
6/5/2022 3:45:00 PM 23.31 73.958 0.198 7.63 919.9 8.47
6/5/2022 4:00:00 PM 23.29 73.922 0.198 7.62 898.7 8.42
6/5/2022 4:15:00 PM 23.24 73.832 0.198 7.6 982.3 8.42
6/5/2022 4:30:00 PM 23.17 73.706 0.198 7.61 914.4 8.38
6/5/2022 4:45:00 PM 23.12 73.616 0.198 7.6 1068 8.38
6/5/2022 5:00:00 PM 23.07 73.526 0.198 7.6 1071 8.35
6/5/2022 5:15:00 PM 23.03 73.454 0.199 7.6 1103 8.34
6/5/2022 5:30:00 PM 22.93 73.274 0.198 7.59 969.6 8.3
6/5/2022 5:45:00 PM 22.87 73.166 0.198 7.59 1027 8.31
6/5/2022 6:00:00 PM 22.83 73.094 0.198 7.59 1041 8.28
6/5/2022 6:15:00 PM 22.79 73.022 0.199 7.59 962.9 8.26
6/5/2022 6:30:00 PM 22.66 72.788 0.199 7.59 1016 8.26
6/5/2022 6:45:00 PM 22.59 72.662 0.198 7.58 977.2 8.23
6/5/2022 7:00:00 PM 22.4 72.32 0.198 7.57 1000 8.24
6/5/2022 7:15:00 PM 22.3 72.14 0.198 7.57 991.6 8.23
6/5/2022 7:30:00 PM 22.21 71.978 0.198 7.58 807.8 8.2
6/5/2022 7:45:00 PM 22.06 71.708 0.198 7.57 862.2 8.21
6/5/2022 8:00:00 PM 21.99 71.582 0.198 7.56 989.3 8.2
6/5/2022 8:15:00 PM 21.86 71.348 0.198 7.57 861.7 8.18
6/5/2022 8:30:00 PM 21.72 71.096 0.197 7.56 1067 8.19
6/5/2022 8:45:00 PM 21.61 70.898 0.197 7.55 903 8.19
6/5/2022 9:00:00 PM 21.49 70.682 0.198 7.55 937.3 8.19
6/5/2022 9:15:00 PM 21.35 70.43 0.198 7.54 907.4 8.17
6/5/2022 9:30:00 PM 21.29 70.32201 0.198 7.54 956.1 8.18
6/5/2022 9:45:00 PM 21.2 70.16 0.198 7.52 915.2 8.17
6/5/2022 10:00:00 PM 21.1 69.98 0.198 7.53 931.9 8.18
6/5/2022 10:15:00 PM 21.06 69.908 0.198 7.52 907.3 8.17
6/5/2022 10:30:00 PM 20.96 69.728 0.198 7.51 864.1 8.18
6/5/2022 10:45:00 PM 20.93 69.674 0.198 7.51 905.3 8.17
6/5/2022 11:00:00 PM 20.92 69.656 0.198 7.51 981.6 8.17
6/5/2022 11:15:00 PM 20.85 69.53 0.197 7.51 978.7 8.17
6/5/2022 11:30:00 PM 20.8 69.44 0.198 7.51 914.9 8.18
6/5/2022 11:45:00 PM 20.79 69.422 0.198 7.5 928.9 8.18
6/6/2022 12:00:00 AM 20.73 69.314 0.198 7.49 1127 8.19
6/6/2022 12:15:00 AM 20.7 69.26 0.197 7.49 864.7 8.17
6/6/2022 12:30:00 AM 20.65 69.17 0.198 7.5 826.6 8.19
6/6/2022 12:45:00 AM 20.66 69.188 0.197 7.49 907.7 8.17
6/6/2022 1:00:00 AM 20.64 69.152 0.197 7.48 894.9 8.17
6/6/2022 1:15:00 AM 20.62 69.116 0.197 7.48 856.8 8.17
6/6/2022 1:30:00 AM 20.63 69.134 0.197 7.48 874.9 8.16
6/6/2022 1:45:00 AM 20.57 69.026 0.198 7.48 773.5 8.17
6/6/2022 2:00:00 AM 20.55 68.99 0.198 7.49 848.9 8.16
6/6/2022 2:15:00 AM 20.52 68.936 0.197 7.48 855.5 8.18
6/6/2022 2:30:00 AM 20.52 68.936 0.197 7.48 753.3 8.17
6/6/2022 2:45:00 AM 20.47 68.846 0.197 7.48 841.9 8.19
6/6/2022 3:00:00 AM 20.44 68.792 0.197 7.48 796.6 8.19
6/6/2022 3:15:00 AM 20.46 68.828 0.196 7.47 627.1 8.18
6/6/2022 3:30:00 AM 20.38 68.684 0.196 7.48 746.6 8.2
6/6/2022 3:45:00 AM 20.35 68.63 0.196 7.48 944 8.2
6/6/2022 4:00:00 AM 20.32 68.576 0.196 7.48 730.8 8.19
6/6/2022 4:15:00 AM 20.22 68.396 0.196 7.47 904.6 8.23
6/6/2022 4:30:00 AM 20.16 68.288 0.196 7.47 808.6 8.22
6/6/2022 4:45:00 AM 20.2 68.36 0.196 7.48 833.9 8.22
6/6/2022 5:00:00 AM 20.15 68.27 0.196 7.47 832.9 8.23
6/6/2022 5:15:00 AM 20.12 68.216 0.196 7.47 938.4 8.25
6/6/2022 5:30:00 AM 20.04 68.07201 0.197 7.47 905.3 8.25
6/6/2022 5:45:00 AM 19.96 67.92799 0.197 7.48 898.8 8.26
6/6/2022 6:00:00 AM 19.94 67.892 0.197 7.47 810.2 8.27
6/6/2022 6:15:00 AM 19.94 67.892 0.195 7.47 788.9 8.28
6/6/2022 6:30:00 AM 19.87 67.766 0.196 7.47 870.6 8.31
6/6/2022 6:45:00 AM 19.83 67.694 0.197 7.47 822.8 8.32
6/6/2022 7:00:00 AM 19.88 67.784 0.196 7.47 934.8 8.33
6/6/2022 7:15:00 AM 19.9 67.82 0.196 7.48 756.5 8.34
6/6/2022 7:30:00 AM 19.93 67.874 0.196 7.47 950.4 8.35
6/6/2022 7:45:00 AM 19.83 67.694 0.196 7.47 858.7 8.36
6/6/2022 8:00:00 AM 19.98 67.964 0.195 7.47 898 8.38
6/6/2022 8:15:00 AM 19.97 67.946 0.195 7.47 918.4 8.41
6/6/2022 8:30:00 AM 19.97 67.946 0.195 7.48 911.8 8.45
6/6/2022 8:45:00 AM 20.21 68.378 0.195 7.48 850.9 8.44
6/6/2022 9:00:00 AM 20.25 68.45 0.196 7.48 850.4 8.47
6/6/2022 9:15:00 AM 20.45 68.81 0.196 7.48 831 8.48
6/6/2022 9:30:00 AM 20.58 69.044 0.196 7.49 874.5 8.5
6/6/2022 9:45:00 AM 20.75 69.35 0.195 7.49 1059 8.51
6/6/2022 10:00:00 AM 20.83 69.494 0.195 7.5 861.2 8.54
6/6/2022 10:15:00 AM 20.95 69.71 0.195 7.51 885.3 8.57
6/6/2022 10:30:00 AM 20.84 69.512 0.195 7.51 930.7 8.59
6/6/2022 10:45:00 AM 20.68 69.224 0.195 7.51 899.1 8.65
6/6/2022 11:00:00 AM 20.78 69.404 0.195 7.52 821.1 8.67
6/6/2022 11:15:00 AM 20.8 69.44 0.196 7.52 904.5 8.7
6/6/2022 11:30:00 AM 20.89 69.602 0.196 7.52 936.4 8.7
6/6/2022 11:45:00 AM 20.96 69.728 0.197 7.52 814.5 8.75
6/6/2022 12:00:00 PM 21.12 70.016 0.196 7.52 806.2 8.75
6/6/2022 12:15:00 PM 21.31 70.358 0.196 7.53 924.6 8.78
6/6/2022 12:30:00 PM 21.55 70.79 0.197 7.53 789.5 8.77
6/6/2022 12:45:00 PM 21.74 71.132 0.196 7.52 817.2 8.77
6/6/2022 1:00:00 PM 21.89 71.402 0.196 7.51 781.1 8.8
6/6/2022 1:15:00 PM 22.19 71.942 0.196 7.53 756.7 8.78
6/6/2022 1:30:00 PM 22.45 72.41 0.196 7.53 661.9 8.74
6/6/2022 1:45:00 PM 22.72 72.896 0.196 7.52 815.4 8.72
6/6/2022 2:00:00 PM 22.8 73.04 0.196 7.53 780.3 8.74
6/6/2022 2:15:00 PM 22.8 73.04 0.197 7.53 747 8.72
6/6/2022 2:30:00 PM 22.94 73.292 0.197 7.53 680.3 8.7
6/6/2022 2:45:00 PM 23.01 73.418 0.197 7.54 787 8.67
6/6/2022 3:00:00 PM 23.21 73.778 0.196 7.54 972.8 8.62
6/6/2022 3:15:00 PM 23.07 73.526 0.197 7.55 825.4 8.62
6/6/2022 3:30:00 PM 23.23 73.814 0.197 7.54 692.4 8.56
6/6/2022 3:45:00 PM 23.22 73.796 0.197 7.54 811.5 8.52
6/6/2022 4:00:00 PM 23.33 73.994 0.197 7.54 836 8.46
6/6/2022 4:15:00 PM 23.32 73.976 0.197 7.54 804.3 8.44
6/6/2022 4:30:00 PM 23.23 73.814 0.198 7.54 708.5 8.39
6/6/2022 4:45:00 PM 23.23 73.814 0.198 7.52 794.2 8.37
6/6/2022 5:00:00 PM 23.17 73.706 0.197 7.54 1175 8.36
6/6/2022 5:15:00 PM 23.12 73.616 0.198 7.53 760.8 8.31
6/6/2022 5:30:00 PM 23.06 73.508 0.198 7.53 823.8 8.29
6/6/2022 5:45:00 PM 22.98 73.364 0.197 7.53 828.4 8.27
6/6/2022 6:00:00 PM 22.86 73.148 0.197 7.53 848 8.24
6/6/2022 6:15:00 PM 22.98 73.364 0.197 7.53 819 8.17
6/6/2022 6:30:00 PM 22.8 73.04 0.197 7.53 993.5 8.17
6/6/2022 6:45:00 PM 22.64 72.752 0.196 7.53 908.9 8.17
6/6/2022 7:00:00 PM 22.58 72.644 0.198 7.52 886.3 8.14
6/6/2022 7:15:00 PM 22.4 72.32 0.197 7.52 812.6 8.12
6/6/2022 7:30:00 PM 22.35 72.23 0.198 7.51 830.8 8.08
6/6/2022 7:45:00 PM 22.22 71.996 0.197 7.5 841.1 8.07
6/6/2022 8:00:00 PM 22.06 71.708 0.197 7.5 906 8.05
6/6/2022 8:15:00 PM 21.99 71.582 0.197 7.5 881.4 8.04
6/6/2022 8:30:00 PM 21.89 71.402 0.197 7.5 857.5 8.02
6/6/2022 8:45:00 PM 21.76 71.168 0.197 7.5 928.1 8
6/6/2022 9:00:00 PM 21.69 71.042 0.197 7.49 732.3 7.97
6/6/2022 9:15:00 PM 21.58 70.844 0.197 7.48 883.9 7.95
6/6/2022 9:30:00 PM 21.55 70.79 0.198 7.49 792.6 7.94
6/6/2022 9:45:00 PM 21.45 70.61 0.198 7.48 775.4 7.93
6/6/2022 10:00:00 PM 21.36 70.448 0.198 7.47 495.9 7.93
6/6/2022 10:15:00 PM 21.29 70.32201 0.198 7.46 548.6 7.91
6/6/2022 10:30:00 PM 21.27 70.286 0.197 7.47 705.5 7.9
6/6/2022 10:45:00 PM 21.2 70.16 0.197 7.46 350.5 7.9
6/6/2022 11:00:00 PM 21.16 70.088 0.197 7.46 566.1 7.89
6/6/2022 11:15:00 PM 21.2 70.16 0.196 7.45 633.5 7.88
6/6/2022 11:30:00 PM 21.12 70.016 0.197 7.44 809.4 7.87
6/6/2022 11:45:00 PM 21.04 69.872 0.198 7.45 675.1 7.89
6/7/2022 12:00:00 AM 21.03 69.854 0.198 7.45 733.8 7.89
6/7/2022 12:15:00 AM 20.97 69.746 0.198 7.44 674.6 7.9
6/7/2022 12:30:00 AM 20.9 69.62 0.198 7.45 708.1 7.91
6/7/2022 12:45:00 AM 20.88 69.584 0.197 7.44 709.5 7.91
6/7/2022 1:00:00 AM 20.81 69.458 0.196 7.45 911.7 7.92
6/7/2022 1:15:00 AM 20.79 69.422 0.196 7.44 855.9 7.92
6/7/2022 1:30:00 AM 20.7 69.26 0.197 7.43 1014 7.93
6/7/2022 1:45:00 AM 20.69 69.242 0.196 7.43 921.8 7.93
6/7/2022 2:00:00 AM 20.6 69.08 0.197 7.42 935.6 7.94
6/7/2022 2:15:00 AM 20.53 68.954 0.197 7.43 877.4 7.95
6/7/2022 2:30:00 AM 20.46 68.828 0.198 7.43 809.6 7.95
6/7/2022 2:45:00 AM 20.42 68.756 0.198 7.43 819.9 7.96
6/7/2022 3:00:00 AM 20.34 68.612 0.197 7.44 876.9 7.98
6/7/2022 3:15:00 AM 20.31 68.558 0.196 7.43 846.7 7.99
6/7/2022 3:30:00 AM 20.32 68.576 0.197 7.44 691.4 7.98
6/7/2022 3:45:00 AM 20.24 68.432 0.196 7.43 684 7.98
6/7/2022 4:00:00 AM 20.19 68.342 0.196 7.44 673.6 8.01
6/7/2022 4:15:00 AM 20.16 68.288 0.196 7.43 691.9 8.01
6/7/2022 4:30:00 AM 20.06 68.108 0.197 7.43 677.4 8.03
6/7/2022 4:45:00 AM 20 68 0.197 7.44 758.8 8.03
6/7/2022 5:00:00 AM 19.92 67.856 0.197 7.43 694.1 8.05
6/7/2022 5:15:00 AM 19.87 67.766 0.197 7.43 663.3 8.06
6/7/2022 5:30:00 AM 19.82 67.676 0.197 7.43 681.8 8.07
6/7/2022 5:45:00 AM 19.81 67.658 0.197 7.43 723.7 8.08
6/7/2022 6:00:00 AM 19.76 67.568 0.197 7.43 702.8 8.09
6/7/2022 6:15:00 AM 19.75 67.55 0.197 7.43 648.4 8.1
6/7/2022 6:30:00 AM 19.82 67.676 0.197 7.43 646.3 8.1
6/7/2022 6:45:00 AM 19.73 67.514 0.197 7.44 694.6 8.12
6/7/2022 7:00:00 AM 19.68 67.424 0.197 7.43 751.7 8.16
6/7/2022 7:15:00 AM 19.77 67.586 0.197 7.43 672.2 8.16
6/7/2022 7:30:00 AM 19.73 67.514 0.197 7.43 646.1 8.2
6/7/2022 7:45:00 AM 19.8 67.64 0.196 7.43 631.5 8.23
6/7/2022 8:00:00 AM 19.75 67.55 0.196 7.44 635.3 8.26
6/7/2022 8:15:00 AM 19.74 67.532 0.196 7.44 666.6 8.28
6/7/2022 8:30:00 AM 19.9 67.82 0.196 7.44 661.4 8.3
6/7/2022 8:45:00 AM 19.95 67.91 0.196 7.45 660.7 8.34
6/7/2022 9:00:00 AM 19.97 67.946 0.196 7.44 640.1 8.37
6/7/2022 9:15:00 AM 20.03 68.054 0.196 7.46 702.1 8.45
6/7/2022 9:30:00 AM 20.1 68.18 0.195 7.47 673.9 8.47
6/7/2022 9:45:00 AM 20.21 68.378 0.196 7.46 628.1 8.5
6/7/2022 10:00:00 AM 20.29 68.522 0.195 7.46 990.4 8.5
6/7/2022 10:15:00 AM 20.36 68.648 0.195 7.47 894 8.52
6/7/2022 10:30:00 AM 20.5 68.9 0.195 7.47 816 8.57
6/7/2022 10:45:00 AM 20.39 68.702 0.194 7.48 804.7 8.65
6/7/2022 11:00:00 AM 20.37 68.666 0.194 7.49 762.1 8.75
6/7/2022 11:15:00 AM 20.43 68.774 0.194 7.51 759.5 8.84
6/7/2022 11:30:00 AM 20.39 68.702 0.194 7.51 790.2 8.91
6/7/2022 11:45:00 AM 20.42 68.756 0.195 7.53 1185 8.99
6/7/2022 12:00:00 PM 20.31 68.558 0.195 7.54 858.4 9.03
6/7/2022 12:15:00 PM 20.33 68.594 0.195 7.56 862.4 9.04
6/7/2022 12:30:00 PM 20.34 68.612 0.195 7.57 932 9.09
6/7/2022 12:45:00 PM 20.45 68.81 0.195 7.58 790 9.14
6/7/2022 1:00:00 PM 20.47 68.846 0.195 7.59 909 9.18
6/7/2022 1:15:00 PM 20.5 68.9 0.195 7.6 895 9.13
6/7/2022 1:30:00 PM 20.64 69.152 0.195 7.59 803.1 9.02
6/7/2022 1:45:00 PM 21 69.8 0.195 7.56 767 8.82
6/7/2022 2:00:00 PM 21.27 70.286 0.198 7.54 771 8.57
6/7/2022 2:15:00 PM 21.54 70.772 0.197 7.49 769.2 8.43
6/7/2022 2:30:00 PM 21.77 71.186 0.196 7.47 1256 8.34
6/7/2022 2:45:00 PM 21.64 70.952 0.197 7.46 780.4 8.35
6/7/2022 3:00:00 PM 21.72 71.096 0.196 7.45 815.6 8.32
6/7/2022 3:15:00 PM 21.61 70.898 0.196 7.46 876.3 8.3
6/7/2022 3:30:00 PM 21.5 70.7 0.195 7.46 840.8 8.33
6/7/2022 3:45:00 PM 21.43 70.574 0.195 7.46 800.8 8.33
6/7/2022 4:00:00 PM 21.48 70.664 0.195 7.46 821.2 8.31
6/7/2022 4:15:00 PM 21.47 70.646 0.195 7.47 723.6 8.33
6/7/2022 4:30:00 PM 21.36 70.448 0.196 7.47 797.6 8.34
6/7/2022 4:45:00 PM 21.2 70.16 0.196 7.47 717.3 8.34
6/7/2022 5:00:00 PM 21.18 70.124 0.196 7.47 813.9 8.31
6/7/2022 5:15:00 PM 21.12 70.016 0.195 7.47 836.8 8.28
6/7/2022 5:30:00 PM 21.08 69.944 0.196 7.48 797.4 8.27
6/7/2022 5:45:00 PM 21.1 69.98 0.196 7.47 823.8 8.23
6/7/2022 6:00:00 PM 21.13 70.034 0.195 7.46 730.5 8.21
6/7/2022 6:15:00 PM 21.08 69.944 0.196 7.46 807.6 8.18
6/7/2022 6:30:00 PM 21.14 70.052 0.195 7.46 839.1 8.16
6/7/2022 6:45:00 PM 21.08 69.944 0.195 7.46 830.2 8.15
6/7/2022 7:00:00 PM 21.05 69.89 0.196 7.46 746.9 8.16
6/7/2022 7:15:00 PM 21.11 69.998 0.194 7.46 1084 8.14
6/7/2022 7:30:00 PM 21.04 69.872 0.195 7.45 702.9 8.12
6/7/2022 7:45:00 PM 21.04 69.872 0.196 7.45 682.6 8.11
6/7/2022 8:00:00 PM 21.13 70.034 0.195 7.45 782.3 8.09
6/7/2022 8:15:00 PM 21.05 69.89 0.195 7.45 836.2 8.07
6/7/2022 8:30:00 PM 21.06 69.908 0.195 7.45 767.4 8.05
6/7/2022 8:45:00 PM 21.07 69.926 0.195 7.45 755.8 7.99
6/7/2022 9:00:00 PM 21.02 69.836 0.194 7.43 739.8 8
6/7/2022 9:15:00 PM 20.93 69.674 0.194 7.43 758.3 8
6/7/2022 9:30:00 PM 20.93 69.674 0.195 7.43 694.5 7.97
6/7/2022 9:45:00 PM 20.88 69.584 0.195 7.43 682.4 7.98
6/7/2022 10:00:00 PM 20.84 69.512 0.195 7.42 679.9 7.97
6/7/2022 10:15:00 PM 20.85 69.53 0.194 7.42 689.8 7.97
6/7/2022 10:30:00 PM 20.75 69.35 0.195 7.41 683.6 7.96
6/7/2022 10:45:00 PM 20.8 69.44 0.194 7.4 646.6 7.95
6/7/2022 11:00:00 PM 20.7 69.26 0.194 7.4 702.9 7.96
6/7/2022 11:15:00 PM 20.69 69.242 0.194 7.39 668.8 7.96
6/7/2022 11:30:00 PM 20.63 69.134 0.194 7.4 686.1 7.96
6/7/2022 11:45:00 PM 20.59 69.062 0.194 7.39 712.7 7.97
6/8/2022 12:00:00 AM 20.58 69.044 0.194 7.4 698.4 7.97
6/8/2022 12:15:00 AM 20.47 68.846 0.195 7.4 650.5 7.98
6/8/2022 12:30:00 AM 20.48 68.864 0.194 7.4 634.7 7.99
6/8/2022 12:45:00 AM 20.4 68.72 0.194 7.4 695.4 7.97
6/8/2022 1:00:00 AM 20.43 68.774 0.194 7.4 653.6 7.98
6/8/2022 1:15:00 AM 20.43 68.774 0.195 7.39 638.7 7.98
6/8/2022 1:30:00 AM 20.37 68.666 0.194 7.38 614.2 7.99
6/8/2022 1:45:00 AM 20.35 68.63 0.194 7.39 709.3 7.96
6/8/2022 2:00:00 AM 20.33 68.594 0.194 7.39 723.8 7.98
6/8/2022 2:15:00 AM 20.24 68.432 0.195 7.39 779.9 8
6/8/2022 2:30:00 AM 20.26 68.468 0.195 7.39 620.7 8
6/8/2022 2:45:00 AM 20.21 68.378 0.195 7.39 664.6 8.01
6/8/2022 3:00:00 AM 20.17 68.306 0.194 7.39 670.3 8
6/8/2022 3:15:00 AM 20.18 68.324 0.194 7.39 836.2 8.01
6/8/2022 3:30:00 AM 20.08 68.144 0.195 7.38 669.1 8.02
6/8/2022 3:45:00 AM 20.12 68.216 0.194 7.39 659.4 8.01
6/8/2022 4:00:00 AM 20.11 68.198 0.194 7.38 636.8 8.02
6/8/2022 4:15:00 AM 20.14 68.252 0.194 7.38 704.8 8
6/8/2022 4:30:00 AM 20.11 68.198 0.194 7.38 679.7 8.03
6/8/2022 4:45:00 AM 20.02 68.036 0.194 7.37 720.9 8.03
6/8/2022 5:00:00 AM 20.04 68.07201 0.193 7.39 702.9 8.03
6/8/2022 5:15:00 AM 20.01 68.018 0.193 7.39 720.4 8.04
6/8/2022 5:30:00 AM 19.98 67.964 0.194 7.38 1059 8.04
6/8/2022 5:45:00 AM 19.95 67.91 0.193 7.38 697 8.05
6/8/2022 6:00:00 AM 19.93 67.874 0.194 7.38 652.4 8.05
6/8/2022 6:15:00 AM 19.88 67.784 0.194 7.37 659.4 8.06
6/8/2022 6:30:00 AM 19.9 67.82 0.194 7.37 639 8.07
6/8/2022 6:45:00 AM 19.86 67.748 0.194 7.35 600 8.1
6/8/2022 7:00:00 AM 19.78 67.604 0.194 7.36 629.1 8.11
6/8/2022 7:15:00 AM 19.74 67.532 0.194 7.36 759.7 8.13
6/8/2022 7:30:00 AM 19.77 67.586 0.194 7.36 653.1 8.16
6/8/2022 7:45:00 AM 19.76 67.568 0.194 7.36 662.1 8.18
6/8/2022 8:00:00 AM 19.84 67.712 0.194 7.36 658.7 8.21
6/8/2022 8:15:00 AM 19.93 67.874 0.193 7.37 652 8.25
6/8/2022 8:30:00 AM 19.96 67.92799 0.193 7.37 620.9 8.27
6/8/2022 8:45:00 AM 19.99 67.982 0.193 7.38 653.7 8.31
6/8/2022 9:00:00 AM 20.09 68.162 0.193 7.38 698 8.34
6/8/2022 9:15:00 AM 20.15 68.27 0.194 7.38 617.3 8.41
6/8/2022 9:30:00 AM 20.18 68.324 0.194 7.38 680.8 8.46
6/8/2022 9:45:00 AM 20.28 68.504 0.194 7.4 1036 8.47
6/8/2022 10:00:00 AM 20.37 68.666 0.193 7.4 646.3 8.52
6/8/2022 10:15:00 AM 20.55 68.99 0.193 7.4 778.3 8.55
6/8/2022 10:30:00 AM 20.67 69.206 0.192 7.41 681.5 8.58
6/8/2022 10:45:00 AM 20.77 69.386 0.193 7.43 651.9 8.63
6/8/2022 11:00:00 AM 21.06 69.908 0.192 7.43 615.2 8.66
6/8/2022 11:15:00 AM 21.3 70.34 0.192 7.43 692.7 8.68
6/8/2022 11:30:00 AM 21.42 70.556 0.192 7.45 722.4 8.72
6/8/2022 11:45:00 AM 21.56 70.808 0.193 7.46 658.4 8.75
6/8/2022 12:00:00 PM 21.75 71.15 0.193 7.47 1103 8.79
6/8/2022 12:15:00 PM 21.97 71.546 0.193 7.46 648 8.76
6/8/2022 12:30:00 PM 22.09 71.762 0.193 7.48 742.9 8.81
6/8/2022 12:45:00 PM 22.32 72.176 0.192 7.47 757.4 8.79
6/8/2022 1:00:00 PM 22.51 72.518 0.193 7.48 678.7 8.8
6/8/2022 1:15:00 PM 22.81 73.058 0.192 7.48 690.7 8.76
6/8/2022 1:30:00 PM 22.99 73.382 0.192 7.48 671.7 8.72
6/8/2022 1:45:00 PM 23.17 73.706 0.192 7.47 1357 8.72
6/8/2022 2:00:00 PM 23.36 74.048 0.193 7.48 632.2 8.71
6/8/2022 2:15:00 PM 23.52 74.336 0.192 7.47 595.1 8.7
6/8/2022 2:30:00 PM 23.66 74.588 0.192 7.48 566.6 8.64
6/8/2022 2:45:00 PM 23.65 74.57 0.193 7.49 574.4 8.63
6/8/2022 3:00:00 PM 23.7 74.66 0.193 7.49 707.7 8.52
6/8/2022 3:15:00 PM 23.72 74.696 0.192 7.49 608.5 8.49
6/8/2022 3:30:00 PM 23.77 74.786 0.193 7.49 951.1 8.42
6/8/2022 3:45:00 PM 23.72 74.696 0.193 7.48 559.5 8.42
6/8/2022 4:00:00 PM 23.83 74.894 0.193 7.48 603 8.37
6/8/2022 4:15:00 PM 23.85 74.93 0.193 7.47 644.1 8.32
6/8/2022 4:30:00 PM 23.79 74.82201 0.193 7.47 586.7 8.32
6/8/2022 4:45:00 PM 23.75 74.75 0.194 7.47 657 8.29
6/8/2022 5:00:00 PM 23.77 74.786 0.194 7.46 587.2 8.21
6/8/2022 5:15:00 PM 23.8 74.84 0.194 7.47 585.6 8.21
6/8/2022 5:30:00 PM 23.84 74.912 0.193 7.46 709.3 8.16
6/8/2022 5:45:00 PM 23.84 74.912 0.192 7.46 591.6 8.11
6/8/2022 6:00:00 PM 23.82 74.876 0.193 7.45 602.8 8.08
6/8/2022 6:15:00 PM 23.73 74.714 0.193 7.45 587.7 8.04
6/8/2022 6:30:00 PM 23.63 74.534 0.192 7.44 571 8.01
6/8/2022 6:45:00 PM 23.55 74.39 0.193 7.43 638.2 7.98
6/8/2022 7:00:00 PM 23.45 74.21 0.193 7.43 694.5 7.95
6/8/2022 7:15:00 PM 23.3 73.94 0.193 7.43 734 7.9
6/8/2022 7:30:00 PM 23.19 73.742 0.193 7.42 602.2 7.89
6/8/2022 7:45:00 PM 23.07 73.526 0.193 7.41 620.4 7.88
6/8/2022 8:00:00 PM 22.95 73.31 0.194 7.41 620.8 7.84
6/8/2022 8:15:00 PM 22.82 73.076 0.194 7.41 584.2 7.84
6/8/2022 8:30:00 PM 22.74 72.932 0.193 7.4 571 7.81
6/8/2022 8:45:00 PM 22.66 72.788 0.193 7.39 605.3 7.77
6/8/2022 9:00:00 PM 22.58 72.644 0.193 7.38 615.5 7.77
6/8/2022 9:15:00 PM 22.48 72.464 0.194 7.39 574.5 7.74
6/8/2022 9:30:00 PM 22.42 72.356 0.194 7.38 619.9 7.74
6/8/2022 9:45:00 PM 22.36 72.248 0.193 7.38 668.4 7.7
6/8/2022 10:00:00 PM 22.29 72.122 0.193 7.37 562.9 7.71
6/8/2022 10:15:00 PM 22.24 72.032 0.193 7.36 610.6 7.71
6/8/2022 10:30:00 PM 22.2 71.96 0.193 7.37 583.5 7.69
6/8/2022 10:45:00 PM 22.18 71.924 0.193 7.36 590.7 7.69
6/8/2022 11:00:00 PM 22.16 71.888 0.193 7.35 575.9 7.67
6/8/2022 11:15:00 PM 22.15 71.87 0.193 7.35 652.9 7.67
6/8/2022 11:30:00 PM 22.12 71.816 0.193 7.34 638.7 7.66
6/8/2022 11:45:00 PM 22.1 71.78 0.193 7.34 632.7 7.65
6/9/2022 12:00:00 AM 22.08 71.744 0.191 7.33 592.2 7.65
6/9/2022 12:15:00 AM 22.09 71.762 0.192 7.33 648.7 7.63
6/9/2022 12:30:00 AM 22.08 71.744 0.192 7.33 642 7.61
6/9/2022 12:45:00 AM 22.07 71.726 0.191 7.33 592.9 7.59
6/9/2022 1:00:00 AM 22.07 71.726 0.192 7.33 661.7 7.59
6/9/2022 1:15:00 AM 22.08 71.744 0.192 7.32 586.6 7.59
6/9/2022 1:30:00 AM 22.08 71.744 0.191 7.32 646.7 7.58
6/9/2022 1:45:00 AM 22.08 71.744 0.191 7.32 786.8 7.58
6/9/2022 2:00:00 AM 22.06 71.708 0.192 7.32 923.5 7.57
6/9/2022 2:15:00 AM 22.05 71.69 0.192 7.32 631.8 7.57
6/9/2022 2:30:00 AM 22.04 71.672 0.192 7.33 551.7 7.57
6/9/2022 2:45:00 AM 22.04 71.672 0.192 7.32 871.6 7.56
6/9/2022 3:00:00 AM 22.04 71.672 0.193 7.32 612.1 7.57
6/9/2022 3:15:00 AM 22.05 71.69 0.193 7.31 615.7 7.55
6/9/2022 3:30:00 AM 22.06 71.708 0.193 7.31 634.8 7.53
6/9/2022 3:45:00 AM 22.05 71.69 0.192 7.31 616.6 7.53
6/9/2022 4:00:00 AM 22.03 71.654 0.193 7.33 417.6 7.53
6/9/2022 4:15:00 AM 21.99 71.582 0.192 7.33 399.6 7.52
6/9/2022 4:30:00 AM 21.94 71.492 0.193 7.32 577.3 7.54
6/9/2022 4:45:00 AM 21.9 71.42 0.192 7.32 415.3 7.53
6/9/2022 5:00:00 AM 21.87 71.366 0.193 7.34 573.5 7.55
6/9/2022 5:15:00 AM 21.82 71.276 0.193 7.33 582.6 7.55
6/9/2022 5:30:00 AM 21.77 71.186 0.193 7.31 546.9 7.56
6/9/2022 5:45:00 AM 21.74 71.132 0.193 7.33 514.2 7.57
6/9/2022 6:00:00 AM 21.71 71.078 0.193 7.32 531.2 7.58
6/9/2022 6:15:00 AM 21.71 71.078 0.192 7.32 569.8 7.59
6/9/2022 6:30:00 AM 21.66 70.988 0.193 7.33 536.2 7.6
6/9/2022 6:45:00 AM 21.6 70.88 0.193 7.33 522.9 7.63
6/9/2022 7:00:00 AM 21.58 70.844 0.192 7.32 556.9 7.63
6/9/2022 7:15:00 AM 21.51 70.718 0.193 7.33 572.5 7.65
6/9/2022 7:30:00 AM 21.52 70.736 0.192 7.33 651.3 7.67
6/9/2022 7:45:00 AM 21.54 70.772 0.192 7.33 662.3 7.7
6/9/2022 8:00:00 AM 21.5 70.7 0.192 7.34 631.4 7.72
6/9/2022 8:15:00 AM 21.51 70.718 0.192 7.33 701.7 7.76
6/9/2022 8:30:00 AM 21.55 70.79 0.192 7.32 724.1 7.79
6/9/2022 8:45:00 AM 21.64 70.952 0.191 7.33 675.5 7.81
6/9/2022 9:00:00 AM 21.64 70.952 0.191 7.33 639.4 7.84
6/9/2022 9:15:00 AM 21.64 70.952 0.192 7.33 666 7.87
6/9/2022 9:30:00 AM 21.67 71.006 0.191 7.33 678.8 7.9
6/9/2022 9:45:00 AM 21.68 71.024 0.191 7.33 609 7.93
6/9/2022 10:00:00 AM 21.65 70.97 0.191 7.34 543 7.95
6/9/2022 10:15:00 AM 21.81 71.258 0.191 7.34 560.2 7.99
6/9/2022 10:30:00 AM 21.91 71.438 0.191 7.34 487.3 7.99
6/9/2022 10:45:00 AM 21.96 71.528 0.19 7.34 541.5 8.09
6/9/2022 11:00:00 AM 22.08 71.744 0.19 7.35 940.4 8.14
6/9/2022 11:15:00 AM 22.22 71.996 0.19 7.35 389.9 8.18
6/9/2022 11:30:00 AM 22.35 72.23 0.19 7.34 474.4 8.25
6/9/2022 11:45:00 AM 22.34 72.212 0.19 7.36 758.8 8.29
6/9/2022 12:00:00 PM 22.47 72.446 0.19 7.37 709.6 8.34
6/9/2022 12:15:00 PM 22.53 72.554 0.19 7.37 644.2 8.38
6/9/2022 12:30:00 PM 22.69 72.842 0.19 7.38 586 8.44
6/9/2022 12:45:00 PM 22.81 73.058 0.189 7.38 443.5 8.47
6/9/2022 1:00:00 PM 22.91 73.238 0.189 7.39 450.5 8.48
6/9/2022 1:15:00 PM 23 73.4 0.189 7.39 781.5 8.5
6/9/2022 1:30:00 PM 23.12 73.616 0.189 7.39 766.1 8.53
6/9/2022 1:45:00 PM 23.19 73.742 0.189 7.4 1004 8.54
6/9/2022 2:00:00 PM 23.28 73.904 0.189 7.41 1114 8.56
6/9/2022 2:15:00 PM 23.32 73.976 0.189 7.41 800 8.55
6/9/2022 2:30:00 PM 23.32 73.976 0.189 7.43 712.5 8.53
6/9/2022 2:45:00 PM 23.31 73.958 0.189 7.43 605.3 8.46
6/9/2022 3:00:00 PM 23.32 73.976 0.189 7.42 631.1 8.42
6/9/2022 3:15:00 PM 23.27 73.886 0.188 7.43 635.9 8.43
6/9/2022 3:30:00 PM 23.22 73.796 0.189 7.43 647.9 8.38
6/9/2022 3:45:00 PM 23.13 73.634 0.188 7.42 644 8.35
6/9/2022 4:00:00 PM 23.01 73.418 0.188 7.42 645.9 8.32
6/9/2022 4:15:00 PM 22.91 73.238 0.189 7.42 670.9 8.3
6/9/2022 4:30:00 PM 22.84 73.112 0.188 7.41 720.5 8.28
6/9/2022 4:45:00 PM 22.71 72.878 0.189 7.41 692.2 8.27
6/9/2022 5:00:00 PM 22.59 72.662 0.189 7.42 690.1 8.25
6/9/2022 5:15:00 PM 22.51 72.518 0.189 7.42 715.9 8.26
6/9/2022 5:30:00 PM 22.41 72.338 0.189 7.41 690 8.25
6/9/2022 5:45:00 PM 22.33 72.194 0.189 7.4 690.1 8.21
6/9/2022 6:00:00 PM 22.26 72.068 0.19 7.4 680.5 8.17
6/9/2022 6:15:00 PM 22.19 71.942 0.189 7.41 783.8 8.14
6/9/2022 6:30:00 PM 22.09 71.762 0.189 7.39 756.1 8.11
6/9/2022 6:45:00 PM 21.98 71.564 0.189 7.4 773.5 8.1
6/9/2022 7:00:00 PM 21.86 71.348 0.189 7.39 735.6 8.08
6/9/2022 7:15:00 PM 21.73 71.114 0.19 7.39 740.4 8.07
6/9/2022 7:30:00 PM 21.63 70.934 0.189 7.39 794 8.06
6/9/2022 7:45:00 PM 21.54 70.772 0.189 7.38 884.9 8.05
6/9/2022 8:00:00 PM 21.48 70.664 0.189 7.37 805.7 8.03
6/9/2022 8:15:00 PM 21.4 70.52 0.19 7.38 743.1 8.01
6/9/2022 8:30:00 PM 21.32 70.376 0.189 7.37 811.1 8
6/9/2022 8:45:00 PM 21.23 70.214 0.189 7.36 816.6 7.99
6/9/2022 9:00:00 PM 21.13 70.034 0.189 7.36 874.2 7.97
6/9/2022 9:15:00 PM 21.06 69.908 0.189 7.36 873.3 7.94
6/9/2022 9:30:00 PM 20.99 69.782 0.19 7.35 919.1 7.95
6/9/2022 9:45:00 PM 20.97 69.746 0.19 7.35 875.5 7.93
6/9/2022 10:00:00 PM 20.92 69.656 0.19 7.35 852.2 7.92
6/9/2022 10:15:00 PM 20.87 69.566 0.19 7.35 863.6 7.93
6/9/2022 10:30:00 PM 20.82 69.476 0.19 7.34 919.9 7.92
6/9/2022 10:45:00 PM 20.76 69.368 0.19 7.34 780 7.92
6/9/2022 11:00:00 PM 20.7 69.26 0.19 7.34 1070 7.92
6/9/2022 11:15:00 PM 20.66 69.188 0.19 7.33 992 7.92
6/9/2022 11:30:00 PM 20.61 69.098 0.19 7.33 1055 7.92
6/9/2022 11:45:00 PM 20.57 69.026 0.19 7.32 1122 7.92
6/10/2022 12:00:00 AM 20.53 68.954 0.19 7.33 1180 7.92
6/10/2022 12:15:00 AM 20.5 68.9 0.19 7.33 1109 7.91
6/10/2022 12:30:00 AM 20.46 68.828 0.19 7.32 1032 7.92
6/10/2022 12:45:00 AM 20.42 68.756 0.19 7.32 1136 7.92
6/10/2022 1:00:00 AM 20.38 68.684 0.19 7.31 1073 7.91
6/10/2022 1:15:00 AM 20.34 68.612 0.19 7.31 999.6 7.93
6/10/2022 1:30:00 AM 20.3 68.54 0.189 7.31 1006 7.94
6/10/2022 1:45:00 AM 20.25 68.45 0.19 7.32 974.6 7.94
6/10/2022 2:00:00 AM 20.19 68.342 0.19 7.32 917.4 7.95
6/10/2022 2:15:00 AM 20.12 68.216 0.19 7.32 1063 7.96
6/10/2022 2:30:00 AM 20.07 68.126 0.19 7.31 1040 7.97
6/10/2022 2:45:00 AM 20.01 68.018 0.19 7.32 1011 7.96
6/10/2022 3:00:00 AM 19.95 67.91 0.19 7.32 939.3 7.99
6/10/2022 3:15:00 AM 19.89 67.802 0.19 7.33 1051 7.99
6/10/2022 3:30:00 AM 19.84 67.712 0.19 7.33 1001 8
6/10/2022 3:45:00 AM 19.79 67.622 0.19 7.33 1060 8.01
6/10/2022 4:00:00 AM 19.74 67.532 0.19 7.32 1028 8.02
6/10/2022 4:15:00 AM 19.69 67.442 0.19 7.33 982.9 8.03
6/10/2022 4:30:00 AM 19.63 67.334 0.19 7.33 1109 8.05
6/10/2022 4:45:00 AM 19.55 67.19 0.19 7.32 1144 8.05
6/10/2022 5:00:00 AM 19.47 67.046 0.19 7.33 1145 8.08
6/10/2022 5:15:00 AM 19.42 66.956 0.19 7.32 1191 8.08
6/10/2022 5:30:00 AM 19.36 66.848 0.19 7.33 1174 8.1
6/10/2022 5:45:00 AM 19.31 66.758 0.19 7.33 1243 8.11
6/10/2022 6:00:00 AM 19.27 66.686 0.19 7.33 1220 8.12
6/10/2022 6:15:00 AM 19.21 66.578 0.19 7.34 1449 8.14
6/10/2022 6:30:00 AM 19.17 66.506 0.19 7.33 1228 8.15
6/10/2022 6:45:00 AM 19.15 66.47 0.19 7.33 1103 8.16
6/10/2022 7:00:00 AM 19.09 66.362 0.19 7.32 1120 8.19
6/10/2022 7:15:00 AM 19.02 66.236 0.19 7.33 1112 8.22
6/10/2022 7:30:00 AM 19.03 66.254 0.19 7.34 1031 8.23
6/10/2022 7:45:00 AM 19.08 66.344 0.19 7.33 1111 8.26
6/10/2022 8:00:00 AM 19.12 66.416 0.19 7.34 1120 8.29
6/10/2022 8:15:00 AM 19.13 66.434 0.19 7.33 1259 8.31
6/10/2022 8:30:00 AM 19.21 66.578 0.189 7.33 1122 8.35
6/10/2022 8:45:00 AM 19.34 66.812 0.189 7.33 1086 8.36
6/10/2022 9:00:00 AM 19.43 66.974 0.189 7.34 1202 8.4
6/10/2022 9:15:00 AM 19.52 67.136 0.189 7.34 1098 8.44
6/10/2022 9:30:00 AM 19.64 67.352 0.188 7.35 1119 8.49
6/10/2022 9:45:00 AM 19.79 67.622 0.188 7.36 1221 8.51